PWSweather.com
Personal Weather Stations
Station Observations
DELRAY
Delray, Delray Beach, FL 33445

DelrayDelray Beach, FL 33445

Lat: 26.468, Lon: -80.094

Elevation: 30

Station Type: Acurite 01035

High Low Average
Temperature 86.9°F30.5°C 60.8°F16.0°C 73.0°F22.8°C
Dew Point 71.2°F21.8°C 51.9°F11.1°C 63.4°F17.4°C
Winds 13.5 mph 21.7 kmh Calm Calm 3.0 mph WSW4.8 kmh WSW
Wind Gusts 13.5 mph21.7 kmh -- 5.0 mph8.0 kmh
Humidity 95% 50% 74%
Pressure 30.08 in1018.6 mb 30.01 in1016.3 mb -
Precipitation 0.00 in0.0 mm - -
Hour Temp Dew Point Humidity Winds Wind Gusts Pressure Precip Precip Rate Daily Precip Total
12:00 AM 70.3°F21.3°C 64.5°F18.1°C 82% Calm Calm -- 30.06 in1017.9 mb 0.00 in0.0 mm 0.00 in0.0 mm 0.00 in0.0 mm
12:01 AM 70.3°F21.3°C 64.5°F18.1°C 82% Calm Calm -- 30.06 in1017.9 mb 0.00 in0.0 mm 0.00 in0.0 mm 0.00 in0.0 mm
12:02 AM 70.3°F21.3°C 64.5°F18.1°C 82% Calm Calm -- 30.06 in1017.9 mb 0.00 in0.0 mm 0.00 in0.0 mm 0.00 in0.0 mm
12:03 AM 70.3°F21.3°C 64.5°F18.1°C 82% Calm Calm -- 30.06 in1017.9 mb 0.00 in0.0 mm 0.00 in0.0 mm 0.00 in0.0 mm
12:04 AM 70.3°F21.3°C 64.5°F18.1°C 82% Calm Calm -- 30.06 in1017.9 mb 0.00 in0.0 mm 0.00 in0.0 mm 0.00 in0.0 mm
12:05 AM 70.2°F21.2°C 64.4°F18.0°C 82% Calm Calm -- 30.06 in1017.9 mb 0.00 in0.0 mm 0.00 in0.0 mm 0.00 in0.0 mm
12:06 AM 70.2°F21.2°C 64.4°F18.0°C 82% Calm Calm -- 30.06 in1017.9 mb 0.00 in0.0 mm 0.00 in0.0 mm 0.00 in0.0 mm
12:07 AM 70.2°F21.2°C 64.4°F18.0°C 82% Calm Calm -- 30.06 in1017.9 mb 0.00 in0.0 mm 0.00 in0.0 mm 0.00 in0.0 mm
12:08 AM 70.2°F21.2°C 64.4°F18.0°C 82% Calm Calm -- 30.06 in1017.9 mb 0.00 in0.0 mm 0.00 in0.0 mm 0.00 in0.0 mm
12:09 AM 70.2°F21.2°C 64.8°F18.2°C 83% Calm Calm -- 30.06 in1017.9 mb 0.00 in0.0 mm 0.00 in0.0 mm 0.00 in0.0 mm
12:10 AM 70.2°F21.2°C 64.8°F18.2°C 83% Calm Calm -- 30.06 in1017.9 mb 0.00 in0.0 mm 0.00 in0.0 mm 0.00 in0.0 mm
12:11 AM 70.2°F21.2°C 64.8°F18.2°C 83% Calm Calm -- 30.06 in1017.9 mb 0.00 in0.0 mm 0.00 in0.0 mm 0.00 in0.0 mm
12:12 AM 70.0°F21.1°C 64.6°F18.1°C 83% Calm Calm -- 30.06 in1017.9 mb 0.00 in0.0 mm 0.00 in0.0 mm 0.00 in0.0 mm
12:13 AM 70.0°F21.1°C 64.6°F18.1°C 83% Calm Calm -- 30.06 in1017.9 mb 0.00 in0.0 mm 0.00 in0.0 mm 0.00 in0.0 mm
12:14 AM 70.0°F21.1°C 64.6°F18.1°C 83% Calm Calm -- 30.06 in1017.9 mb 0.00 in0.0 mm 0.00 in0.0 mm 0.00 in0.0 mm
12:15 AM 70.0°F21.1°C 64.6°F18.1°C 83% Calm Calm -- 30.06 in1017.9 mb 0.00 in0.0 mm 0.00 in0.0 mm 0.00 in0.0 mm
12:16 AM 70.0°F21.1°C 64.6°F18.1°C 83% Calm Calm -- 30.06 in1017.9 mb 0.00 in0.0 mm 0.00 in0.0 mm 0.00 in0.0 mm
12:17 AM 70.0°F21.1°C 64.6°F18.1°C 83% Calm Calm -- 30.06 in1017.9 mb 0.00 in0.0 mm 0.00 in0.0 mm 0.00 in0.0 mm
12:18 AM 69.8°F21.0°C 64.4°F18.0°C 83% Calm Calm -- 30.06 in1017.9 mb 0.00 in0.0 mm 0.00 in0.0 mm 0.00 in0.0 mm
12:19 AM 69.8°F21.0°C 64.4°F18.0°C 83% Calm Calm -- 30.06 in1017.9 mb 0.00 in0.0 mm 0.00 in0.0 mm 0.00 in0.0 mm
12:20 AM 69.8°F21.0°C 64.4°F18.0°C 83% Calm Calm -- 30.06 in1017.9 mb 0.00 in0.0 mm 0.00 in0.0 mm 0.00 in0.0 mm
12:21 AM 69.8°F21.0°C 64.4°F18.0°C 83% Calm Calm -- 30.06 in1017.9 mb 0.00 in0.0 mm 0.00 in0.0 mm 0.00 in0.0 mm
12:22 AM 69.8°F21.0°C 64.4°F18.0°C 83% Calm Calm -- 30.06 in1017.9 mb 0.00 in0.0 mm 0.00 in0.0 mm 0.00 in0.0 mm
12:23 AM 69.6°F20.9°C 64.5°F18.1°C 84% Calm Calm -- 30.06 in1017.9 mb 0.00 in0.0 mm 0.00 in0.0 mm 0.00 in0.0 mm
12:24 AM 69.6°F20.9°C 64.5°F18.1°C 84% Calm Calm -- 30.06 in1017.9 mb 0.00 in0.0 mm 0.00 in0.0 mm 0.00 in0.0 mm
12:25 AM 69.6°F20.9°C 64.5°F18.1°C 84% Calm Calm -- 30.06 in1017.9 mb 0.00 in0.0 mm 0.00 in0.0 mm 0.00 in0.0 mm
12:26 AM 69.6°F20.9°C 64.5°F18.1°C 84% Calm Calm -- 30.06 in1017.9 mb 0.00 in0.0 mm 0.00 in0.0 mm 0.00 in0.0 mm
12:27 AM 69.6°F20.9°C 64.5°F18.1°C 84% Calm Calm -- 30.06 in1017.9 mb 0.00 in0.0 mm 0.00 in0.0 mm 0.00 in0.0 mm
12:28 AM 69.6°F20.9°C 64.5°F18.1°C 84% Calm Calm -- 30.06 in1017.9 mb 0.00 in0.0 mm 0.00 in0.0 mm 0.00 in0.0 mm
12:29 AM 69.6°F20.9°C 64.5°F18.1°C 84% Calm Calm -- 30.06 in1017.9 mb 0.00 in0.0 mm 0.00 in0.0 mm 0.00 in0.0 mm
12:30 AM 69.4°F20.8°C 64.3°F17.9°C 84% Calm Calm -- 30.06 in1017.9 mb 0.00 in0.0 mm 0.00 in0.0 mm 0.00 in0.0 mm
12:31 AM 69.4°F20.8°C 64.7°F18.2°C 85% Calm Calm -- 30.06 in1017.9 mb 0.00 in0.0 mm 0.00 in0.0 mm 0.00 in0.0 mm
12:32 AM 69.4°F20.8°C 64.7°F18.2°C 85% Calm Calm -- 30.06 in1017.9 mb 0.00 in0.0 mm 0.00 in0.0 mm 0.00 in0.0 mm
12:33 AM 69.4°F20.8°C 64.7°F18.2°C 85% Calm Calm -- 30.06 in1017.9 mb 0.00 in0.0 mm 0.00 in0.0 mm 0.00 in0.0 mm
12:34 AM 69.4°F20.8°C 64.7°F18.2°C 85% Calm Calm -- 30.06 in1017.9 mb 0.00 in0.0 mm 0.00 in0.0 mm 0.00 in0.0 mm
12:35 AM 69.4°F20.8°C 64.7°F18.2°C 85% Calm Calm -- 30.06 in1017.9 mb 0.00 in0.0 mm 0.00 in0.0 mm 0.00 in0.0 mm
12:36 AM 69.4°F20.8°C 64.7°F18.2°C 85% Calm Calm -- 30.06 in1017.9 mb 0.00 in0.0 mm 0.00 in0.0 mm 0.00 in0.0 mm
12:37 AM 69.4°F20.8°C 64.7°F18.2°C 85% Calm Calm -- 30.06 in1017.9 mb 0.00 in0.0 mm 0.00 in0.0 mm 0.00 in0.0 mm
12:38 AM 69.4°F20.8°C 64.7°F18.2°C 85% Calm Calm -- 30.06 in1017.9 mb 0.00 in0.0 mm 0.00 in0.0 mm 0.00 in0.0 mm
12:39 AM 69.4°F20.8°C 64.7°F18.2°C 85% Calm Calm -- 30.06 in1017.9 mb 0.00 in0.0 mm 0.00 in0.0 mm 0.00 in0.0 mm
12:40 AM 69.4°F20.8°C 64.7°F18.2°C 85% Calm Calm -- 30.06 in1017.9 mb 0.00 in0.0 mm 0.00 in0.0 mm 0.00 in0.0 mm
12:41 AM 69.4°F20.8°C 64.7°F18.2°C 85% Calm Calm -- 30.06 in1017.9 mb 0.00 in0.0 mm 0.00 in0.0 mm 0.00 in0.0 mm
12:42 AM 69.4°F20.8°C 64.7°F18.2°C 85% Calm Calm -- 30.06 in1017.9 mb 0.00 in0.0 mm 0.00 in0.0 mm 0.00 in0.0 mm
12:43 AM 69.4°F20.8°C 64.7°F18.2°C 85% Calm Calm -- 30.06 in1017.9 mb 0.00 in0.0 mm 0.00 in0.0 mm 0.00 in0.0 mm
12:44 AM 69.4°F20.8°C 64.7°F18.2°C 85% Calm Calm -- 30.06 in1017.9 mb 0.00 in0.0 mm 0.00 in0.0 mm 0.00 in0.0 mm
12:45 AM 69.4°F20.8°C 64.7°F18.2°C 85% Calm Calm -- 30.06 in1017.9 mb 0.00 in0.0 mm 0.00 in0.0 mm 0.00 in0.0 mm
12:46 AM 69.4°F20.8°C 64.7°F18.2°C 85% Calm Calm -- 30.06 in1017.9 mb 0.00 in0.0 mm 0.00 in0.0 mm 0.00 in0.0 mm
12:47 AM 69.3°F20.7°C 64.9°F18.3°C 86% Calm Calm -- 30.06 in1017.9 mb 0.00 in0.0 mm 0.00 in0.0 mm 0.00 in0.0 mm
12:48 AM 69.3°F20.7°C 64.9°F18.3°C 86% Calm Calm -- 30.06 in1017.9 mb 0.00 in0.0 mm 0.00 in0.0 mm 0.00 in0.0 mm
12:49 AM 69.3°F20.7°C 64.9°F18.3°C 86% Calm Calm -- 30.06 in1017.9 mb 0.00 in0.0 mm 0.00 in0.0 mm 0.00 in0.0 mm
12:50 AM 69.3°F20.7°C 64.9°F18.3°C 86% Calm Calm -- 30.06 in1017.9 mb 0.00 in0.0 mm 0.00 in0.0 mm 0.00 in0.0 mm
12:51 AM 69.3°F20.7°C 64.9°F18.3°C 86% Calm Calm -- 30.06 in1017.9 mb 0.00 in0.0 mm 0.00 in0.0 mm 0.00 in0.0 mm
12:52 AM 69.1°F20.6°C 64.7°F18.2°C 86% Calm Calm -- 30.06 in1017.9 mb 0.00 in0.0 mm 0.00 in0.0 mm 0.00 in0.0 mm
12:53 AM 69.1°F20.6°C 64.7°F18.2°C 86% Calm Calm -- 30.06 in1017.9 mb 0.00 in0.0 mm 0.00 in0.0 mm 0.00 in0.0 mm
12:54 AM 69.1°F20.6°C 64.7°F18.2°C 86% Calm Calm -- 30.06 in1017.9 mb 0.00 in0.0 mm 0.00 in0.0 mm 0.00 in0.0 mm
12:55 AM 69.1°F20.6°C 64.7°F18.2°C 86% Calm Calm -- 30.06 in1017.9 mb 0.00 in0.0 mm 0.00 in0.0 mm 0.00 in0.0 mm
12:56 AM 69.1°F20.6°C 64.7°F18.2°C 86% Calm Calm -- 30.06 in1017.9 mb 0.00 in0.0 mm 0.00 in0.0 mm 0.00 in0.0 mm
12:57 AM 69.1°F20.6°C 64.7°F18.2°C 86% Calm Calm -- 30.06 in1017.9 mb 0.00 in0.0 mm 0.00 in0.0 mm 0.00 in0.0 mm
12:58 AM 69.1°F20.6°C 64.7°F18.2°C 86% Calm Calm -- 30.06 in1017.9 mb 0.00 in0.0 mm 0.00 in0.0 mm 0.00 in0.0 mm
12:59 AM 69.1°F20.6°C 64.7°F18.2°C 86% Calm Calm -- 30.06 in1017.9 mb 0.00 in0.0 mm 0.00 in0.0 mm 0.00 in0.0 mm
01:00 AM 68.9°F20.5°C 64.9°F18.3°C 87% Calm Calm -- 30.06 in1017.9 mb 0.00 in0.0 mm 0.00 in0.0 mm 0.00 in0.0 mm
01:01 AM 68.9°F20.5°C 64.9°F18.3°C 87% Calm Calm -- 30.06 in1017.9 mb 0.00 in0.0 mm 0.00 in0.0 mm 0.00 in0.0 mm
01:02 AM 68.9°F20.5°C 64.9°F18.3°C 87% Calm Calm -- 30.06 in1017.9 mb 0.00 in0.0 mm 0.00 in0.0 mm 0.00 in0.0 mm
01:03 AM 68.9°F20.5°C 64.9°F18.3°C 87% Calm Calm -- 30.06 in1017.9 mb 0.00 in0.0 mm 0.00 in0.0 mm 0.00 in0.0 mm
01:04 AM 68.9°F20.5°C 64.9°F18.3°C 87% Calm Calm -- 30.06 in1017.9 mb 0.00 in0.0 mm 0.00 in0.0 mm 0.00 in0.0 mm
01:05 AM 68.9°F20.5°C 64.9°F18.3°C 87% Calm Calm -- 30.06 in1017.9 mb 0.00 in0.0 mm 0.00 in0.0 mm 0.00 in0.0 mm
01:06 AM 68.9°F20.5°C 64.9°F18.3°C 87% Calm Calm -- 30.06 in1017.9 mb 0.00 in0.0 mm 0.00 in0.0 mm 0.00 in0.0 mm
01:07 AM 68.9°F20.5°C 65.2°F18.4°C 88% Calm Calm -- 30.06 in1017.9 mb 0.00 in0.0 mm 0.00 in0.0 mm 0.00 in0.0 mm
01:08 AM 68.9°F20.5°C 65.2°F18.4°C 88% Calm Calm -- 30.06 in1017.9 mb 0.00 in0.0 mm 0.00 in0.0 mm 0.00 in0.0 mm
01:09 AM 68.9°F20.5°C 65.2°F18.4°C 88% Calm Calm -- 30.06 in1017.9 mb 0.00 in0.0 mm 0.00 in0.0 mm 0.00 in0.0 mm
01:10 AM 69.1°F20.6°C 65.4°F18.6°C 88% Calm Calm -- 30.06 in1017.9 mb 0.00 in0.0 mm 0.00 in0.0 mm 0.00 in0.0 mm
01:11 AM 69.1°F20.6°C 65.4°F18.6°C 88% Calm Calm -- 30.06 in1017.9 mb 0.00 in0.0 mm 0.00 in0.0 mm 0.00 in0.0 mm
01:12 AM 69.1°F20.6°C 65.4°F18.6°C 88% Calm Calm -- 30.06 in1017.9 mb 0.00 in0.0 mm 0.00 in0.0 mm 0.00 in0.0 mm
01:13 AM 69.1°F20.6°C 65.4°F18.6°C 88% 1.1 mph WNW1.8 kmh WNW 2.7 mph4.3 kmh 30.06 in1017.9 mb 0.00 in0.0 mm 0.00 in0.0 mm 0.00 in0.0 mm
01:14 AM 69.1°F20.6°C 65.4°F18.6°C 88% Calm Calm 2.7 mph4.3 kmh 30.06 in1017.9 mb 0.00 in0.0 mm 0.00 in0.0 mm 0.00 in0.0 mm
01:15 AM 69.1°F20.6°C 65.4°F18.6°C 88% Calm Calm 2.7 mph4.3 kmh 30.06 in1017.9 mb 0.00 in0.0 mm 0.00 in0.0 mm 0.00 in0.0 mm
01:16 AM 69.1°F20.6°C 65.4°F18.6°C 88% Calm Calm 2.7 mph4.3 kmh 30.06 in1017.9 mb 0.00 in0.0 mm 0.00 in0.0 mm 0.00 in0.0 mm
01:17 AM 69.1°F20.6°C 65.4°F18.6°C 88% Calm Calm 2.7 mph4.3 kmh 30.06 in1017.9 mb 0.00 in0.0 mm 0.00 in0.0 mm 0.00 in0.0 mm
01:18 AM 69.1°F20.6°C 65.4°F18.6°C 88% Calm Calm 2.7 mph4.3 kmh 30.06 in1017.9 mb 0.00 in0.0 mm 0.00 in0.0 mm 0.00 in0.0 mm
01:19 AM 69.1°F20.6°C 65.4°F18.6°C 88% Calm Calm 2.7 mph4.3 kmh 30.06 in1017.9 mb 0.00 in0.0 mm 0.00 in0.0 mm 0.00 in0.0 mm
01:20 AM 69.1°F20.6°C 65.4°F18.6°C 88% Calm Calm 2.7 mph4.3 kmh 30.06 in1017.9 mb 0.00 in0.0 mm 0.00 in0.0 mm 0.00 in0.0 mm
01:21 AM 69.1°F20.6°C 65.4°F18.6°C 88% Calm Calm 2.7 mph4.3 kmh 30.06 in1017.9 mb 0.00 in0.0 mm 0.00 in0.0 mm 0.00 in0.0 mm
01:22 AM 69.1°F20.6°C 65.4°F18.6°C 88% Calm Calm 2.7 mph4.3 kmh 30.06 in1017.9 mb 0.00 in0.0 mm 0.00 in0.0 mm 0.00 in0.0 mm
01:23 AM 68.9°F20.5°C 65.2°F18.4°C 88% Calm Calm -- 30.06 in1017.9 mb 0.00 in0.0 mm 0.00 in0.0 mm 0.00 in0.0 mm
01:24 AM 68.9°F20.5°C 65.2°F18.4°C 88% Calm Calm -- 30.06 in1017.9 mb 0.00 in0.0 mm 0.00 in0.0 mm 0.00 in0.0 mm
01:25 AM 68.9°F20.5°C 65.2°F18.4°C 88% Calm Calm -- 30.06 in1017.9 mb 0.00 in0.0 mm 0.00 in0.0 mm 0.00 in0.0 mm
01:26 AM 68.9°F20.5°C 65.2°F18.4°C 88% Calm Calm -- 30.06 in1017.9 mb 0.00 in0.0 mm 0.00 in0.0 mm 0.00 in0.0 mm
01:27 AM 68.9°F20.5°C 65.2°F18.4°C 88% Calm Calm -- 30.06 in1017.9 mb 0.00 in0.0 mm 0.00 in0.0 mm 0.00 in0.0 mm
01:28 AM 68.9°F20.5°C 65.2°F18.4°C 88% Calm Calm -- 30.06 in1017.9 mb 0.00 in0.0 mm 0.00 in0.0 mm 0.00 in0.0 mm
01:29 AM 68.9°F20.5°C 65.2°F18.4°C 88% Calm Calm -- 30.06 in1017.9 mb 0.00 in0.0 mm 0.00 in0.0 mm 0.00 in0.0 mm
01:30 AM 68.9°F20.5°C 65.5°F18.6°C 89% Calm Calm -- 30.06 in1017.9 mb 0.00 in0.0 mm 0.00 in0.0 mm 0.00 in0.0 mm
01:31 AM 68.9°F20.5°C 65.5°F18.6°C 89% Calm Calm -- 30.06 in1017.9 mb 0.00 in0.0 mm 0.00 in0.0 mm 0.00 in0.0 mm
01:32 AM 68.9°F20.5°C 65.5°F18.6°C 89% Calm Calm -- 30.06 in1017.9 mb 0.00 in0.0 mm 0.00 in0.0 mm 0.00 in0.0 mm
01:33 AM 68.9°F20.5°C 65.5°F18.6°C 89% Calm Calm -- 30.06 in1017.9 mb 0.00 in0.0 mm 0.00 in0.0 mm 0.00 in0.0 mm
01:34 AM 68.9°F20.5°C 65.5°F18.6°C 89% Calm Calm -- 30.06 in1017.9 mb 0.00 in0.0 mm 0.00 in0.0 mm 0.00 in0.0 mm
01:35 AM 68.9°F20.5°C 65.5°F18.6°C 89% Calm Calm -- 30.06 in1017.9 mb 0.00 in0.0 mm 0.00 in0.0 mm 0.00 in0.0 mm
01:36 AM 68.9°F20.5°C 65.5°F18.6°C 89% Calm Calm -- 30.06 in1017.9 mb 0.00 in0.0 mm 0.00 in0.0 mm 0.00 in0.0 mm
01:37 AM 68.9°F20.5°C 65.5°F18.6°C 89% Calm Calm -- 30.06 in1017.9 mb 0.00 in0.0 mm 0.00 in0.0 mm 0.00 in0.0 mm
01:38 AM 68.9°F20.5°C 65.5°F18.6°C 89% Calm Calm -- 30.06 in1017.9 mb 0.00 in0.0 mm 0.00 in0.0 mm 0.00 in0.0 mm
01:39 AM 68.9°F20.5°C 65.5°F18.6°C 89% Calm Calm -- 30.06 in1017.9 mb 0.00 in0.0 mm 0.00 in0.0 mm 0.00 in0.0 mm
01:40 AM 68.7°F20.4°C 65.3°F18.5°C 89% Calm Calm -- 30.06 in1017.9 mb 0.00 in0.0 mm 0.00 in0.0 mm 0.00 in0.0 mm
01:41 AM 68.7°F20.4°C 65.3°F18.5°C 89% Calm Calm -- 30.06 in1017.9 mb 0.00 in0.0 mm 0.00 in0.0 mm 0.00 in0.0 mm
01:42 AM 68.7°F20.4°C 65.3°F18.5°C 89% Calm Calm -- 30.06 in1017.9 mb 0.00 in0.0 mm 0.00 in0.0 mm 0.00 in0.0 mm
01:43 AM 68.5°F20.3°C 65.1°F18.4°C 89% Calm Calm -- 30.05 in1017.6 mb 0.00 in0.0 mm 0.00 in0.0 mm 0.00 in0.0 mm
01:44 AM 68.5°F20.3°C 65.1°F18.4°C 89% Calm Calm -- 30.05 in1017.6 mb 0.00 in0.0 mm 0.00 in0.0 mm 0.00 in0.0 mm
01:45 AM 68.5°F20.3°C 65.1°F18.4°C 89% Calm Calm -- 30.05 in1017.6 mb 0.00 in0.0 mm 0.00 in0.0 mm 0.00 in0.0 mm
01:46 AM 68.5°F20.3°C 65.1°F18.4°C 89% Calm Calm -- 30.05 in1017.6 mb 0.00 in0.0 mm 0.00 in0.0 mm 0.00 in0.0 mm
01:47 AM 68.5°F20.3°C 65.1°F18.4°C 89% Calm Calm -- 30.05 in1017.6 mb 0.00 in0.0 mm 0.00 in0.0 mm 0.00 in0.0 mm
01:48 AM 68.5°F20.3°C 65.1°F18.4°C 89% Calm Calm -- 30.05 in1017.6 mb 0.00 in0.0 mm 0.00 in0.0 mm 0.00 in0.0 mm
01:49 AM 68.5°F20.3°C 65.1°F18.4°C 89% Calm Calm -- 30.05 in1017.6 mb 0.00 in0.0 mm 0.00 in0.0 mm 0.00 in0.0 mm
01:50 AM 68.5°F20.3°C 65.1°F18.4°C 89% Calm Calm -- 30.05 in1017.6 mb 0.00 in0.0 mm 0.00 in0.0 mm 0.00 in0.0 mm
01:51 AM 68.5°F20.3°C 65.1°F18.4°C 89% Calm Calm -- 30.05 in1017.6 mb 0.00 in0.0 mm 0.00 in0.0 mm 0.00 in0.0 mm
01:52 AM 68.4°F20.2°C 65.0°F18.3°C 89% Calm Calm -- 30.05 in1017.6 mb 0.00 in0.0 mm 0.00 in0.0 mm 0.00 in0.0 mm
01:53 AM 68.4°F20.2°C 65.3°F18.5°C 90% Calm Calm -- 30.05 in1017.6 mb 0.00 in0.0 mm 0.00 in0.0 mm 0.00 in0.0 mm
01:54 AM 68.4°F20.2°C 65.3°F18.5°C 90% Calm Calm -- 30.05 in1017.6 mb 0.00 in0.0 mm 0.00 in0.0 mm 0.00 in0.0 mm
01:55 AM 68.4°F20.2°C 65.3°F18.5°C 90% Calm Calm -- 30.05 in1017.6 mb 0.00 in0.0 mm 0.00 in0.0 mm 0.00 in0.0 mm
01:56 AM 68.4°F20.2°C 65.3°F18.5°C 90% Calm Calm -- 30.05 in1017.6 mb 0.00 in0.0 mm 0.00 in0.0 mm 0.00 in0.0 mm
01:57 AM 68.4°F20.2°C 65.3°F18.5°C 90% Calm Calm -- 30.05 in1017.6 mb 0.00 in0.0 mm 0.00 in0.0 mm 0.00 in0.0 mm
01:58 AM 68.4°F20.2°C 65.3°F18.5°C 90% Calm Calm -- 30.05 in1017.6 mb 0.00 in0.0 mm 0.00 in0.0 mm 0.00 in0.0 mm
01:59 AM 68.4°F20.2°C 65.3°F18.5°C 90% Calm Calm -- 30.05 in1017.6 mb 0.00 in0.0 mm 0.00 in0.0 mm 0.00 in0.0 mm
02:00 AM 68.4°F20.2°C 65.3°F18.5°C 90% Calm Calm -- 30.05 in1017.6 mb 0.00 in0.0 mm 0.00 in0.0 mm 0.00 in0.0 mm
02:01 AM 68.4°F20.2°C 65.3°F18.5°C 90% Calm Calm -- 30.05 in1017.6 mb 0.00 in0.0 mm 0.00 in0.0 mm 0.00 in0.0 mm
02:02 AM 68.4°F20.2°C 65.3°F18.5°C 90% Calm Calm -- 30.05 in1017.6 mb 0.00 in0.0 mm 0.00 in0.0 mm 0.00 in0.0 mm
02:03 AM 68.4°F20.2°C 65.3°F18.5°C 90% Calm Calm -- 30.05 in1017.6 mb 0.00 in0.0 mm 0.00 in0.0 mm 0.00 in0.0 mm
02:04 AM 68.4°F20.2°C 65.3°F18.5°C 90% Calm Calm -- 30.05 in1017.6 mb 0.00 in0.0 mm 0.00 in0.0 mm 0.00 in0.0 mm
02:05 AM 68.2°F20.1°C 65.1°F18.4°C 90% Calm Calm -- 30.05 in1017.6 mb 0.00 in0.0 mm 0.00 in0.0 mm 0.00 in0.0 mm
02:06 AM 68.2°F20.1°C 65.1°F18.4°C 90% Calm Calm -- 30.05 in1017.6 mb 0.00 in0.0 mm 0.00 in0.0 mm 0.00 in0.0 mm
02:07 AM 68.4°F20.2°C 65.3°F18.5°C 90% Calm Calm -- 30.05 in1017.6 mb 0.00 in0.0 mm 0.00 in0.0 mm 0.00 in0.0 mm
02:08 AM 68.4°F20.2°C 65.3°F18.5°C 90% Calm Calm -- 30.05 in1017.6 mb 0.00 in0.0 mm 0.00 in0.0 mm 0.00 in0.0 mm
02:09 AM 68.4°F20.2°C 65.3°F18.5°C 90% 2.2 mph W3.5 kmh W 2.7 mph4.3 kmh 30.05 in1017.6 mb 0.00 in0.0 mm 0.00 in0.0 mm 0.00 in0.0 mm
02:10 AM 68.4°F20.2°C 65.7°F18.7°C 91% Calm Calm 2.7 mph4.3 kmh 30.05 in1017.6 mb 0.00 in0.0 mm 0.00 in0.0 mm 0.00 in0.0 mm
02:11 AM 68.4°F20.2°C 65.7°F18.7°C 91% Calm Calm 2.7 mph4.3 kmh 30.05 in1017.6 mb 0.00 in0.0 mm 0.00 in0.0 mm 0.00 in0.0 mm
02:12 AM 68.2°F20.1°C 65.5°F18.6°C 91% Calm Calm 2.7 mph4.3 kmh 30.05 in1017.6 mb 0.00 in0.0 mm 0.00 in0.0 mm 0.00 in0.0 mm
02:13 AM 68.2°F20.1°C 65.5°F18.6°C 91% Calm Calm 2.7 mph4.3 kmh 30.05 in1017.6 mb 0.00 in0.0 mm 0.00 in0.0 mm 0.00 in0.0 mm
02:14 AM 68.2°F20.1°C 65.5°F18.6°C 91% Calm Calm 2.7 mph4.3 kmh 30.05 in1017.6 mb 0.00 in0.0 mm 0.00 in0.0 mm 0.00 in0.0 mm
02:15 AM 68.2°F20.1°C 65.5°F18.6°C 91% Calm Calm 2.7 mph4.3 kmh 30.05 in1017.6 mb 0.00 in0.0 mm 0.00 in0.0 mm 0.00 in0.0 mm
02:16 AM 68.2°F20.1°C 65.5°F18.6°C 91% Calm Calm 2.7 mph4.3 kmh 30.05 in1017.6 mb 0.00 in0.0 mm 0.00 in0.0 mm 0.00 in0.0 mm
02:17 AM 68.2°F20.1°C 65.5°F18.6°C 91% Calm Calm 2.7 mph4.3 kmh 30.05 in1017.6 mb 0.00 in0.0 mm 0.00 in0.0 mm 0.00 in0.0 mm
02:18 AM 68.2°F20.1°C 65.5°F18.6°C 91% 1.1 mph NW1.8 kmh NW 2.7 mph4.3 kmh 30.05 in1017.6 mb 0.00 in0.0 mm 0.00 in0.0 mm 0.00 in0.0 mm
02:19 AM 68.2°F20.1°C 65.5°F18.6°C 91% Calm Calm 2.2 mph3.5 kmh 30.04 in1017.3 mb 0.00 in0.0 mm 0.00 in0.0 mm 0.00 in0.0 mm
02:20 AM 68.2°F20.1°C 65.5°F18.6°C 91% Calm Calm 1.7 mph2.7 kmh 30.04 in1017.3 mb 0.00 in0.0 mm 0.00 in0.0 mm 0.00 in0.0 mm
02:21 AM 68.0°F20.0°C 65.3°F18.5°C 91% Calm Calm 1.7 mph2.7 kmh 30.04 in1017.3 mb 0.00 in0.0 mm 0.00 in0.0 mm 0.00 in0.0 mm
02:22 AM 68.0°F20.0°C 65.3°F18.5°C 91% Calm Calm 1.7 mph2.7 kmh 30.04 in1017.3 mb 0.00 in0.0 mm 0.00 in0.0 mm 0.00 in0.0 mm
02:23 AM 68.0°F20.0°C 65.3°F18.5°C 91% Calm Calm 1.7 mph2.7 kmh 30.04 in1017.3 mb 0.00 in0.0 mm 0.00 in0.0 mm 0.00 in0.0 mm
02:24 AM 68.0°F20.0°C 65.3°F18.5°C 91% Calm Calm 1.7 mph2.7 kmh 30.04 in1017.3 mb 0.00 in0.0 mm 0.00 in0.0 mm 0.00 in0.0 mm
02:25 AM 68.0°F20.0°C 65.3°F18.5°C 91% Calm Calm 1.7 mph2.7 kmh 30.04 in1017.3 mb 0.00 in0.0 mm 0.00 in0.0 mm 0.00 in0.0 mm
02:26 AM 68.0°F20.0°C 65.3°F18.5°C 91% Calm Calm 1.7 mph2.7 kmh 30.04 in1017.3 mb 0.00 in0.0 mm 0.00 in0.0 mm 0.00 in0.0 mm
02:27 AM 68.0°F20.0°C 65.3°F18.5°C 91% 3.7 mph W6.0 kmh W 3.7 mph6.0 kmh 30.04 in1017.3 mb 0.00 in0.0 mm 0.00 in0.0 mm 0.00 in0.0 mm
02:28 AM 68.0°F20.0°C 65.3°F18.5°C 91% 1.1 mph NNW1.8 kmh NNW 3.7 mph6.0 kmh 30.04 in1017.3 mb 0.00 in0.0 mm 0.00 in0.0 mm 0.00 in0.0 mm
02:29 AM 68.0°F20.0°C 65.3°F18.5°C 91% Calm Calm 3.7 mph6.0 kmh 30.04 in1017.3 mb 0.00 in0.0 mm 0.00 in0.0 mm 0.00 in0.0 mm
02:30 AM 68.0°F20.0°C 65.3°F18.5°C 91% Calm Calm 3.7 mph6.0 kmh 30.04 in1017.3 mb 0.00 in0.0 mm 0.00 in0.0 mm 0.00 in0.0 mm
02:31 AM 68.0°F20.0°C 65.3°F18.5°C 91% Calm Calm 3.7 mph6.0 kmh 30.03 in1016.9 mb 0.00 in0.0 mm 0.00 in0.0 mm 0.00 in0.0 mm
02:32 AM 68.0°F20.0°C 65.3°F18.5°C 91% Calm Calm 3.7 mph6.0 kmh 30.03 in1016.9 mb 0.00 in0.0 mm 0.00 in0.0 mm 0.00 in0.0 mm
02:33 AM 68.0°F20.0°C 65.3°F18.5°C 91% Calm Calm 3.7 mph6.0 kmh 30.03 in1016.9 mb 0.00 in0.0 mm 0.00 in0.0 mm 0.00 in0.0 mm
02:34 AM 68.0°F20.0°C 65.3°F18.5°C 91% Calm Calm 3.7 mph6.0 kmh 30.03 in1016.9 mb 0.00 in0.0 mm 0.00 in0.0 mm 0.00 in0.0 mm
02:35 AM 67.8°F19.9°C 65.1°F18.4°C 91% Calm Calm 3.7 mph6.0 kmh 30.03 in1016.9 mb 0.00 in0.0 mm 0.00 in0.0 mm 0.00 in0.0 mm
02:36 AM 67.8°F19.9°C 65.1°F18.4°C 91% Calm Calm 3.7 mph6.0 kmh 30.03 in1016.9 mb 0.00 in0.0 mm 0.00 in0.0 mm 0.00 in0.0 mm
02:37 AM 67.8°F19.9°C 65.1°F18.4°C 91% Calm Calm 1.7 mph2.7 kmh 30.03 in1016.9 mb 0.00 in0.0 mm 0.00 in0.0 mm 0.00 in0.0 mm
02:38 AM 67.8°F19.9°C 65.1°F18.4°C 91% Calm Calm 1.1 mph1.8 kmh 30.03 in1016.9 mb 0.00 in0.0 mm 0.00 in0.0 mm 0.00 in0.0 mm
02:39 AM 67.8°F19.9°C 65.1°F18.4°C 91% Calm Calm -- 30.03 in1016.9 mb 0.00 in0.0 mm 0.00 in0.0 mm 0.00 in0.0 mm
02:40 AM 67.6°F19.8°C 64.9°F18.3°C 91% 1.1 mph SSE1.8 kmh SSE 1.1 mph1.8 kmh 30.03 in1016.9 mb 0.00 in0.0 mm 0.00 in0.0 mm 0.00 in0.0 mm
02:41 AM 67.6°F19.8°C 64.9°F18.3°C 91% Calm Calm 1.1 mph1.8 kmh 30.03 in1016.9 mb 0.00 in0.0 mm 0.00 in0.0 mm 0.00 in0.0 mm
02:42 AM 67.6°F19.8°C 64.9°F18.3°C 91% Calm Calm 1.7 mph2.7 kmh 30.03 in1016.9 mb 0.00 in0.0 mm 0.00 in0.0 mm 0.00 in0.0 mm
02:43 AM 67.6°F19.8°C 64.9°F18.3°C 91% Calm Calm 1.7 mph2.7 kmh 30.02 in1016.6 mb 0.00 in0.0 mm 0.00 in0.0 mm 0.00 in0.0 mm
02:44 AM 67.6°F19.8°C 64.9°F18.3°C 91% Calm Calm 1.7 mph2.7 kmh 30.02 in1016.6 mb 0.00 in0.0 mm 0.00 in0.0 mm 0.00 in0.0 mm
02:45 AM 67.6°F19.8°C 64.9°F18.3°C 91% Calm Calm 1.7 mph2.7 kmh 30.02 in1016.6 mb 0.00 in0.0 mm 0.00 in0.0 mm 0.00 in0.0 mm
02:46 AM 67.6°F19.8°C 64.9°F18.3°C 91% Calm Calm 1.7 mph2.7 kmh 30.02 in1016.6 mb 0.00 in0.0 mm 0.00 in0.0 mm 0.00 in0.0 mm
02:47 AM 67.6°F19.8°C 64.9°F18.3°C 91% Calm Calm 1.7 mph2.7 kmh 30.02 in1016.6 mb 0.00 in0.0 mm 0.00 in0.0 mm 0.00 in0.0 mm
02:48 AM 67.6°F19.8°C 64.9°F18.3°C 91% Calm Calm 1.7 mph2.7 kmh 30.02 in1016.6 mb 0.00 in0.0 mm 0.00 in0.0 mm 0.00 in0.0 mm
02:49 AM 67.6°F19.8°C 64.9°F18.3°C 91% Calm Calm 1.7 mph2.7 kmh 30.02 in1016.6 mb 0.00 in0.0 mm 0.00 in0.0 mm 0.00 in0.0 mm
02:50 AM 67.6°F19.8°C 65.2°F18.4°C 92% Calm Calm 1.7 mph2.7 kmh 30.02 in1016.6 mb 0.00 in0.0 mm 0.00 in0.0 mm 0.00 in0.0 mm
02:51 AM 67.6°F19.8°C 65.2°F18.4°C 92% Calm Calm 1.7 mph2.7 kmh 30.02 in1016.6 mb 0.00 in0.0 mm 0.00 in0.0 mm 0.00 in0.0 mm
02:52 AM 67.6°F19.8°C 65.2°F18.4°C 92% Calm Calm -- 30.02 in1016.6 mb 0.00 in0.0 mm 0.00 in0.0 mm 0.00 in0.0 mm
02:53 AM 67.6°F19.8°C 65.2°F18.4°C 92% Calm Calm -- 30.02 in1016.6 mb 0.00 in0.0 mm 0.00 in0.0 mm 0.00 in0.0 mm
02:54 AM 67.6°F19.8°C 65.2°F18.4°C 92% Calm Calm -- 30.02 in1016.6 mb 0.00 in0.0 mm 0.00 in0.0 mm 0.00 in0.0 mm
02:55 AM 67.6°F19.8°C 65.2°F18.4°C 92% Calm Calm -- 30.02 in1016.6 mb 0.00 in0.0 mm 0.00 in0.0 mm 0.00 in0.0 mm
02:56 AM 67.6°F19.8°C 65.2°F18.4°C 92% Calm Calm -- 30.02 in1016.6 mb 0.00 in0.0 mm 0.00 in0.0 mm 0.00 in0.0 mm
02:57 AM 67.6°F19.8°C 65.2°F18.4°C 92% Calm Calm -- 30.02 in1016.6 mb 0.00 in0.0 mm 0.00 in0.0 mm 0.00 in0.0 mm
02:58 AM 67.6°F19.8°C 65.2°F18.4°C 92% Calm Calm -- 30.02 in1016.6 mb 0.00 in0.0 mm 0.00 in0.0 mm 0.00 in0.0 mm
02:59 AM 67.6°F19.8°C 65.2°F18.4°C 92% Calm Calm -- 30.02 in1016.6 mb 0.00 in0.0 mm 0.00 in0.0 mm 0.00 in0.0 mm
03:00 AM 67.6°F19.8°C 65.2°F18.4°C 92% Calm Calm -- 30.02 in1016.6 mb 0.00 in0.0 mm 0.00 in0.0 mm 0.00 in0.0 mm
03:01 AM 67.5°F19.7°C 65.1°F18.4°C 92% Calm Calm -- 30.02 in1016.6 mb 0.00 in0.0 mm 0.00 in0.0 mm 0.00 in0.0 mm
03:02 AM 67.5°F19.7°C 65.1°F18.4°C 92% Calm Calm -- 30.02 in1016.6 mb 0.00 in0.0 mm 0.00 in0.0 mm 0.00 in0.0 mm
03:03 AM 67.5°F19.7°C 65.1°F18.4°C 92% Calm Calm -- 30.02 in1016.6 mb 0.00 in0.0 mm 0.00 in0.0 mm 0.00 in0.0 mm
03:04 AM 67.5°F19.7°C 65.1°F18.4°C 92% Calm Calm -- 30.02 in1016.6 mb 0.00 in0.0 mm 0.00 in0.0 mm 0.00 in0.0 mm
03:05 AM 67.3°F19.6°C 64.9°F18.3°C 92% Calm Calm -- 30.02 in1016.6 mb 0.00 in0.0 mm 0.00 in0.0 mm 0.00 in0.0 mm
03:06 AM 67.3°F19.6°C 64.9°F18.3°C 92% Calm Calm -- 30.02 in1016.6 mb 0.00 in0.0 mm 0.00 in0.0 mm 0.00 in0.0 mm
03:07 AM 67.3°F19.6°C 64.9°F18.3°C 92% Calm Calm -- 30.02 in1016.6 mb 0.00 in0.0 mm 0.00 in0.0 mm 0.00 in0.0 mm
03:08 AM 67.3°F19.6°C 64.9°F18.3°C 92% Calm Calm -- 30.02 in1016.6 mb 0.00 in0.0 mm 0.00 in0.0 mm 0.00 in0.0 mm
03:09 AM 67.5°F19.7°C 65.1°F18.4°C 92% Calm Calm -- 30.02 in1016.6 mb 0.00 in0.0 mm 0.00 in0.0 mm 0.00 in0.0 mm
03:10 AM 67.5°F19.7°C 65.1°F18.4°C 92% Calm Calm -- 30.02 in1016.6 mb 0.00 in0.0 mm 0.00 in0.0 mm 0.00 in0.0 mm
03:11 AM 67.3°F19.6°C 64.9°F18.3°C 92% Calm Calm -- 30.02 in1016.6 mb 0.00 in0.0 mm 0.00 in0.0 mm 0.00 in0.0 mm
03:12 AM 67.3°F19.6°C 64.9°F18.3°C 92% Calm Calm -- 30.02 in1016.6 mb 0.00 in0.0 mm 0.00 in0.0 mm 0.00 in0.0 mm
03:13 AM 67.3°F19.6°C 64.9°F18.3°C 92% Calm Calm -- 30.02 in1016.6 mb 0.00 in0.0 mm 0.00 in0.0 mm 0.00 in0.0 mm
03:14 AM 67.3°F19.6°C 64.9°F18.3°C 92% Calm Calm -- 30.02 in1016.6 mb 0.00 in0.0 mm 0.00 in0.0 mm 0.00 in0.0 mm
03:15 AM 67.3°F19.6°C 64.9°F18.3°C 92% Calm Calm -- 30.02 in1016.6 mb 0.00 in0.0 mm 0.00 in0.0 mm 0.00 in0.0 mm
03:16 AM 67.3°F19.6°C 64.9°F18.3°C 92% Calm Calm -- 30.02 in1016.6 mb 0.00 in0.0 mm 0.00 in0.0 mm 0.00 in0.0 mm
03:17 AM 67.3°F19.6°C 64.9°F18.3°C 92% Calm Calm -- 30.02 in1016.6 mb 0.00 in0.0 mm 0.00 in0.0 mm 0.00 in0.0 mm
03:18 AM 67.3°F19.6°C 64.9°F18.3°C 92% Calm Calm -- 30.02 in1016.6 mb 0.00 in0.0 mm 0.00 in0.0 mm 0.00 in0.0 mm
03:19 AM 67.3°F19.6°C 64.9°F18.3°C 92% Calm Calm -- 30.02 in1016.6 mb 0.00 in0.0 mm 0.00 in0.0 mm 0.00 in0.0 mm
03:20 AM 67.3°F19.6°C 64.9°F18.3°C 92% Calm Calm -- 30.02 in1016.6 mb 0.00 in0.0 mm 0.00 in0.0 mm 0.00 in0.0 mm
03:21 AM 67.3°F19.6°C 64.9°F18.3°C 92% 2.2 mph SE3.5 kmh SE 2.2 mph3.5 kmh 30.02 in1016.6 mb 0.00 in0.0 mm 0.00 in0.0 mm 0.00 in0.0 mm
03:22 AM 67.3°F19.6°C 64.9°F18.3°C 92% 1.1 mph SE1.8 kmh SE 2.2 mph3.5 kmh 30.02 in1016.6 mb 0.00 in0.0 mm 0.00 in0.0 mm 0.00 in0.0 mm
03:23 AM 67.3°F19.6°C 64.9°F18.3°C 92% Calm Calm 2.2 mph3.5 kmh 30.02 in1016.6 mb 0.00 in0.0 mm 0.00 in0.0 mm 0.00 in0.0 mm
03:24 AM 67.5°F19.7°C 65.4°F18.6°C 93% Calm Calm 2.2 mph3.5 kmh 30.02 in1016.6 mb 0.00 in0.0 mm 0.00 in0.0 mm 0.00 in0.0 mm
03:25 AM 67.5°F19.7°C 65.4°F18.6°C 93% Calm Calm 2.2 mph3.5 kmh 30.02 in1016.6 mb 0.00 in0.0 mm 0.00 in0.0 mm 0.00 in0.0 mm
03:26 AM 67.5°F19.7°C 65.4°F18.6°C 93% 1.7 mph NNW2.7 kmh NNW 2.2 mph3.5 kmh 30.02 in1016.6 mb 0.00 in0.0 mm 0.00 in0.0 mm 0.00 in0.0 mm
03:27 AM 67.5°F19.7°C 65.4°F18.6°C 93% Calm Calm 2.2 mph3.5 kmh 30.02 in1016.6 mb 0.00 in0.0 mm 0.00 in0.0 mm 0.00 in0.0 mm
03:28 AM 67.5°F19.7°C 65.4°F18.6°C 93% Calm Calm 2.2 mph3.5 kmh 30.02 in1016.6 mb 0.00 in0.0 mm 0.00 in0.0 mm 0.00 in0.0 mm
03:29 AM 67.5°F19.7°C 65.4°F18.6°C 93% Calm Calm 2.2 mph3.5 kmh 30.02 in1016.6 mb 0.00 in0.0 mm 0.00 in0.0 mm 0.00 in0.0 mm
03:30 AM 67.5°F19.7°C 65.4°F18.6°C 93% Calm Calm 2.2 mph3.5 kmh 30.02 in1016.6 mb 0.00 in0.0 mm 0.00 in0.0 mm 0.00 in0.0 mm
03:31 AM 67.5°F19.7°C 65.4°F18.6°C 93% 1.1 mph WNW1.8 kmh WNW 1.7 mph2.7 kmh 30.02 in1016.6 mb 0.00 in0.0 mm 0.00 in0.0 mm 0.00 in0.0 mm
03:32 AM 67.5°F19.7°C 65.4°F18.6°C 93% 1.7 mph WNW2.7 kmh WNW 1.7 mph2.7 kmh 30.02 in1016.6 mb 0.00 in0.0 mm 0.00 in0.0 mm 0.00 in0.0 mm
03:33 AM 67.5°F19.7°C 65.4°F18.6°C 93% Calm Calm 1.7 mph2.7 kmh 30.02 in1016.6 mb 0.00 in0.0 mm 0.00 in0.0 mm 0.00 in0.0 mm
03:34 AM 67.5°F19.7°C 65.4°F18.6°C 93% Calm Calm 1.7 mph2.7 kmh 30.02 in1016.6 mb 0.00 in0.0 mm 0.00 in0.0 mm 0.00 in0.0 mm
03:35 AM 67.5°F19.7°C 65.4°F18.6°C 93% Calm Calm 1.7 mph2.7 kmh 30.02 in1016.6 mb 0.00 in0.0 mm 0.00 in0.0 mm 0.00 in0.0 mm
03:36 AM 67.3°F19.6°C 65.2°F18.4°C 93% Calm Calm 1.7 mph2.7 kmh 30.02 in1016.6 mb 0.00 in0.0 mm 0.00 in0.0 mm 0.00 in0.0 mm
03:37 AM 67.5°F19.7°C 65.4°F18.6°C 93% Calm Calm 1.7 mph2.7 kmh 30.02 in1016.6 mb 0.00 in0.0 mm 0.00 in0.0 mm 0.00 in0.0 mm
03:38 AM 67.5°F19.7°C 65.4°F18.6°C 93% Calm Calm 1.7 mph2.7 kmh 30.02 in1016.6 mb 0.00 in0.0 mm 0.00 in0.0 mm 0.00 in0.0 mm
03:39 AM 67.5°F19.7°C 65.4°F18.6°C 93% Calm Calm 1.7 mph2.7 kmh 30.02 in1016.6 mb 0.00 in0.0 mm 0.00 in0.0 mm 0.00 in0.0 mm
03:40 AM 67.5°F19.7°C 65.4°F18.6°C 93% 1.1 mph N1.8 kmh N 2.2 mph3.5 kmh 30.02 in1016.6 mb 0.00 in0.0 mm 0.00 in0.0 mm 0.00 in0.0 mm
03:41 AM 67.3°F19.6°C 65.2°F18.4°C 93% Calm Calm 2.2 mph3.5 kmh 30.02 in1016.6 mb 0.00 in0.0 mm 0.00 in0.0 mm 0.00 in0.0 mm
03:42 AM 67.3°F19.6°C 65.2°F18.4°C 93% Calm Calm 2.2 mph3.5 kmh 30.02 in1016.6 mb 0.00 in0.0 mm 0.00 in0.0 mm 0.00 in0.0 mm
03:43 AM 67.3°F19.6°C 65.2°F18.4°C 93% Calm Calm 2.2 mph3.5 kmh 30.01 in1016.3 mb 0.00 in0.0 mm 0.00 in0.0 mm 0.00 in0.0 mm
03:44 AM 67.3°F19.6°C 65.2°F18.4°C 93% 1.1 mph ESE1.8 kmh ESE 2.2 mph3.5 kmh 30.01 in1016.3 mb 0.00 in0.0 mm 0.00 in0.0 mm 0.00 in0.0 mm
03:45 AM 67.3°F19.6°C 65.2°F18.4°C 93% Calm Calm 2.2 mph3.5 kmh 30.01 in1016.3 mb 0.00 in0.0 mm 0.00 in0.0 mm 0.00 in0.0 mm
03:46 AM 67.3°F19.6°C 65.2°F18.4°C 93% Calm Calm 2.2 mph3.5 kmh 30.01 in1016.3 mb 0.00 in0.0 mm 0.00 in0.0 mm 0.00 in0.0 mm
03:47 AM 67.3°F19.6°C 65.2°F18.4°C 93% 1.1 mph NW1.8 kmh NW 2.2 mph3.5 kmh 30.01 in1016.3 mb 0.00 in0.0 mm 0.00 in0.0 mm 0.00 in0.0 mm
03:48 AM 67.3°F19.6°C 65.2°F18.4°C 93% Calm Calm 2.2 mph3.5 kmh 30.01 in1016.3 mb 0.00 in0.0 mm 0.00 in0.0 mm 0.00 in0.0 mm
03:49 AM 67.3°F19.6°C 65.2°F18.4°C 93% Calm Calm 2.2 mph3.5 kmh 30.01 in1016.3 mb 0.00 in0.0 mm 0.00 in0.0 mm 0.00 in0.0 mm
03:50 AM 67.3°F19.6°C 65.2°F18.4°C 93% 1.1 mph W1.8 kmh W 2.2 mph3.5 kmh 30.01 in1016.3 mb 0.00 in0.0 mm 0.00 in0.0 mm 0.00 in0.0 mm
03:51 AM 67.3°F19.6°C 65.2°F18.4°C 93% 1.7 mph SSW2.7 kmh SSW 2.2 mph3.5 kmh 30.01 in1016.3 mb 0.00 in0.0 mm 0.00 in0.0 mm 0.00 in0.0 mm
03:52 AM 67.5°F19.7°C 65.4°F18.6°C 93% 3.7 mph WNW6.0 kmh WNW 3.7 mph6.0 kmh 30.01 in1016.3 mb 0.00 in0.0 mm 0.00 in0.0 mm 0.00 in0.0 mm
03:53 AM 67.5°F19.7°C 65.4°F18.6°C 93% Calm Calm 3.7 mph6.0 kmh 30.01 in1016.3 mb 0.00 in0.0 mm 0.00 in0.0 mm 0.00 in0.0 mm
03:54 AM 67.5°F19.7°C 65.4°F18.6°C 93% Calm Calm 3.7 mph6.0 kmh 30.01 in1016.3 mb 0.00 in0.0 mm 0.00 in0.0 mm 0.00 in0.0 mm
03:55 AM 67.5°F19.7°C 65.4°F18.6°C 93% Calm Calm 3.7 mph6.0 kmh 30.01 in1016.3 mb 0.00 in0.0 mm 0.00 in0.0 mm 0.00 in0.0 mm
03:56 AM 67.5°F19.7°C 65.4°F18.6°C 93% Calm Calm 3.7 mph6.0 kmh 30.01 in1016.3 mb 0.00 in0.0 mm 0.00 in0.0 mm 0.00 in0.0 mm
03:57 AM 67.5°F19.7°C 65.4°F18.6°C 93% Calm Calm 3.7 mph6.0 kmh 30.01 in1016.3 mb 0.00 in0.0 mm 0.00 in0.0 mm 0.00 in0.0 mm
03:58 AM 67.5°F19.7°C 65.4°F18.6°C 93% Calm Calm 3.7 mph6.0 kmh 30.01 in1016.3 mb 0.00 in0.0 mm 0.00 in0.0 mm 0.00 in0.0 mm
03:59 AM 67.5°F19.7°C 65.4°F18.6°C 93% Calm Calm 3.7 mph6.0 kmh 30.01 in1016.3 mb 0.00 in0.0 mm 0.00 in0.0 mm 0.00 in0.0 mm
04:00 AM 67.5°F19.7°C 65.4°F18.6°C 93% Calm Calm 3.7 mph6.0 kmh 30.01 in1016.3 mb 0.00 in0.0 mm 0.00 in0.0 mm 0.00 in0.0 mm
04:01 AM 67.5°F19.7°C 65.4°F18.6°C 93% Calm Calm 3.7 mph6.0 kmh 30.01 in1016.3 mb 0.00 in0.0 mm 0.00 in0.0 mm 0.00 in0.0 mm
04:02 AM 67.5°F19.7°C 65.4°F18.6°C 93% Calm Calm 3.7 mph6.0 kmh 30.01 in1016.3 mb 0.00 in0.0 mm 0.00 in0.0 mm 0.00 in0.0 mm
04:03 AM 67.5°F19.7°C 65.4°F18.6°C 93% Calm Calm 1.1 mph1.8 kmh 30.01 in1016.3 mb 0.00 in0.0 mm 0.00 in0.0 mm 0.00 in0.0 mm
04:04 AM 67.5°F19.7°C 65.4°F18.6°C 93% Calm Calm 1.1 mph1.8 kmh 30.01 in1016.3 mb 0.00 in0.0 mm 0.00 in0.0 mm 0.00 in0.0 mm
04:05 AM 67.3°F19.6°C 65.2°F18.4°C 93% Calm Calm 1.1 mph1.8 kmh 30.01 in1016.3 mb 0.00 in0.0 mm 0.00 in0.0 mm 0.00 in0.0 mm
04:06 AM 67.3°F19.6°C 65.2°F18.4°C 93% Calm Calm 1.1 mph1.8 kmh 30.01 in1016.3 mb 0.00 in0.0 mm 0.00 in0.0 mm 0.00 in0.0 mm
04:07 AM 67.3°F19.6°C 65.2°F18.4°C 93% Calm Calm 1.1 mph1.8 kmh 30.01 in1016.3 mb 0.00 in0.0 mm 0.00 in0.0 mm 0.00 in0.0 mm
04:08 AM 67.3°F19.6°C 65.2°F18.4°C 93% Calm Calm -- 30.01 in1016.3 mb 0.00 in0.0 mm 0.00 in0.0 mm 0.00 in0.0 mm
04:09 AM 67.3°F19.6°C 65.2°F18.4°C 93% Calm Calm -- 30.01 in1016.3 mb 0.00 in0.0 mm 0.00 in0.0 mm 0.00 in0.0 mm
04:10 AM 67.3°F19.6°C 65.5°F18.6°C 94% 2.7 mph W4.3 kmh W 2.7 mph4.3 kmh 30.01 in1016.3 mb 0.00 in0.0 mm 0.00 in0.0 mm 0.00 in0.0 mm
04:11 AM 67.5°F19.7°C 65.7°F18.7°C 94% Calm Calm 2.7 mph4.3 kmh 30.01 in1016.3 mb 0.00 in0.0 mm 0.00 in0.0 mm 0.00 in0.0 mm
04:12 AM 67.5°F19.7°C 65.7°F18.7°C 94% Calm Calm 2.7 mph4.3 kmh 30.01 in1016.3 mb 0.00 in0.0 mm 0.00 in0.0 mm 0.00 in0.0 mm
04:13 AM 67.5°F19.7°C 65.7°F18.7°C 94% Calm Calm 2.7 mph4.3 kmh 30.01 in1016.3 mb 0.00 in0.0 mm 0.00 in0.0 mm 0.00 in0.0 mm
04:14 AM 67.5°F19.7°C 65.7°F18.7°C 94% Calm Calm 2.7 mph4.3 kmh 30.01 in1016.3 mb 0.00 in0.0 mm 0.00 in0.0 mm 0.00 in0.0 mm
04:15 AM 67.5°F19.7°C 65.7°F18.7°C 94% Calm Calm 2.7 mph4.3 kmh 30.01 in1016.3 mb 0.00 in0.0 mm 0.00 in0.0 mm 0.00 in0.0 mm
04:16 AM 67.6°F19.8°C 65.8°F18.8°C 94% Calm Calm 2.7 mph4.3 kmh 30.01 in1016.3 mb 0.00 in0.0 mm 0.00 in0.0 mm 0.00 in0.0 mm
04:17 AM 67.6°F19.8°C 65.8°F18.8°C 94% Calm Calm 2.7 mph4.3 kmh 30.01 in1016.3 mb 0.00 in0.0 mm 0.00 in0.0 mm 0.00 in0.0 mm
04:18 AM 67.6°F19.8°C 65.8°F18.8°C 94% Calm Calm 2.7 mph4.3 kmh 30.01 in1016.3 mb 0.00 in0.0 mm 0.00 in0.0 mm 0.00 in0.0 mm
04:19 AM 67.6°F19.8°C 65.8°F18.8°C 94% 2.7 mph W4.3 kmh W 2.7 mph4.3 kmh 30.02 in1016.6 mb 0.00 in0.0 mm 0.00 in0.0 mm 0.00 in0.0 mm
04:20 AM 67.6°F19.8°C 65.8°F18.8°C 94% 1.7 mph W2.7 kmh W 2.7 mph4.3 kmh 30.02 in1016.6 mb 0.00 in0.0 mm 0.00 in0.0 mm 0.00 in0.0 mm
04:21 AM 67.6°F19.8°C 65.8°F18.8°C 94% 2.2 mph WNW3.5 kmh WNW 2.7 mph4.3 kmh 30.02 in1016.6 mb 0.00 in0.0 mm 0.00 in0.0 mm 0.00 in0.0 mm
04:22 AM 67.8°F19.9°C 66.0°F18.9°C 94% Calm Calm 2.7 mph4.3 kmh 30.02 in1016.6 mb 0.00 in0.0 mm 0.00 in0.0 mm 0.00 in0.0 mm
04:23 AM 67.8°F19.9°C 66.0°F18.9°C 94% 1.1 mph SW1.8 kmh SW 2.7 mph4.3 kmh 30.02 in1016.6 mb 0.00 in0.0 mm 0.00 in0.0 mm 0.00 in0.0 mm
04:24 AM 67.8°F19.9°C 66.0°F18.9°C 94% Calm Calm 2.7 mph4.3 kmh 30.02 in1016.6 mb 0.00 in0.0 mm 0.00 in0.0 mm 0.00 in0.0 mm
04:25 AM 67.8°F19.9°C 66.0°F18.9°C 94% Calm Calm 2.7 mph4.3 kmh 30.02 in1016.6 mb 0.00 in0.0 mm 0.00 in0.0 mm 0.00 in0.0 mm
04:26 AM 67.6°F19.8°C 65.8°F18.8°C 94% 1.7 mph WNW2.7 kmh WNW 2.7 mph4.3 kmh 30.02 in1016.6 mb 0.00 in0.0 mm 0.00 in0.0 mm 0.00 in0.0 mm
04:27 AM 67.6°F19.8°C 65.8°F18.8°C 94% 1.7 mph WNW2.7 kmh WNW 2.7 mph4.3 kmh 30.02 in1016.6 mb 0.00 in0.0 mm 0.00 in0.0 mm 0.00 in0.0 mm
04:28 AM 67.6°F19.8°C 65.8°F18.8°C 94% 1.1 mph W1.8 kmh W 2.7 mph4.3 kmh 30.02 in1016.6 mb 0.00 in0.0 mm 0.00 in0.0 mm 0.00 in0.0 mm
04:29 AM 67.6°F19.8°C 65.8°F18.8°C 94% Calm Calm 2.7 mph4.3 kmh 30.02 in1016.6 mb 0.00 in0.0 mm 0.00 in0.0 mm 0.00 in0.0 mm
04:30 AM 67.6°F19.8°C 65.8°F18.8°C 94% Calm Calm 2.2 mph3.5 kmh 30.02 in1016.6 mb 0.00 in0.0 mm 0.00 in0.0 mm 0.00 in0.0 mm
04:31 AM 67.6°F19.8°C 65.8°F18.8°C 94% Calm Calm 2.2 mph3.5 kmh 30.02 in1016.6 mb 0.00 in0.0 mm 0.00 in0.0 mm 0.00 in0.0 mm
04:32 AM 67.6°F19.8°C 65.8°F18.8°C 94% Calm Calm 2.2 mph3.5 kmh 30.02 in1016.6 mb 0.00 in0.0 mm 0.00 in0.0 mm 0.00 in0.0 mm
04:33 AM 67.6°F19.8°C 65.8°F18.8°C 94% Calm Calm 2.2 mph3.5 kmh 30.02 in1016.6 mb 0.00 in0.0 mm 0.00 in0.0 mm 0.00 in0.0 mm
04:34 AM 67.6°F19.8°C 65.8°F18.8°C 94% 1.7 mph W2.7 kmh W 2.2 mph3.5 kmh 30.02 in1016.6 mb 0.00 in0.0 mm 0.00 in0.0 mm 0.00 in0.0 mm
04:35 AM 67.6°F19.8°C 65.8°F18.8°C 94% 1.1 mph W1.8 kmh W 2.2 mph3.5 kmh 30.02 in1016.6 mb 0.00 in0.0 mm 0.00 in0.0 mm 0.00 in0.0 mm
04:36 AM 67.6°F19.8°C 65.8°F18.8°C 94% 1.7 mph W2.7 kmh W 2.2 mph3.5 kmh 30.02 in1016.6 mb 0.00 in0.0 mm 0.00 in0.0 mm 0.00 in0.0 mm
04:37 AM 67.6°F19.8°C 65.8°F18.8°C 94% 1.7 mph NW2.7 kmh NW 2.2 mph3.5 kmh 30.02 in1016.6 mb 0.00 in0.0 mm 0.00 in0.0 mm 0.00 in0.0 mm
04:38 AM 67.6°F19.8°C 65.8°F18.8°C 94% 1.7 mph W2.7 kmh W 1.7 mph2.7 kmh 30.02 in1016.6 mb 0.00 in0.0 mm 0.00 in0.0 mm 0.00 in0.0 mm
04:39 AM 67.6°F19.8°C 65.8°F18.8°C 94% 1.7 mph W2.7 kmh W 1.7 mph2.7 kmh 30.02 in1016.6 mb 0.00 in0.0 mm 0.00 in0.0 mm 0.00 in0.0 mm
04:40 AM 67.6°F19.8°C 65.8°F18.8°C 94% Calm Calm 2.2 mph3.5 kmh 30.02 in1016.6 mb 0.00 in0.0 mm 0.00 in0.0 mm 0.00 in0.0 mm
04:41 AM 67.6°F19.8°C 65.8°F18.8°C 94% 1.1 mph W1.8 kmh W 2.2 mph3.5 kmh 30.02 in1016.6 mb 0.00 in0.0 mm 0.00 in0.0 mm 0.00 in0.0 mm
04:42 AM 67.6°F19.8°C 65.8°F18.8°C 94% 1.7 mph WNW2.7 kmh WNW 2.2 mph3.5 kmh 30.02 in1016.6 mb 0.00 in0.0 mm 0.00 in0.0 mm 0.00 in0.0 mm
04:43 AM 67.6°F19.8°C 65.8°F18.8°C 94% 1.7 mph W2.7 kmh W 2.2 mph3.5 kmh 30.02 in1016.6 mb 0.00 in0.0 mm 0.00 in0.0 mm 0.00 in0.0 mm
04:44 AM 67.6°F19.8°C 65.8°F18.8°C 94% 2.2 mph W3.5 kmh W 2.2 mph3.5 kmh 30.02 in1016.6 mb 0.00 in0.0 mm 0.00 in0.0 mm 0.00 in0.0 mm
04:45 AM 67.6°F19.8°C 65.8°F18.8°C 94% 2.7 mph WNW4.3 kmh WNW 2.7 mph4.3 kmh 30.02 in1016.6 mb 0.00 in0.0 mm 0.00 in0.0 mm 0.00 in0.0 mm
04:46 AM 67.6°F19.8°C 65.8°F18.8°C 94% 1.1 mph W1.8 kmh W 2.7 mph4.3 kmh 30.02 in1016.6 mb 0.00 in0.0 mm 0.00 in0.0 mm 0.00 in0.0 mm
04:47 AM 67.6°F19.8°C 65.8°F18.8°C 94% Calm Calm 2.7 mph4.3 kmh 30.02 in1016.6 mb 0.00 in0.0 mm 0.00 in0.0 mm 0.00 in0.0 mm
04:48 AM 67.6°F19.8°C 65.8°F18.8°C 94% 1.1 mph W1.8 kmh W 2.7 mph4.3 kmh 30.02 in1016.6 mb 0.00 in0.0 mm 0.00 in0.0 mm 0.00 in0.0 mm
04:49 AM 67.6°F19.8°C 65.8°F18.8°C 94% 1.1 mph WNW1.8 kmh WNW 2.7 mph4.3 kmh 30.02 in1016.6 mb 0.00 in0.0 mm 0.00 in0.0 mm 0.00 in0.0 mm
04:50 AM 67.6°F19.8°C 65.8°F18.8°C 94% 1.7 mph W2.7 kmh W 2.7 mph4.3 kmh 30.02 in1016.6 mb 0.00 in0.0 mm 0.00 in0.0 mm 0.00 in0.0 mm
04:51 AM 67.6°F19.8°C 65.8°F18.8°C 94% 1.7 mph WNW2.7 kmh WNW 2.7 mph4.3 kmh 30.02 in1016.6 mb 0.00 in0.0 mm 0.00 in0.0 mm 0.00 in0.0 mm
04:52 AM 67.6°F19.8°C 65.8°F18.8°C 94% 1.1 mph W1.8 kmh W 2.7 mph4.3 kmh 30.02 in1016.6 mb 0.00 in0.0 mm 0.00 in0.0 mm 0.00 in0.0 mm
04:53 AM 67.6°F19.8°C 65.8°F18.8°C 94% 1.7 mph NW2.7 kmh NW 2.7 mph4.3 kmh 30.02 in1016.6 mb 0.00 in0.0 mm 0.00 in0.0 mm 0.00 in0.0 mm
04:54 AM 67.6°F19.8°C 65.8°F18.8°C 94% 2.2 mph WNW3.5 kmh WNW 2.7 mph4.3 kmh 30.02 in1016.6 mb 0.00 in0.0 mm 0.00 in0.0 mm 0.00 in0.0 mm
04:55 AM 67.6°F19.8°C 65.8°F18.8°C 94% 2.2 mph W3.5 kmh W 2.7 mph4.3 kmh 30.02 in1016.6 mb 0.00 in0.0 mm 0.00 in0.0 mm 0.00 in0.0 mm
04:56 AM 67.6°F19.8°C 65.8°F18.8°C 94% 1.7 mph W2.7 kmh W 2.7 mph4.3 kmh 30.02 in1016.6 mb 0.00 in0.0 mm 0.00 in0.0 mm 0.00 in0.0 mm
04:57 AM 67.6°F19.8°C 65.8°F18.8°C 94% 1.7 mph W2.7 kmh W 2.7 mph4.3 kmh 30.02 in1016.6 mb 0.00 in0.0 mm 0.00 in0.0 mm 0.00 in0.0 mm
04:58 AM 67.6°F19.8°C 65.8°F18.8°C 94% 2.2 mph WSW3.5 kmh WSW 2.7 mph4.3 kmh 30.02 in1016.6 mb 0.00 in0.0 mm 0.00 in0.0 mm 0.00 in0.0 mm
04:59 AM 67.6°F19.8°C 65.8°F18.8°C 94% Calm Calm 2.7 mph4.3 kmh 30.02 in1016.6 mb 0.00 in0.0 mm 0.00 in0.0 mm 0.00 in0.0 mm
05:00 AM 67.6°F19.8°C 65.8°F18.8°C 94% Calm Calm 2.7 mph4.3 kmh 30.02 in1016.6 mb 0.00 in0.0 mm 0.00 in0.0 mm 0.00 in0.0 mm
05:01 AM 67.6°F19.8°C 65.8°F18.8°C 94% 1.1 mph W1.8 kmh W 2.7 mph4.3 kmh 30.02 in1016.6 mb 0.00 in0.0 mm 0.00 in0.0 mm 0.00 in0.0 mm
05:02 AM 67.6°F19.8°C 65.8°F18.8°C 94% Calm Calm 2.7 mph4.3 kmh 30.02 in1016.6 mb 0.00 in0.0 mm 0.00 in0.0 mm 0.00 in0.0 mm
05:03 AM 67.6°F19.8°C 65.8°F18.8°C 94% Calm Calm 2.7 mph4.3 kmh 30.02 in1016.6 mb 0.00 in0.0 mm 0.00 in0.0 mm 0.00 in0.0 mm
05:04 AM 67.6°F19.8°C 65.8°F18.8°C 94% Calm Calm 2.7 mph4.3 kmh 30.02 in1016.6 mb 0.00 in0.0 mm 0.00 in0.0 mm 0.00 in0.0 mm
05:05 AM 67.5°F19.7°C 65.7°F18.7°C 94% Calm Calm 2.2 mph3.5 kmh 30.02 in1016.6 mb 0.00 in0.0 mm 0.00 in0.0 mm 0.00 in0.0 mm
05:06 AM 67.5°F19.7°C 65.7°F18.7°C 94% Calm Calm 2.2 mph3.5 kmh 30.02 in1016.6 mb 0.00 in0.0 mm 0.00 in0.0 mm 0.00 in0.0 mm
05:07 AM 67.5°F19.7°C 65.7°F18.7°C 94% 2.2 mph WNW3.5 kmh WNW 2.2 mph3.5 kmh 30.02 in1016.6 mb 0.00 in0.0 mm 0.00 in0.0 mm 0.00 in0.0 mm
05:08 AM 67.5°F19.7°C 65.7°F18.7°C 94% Calm Calm 2.2 mph3.5 kmh 30.02 in1016.6 mb 0.00 in0.0 mm 0.00 in0.0 mm 0.00 in0.0 mm
05:09 AM 67.5°F19.7°C 65.7°F18.7°C 94% Calm Calm 2.2 mph3.5 kmh 30.02 in1016.6 mb 0.00 in0.0 mm 0.00 in0.0 mm 0.00 in0.0 mm
05:10 AM 67.5°F19.7°C 65.7°F18.7°C 94% Calm Calm 2.2 mph3.5 kmh 30.02 in1016.6 mb 0.00 in0.0 mm 0.00 in0.0 mm 0.00 in0.0 mm
05:11 AM 67.5°F19.7°C 65.7°F18.7°C 94% Calm Calm 2.2 mph3.5 kmh 30.02 in1016.6 mb 0.00 in0.0 mm 0.00 in0.0 mm 0.00 in0.0 mm
05:12 AM 67.5°F19.7°C 65.7°F18.7°C 94% Calm Calm 2.2 mph3.5 kmh 30.02 in1016.6 mb 0.00 in0.0 mm 0.00 in0.0 mm 0.00 in0.0 mm
05:13 AM 67.5°F19.7°C 65.7°F18.7°C 94% Calm Calm 2.2 mph3.5 kmh 30.02 in1016.6 mb 0.00 in0.0 mm 0.00 in0.0 mm 0.00 in0.0 mm
05:14 AM 67.5°F19.7°C 65.7°F18.7°C 94% Calm Calm 2.2 mph3.5 kmh 30.02 in1016.6 mb 0.00 in0.0 mm 0.00 in0.0 mm 0.00 in0.0 mm
05:15 AM 67.3°F19.6°C 65.5°F18.6°C 94% Calm Calm 2.2 mph3.5 kmh 30.02 in1016.6 mb 0.00 in0.0 mm 0.00 in0.0 mm 0.00 in0.0 mm
05:16 AM 67.3°F19.6°C 65.5°F18.6°C 94% Calm Calm 2.2 mph3.5 kmh 30.02 in1016.6 mb 0.00 in0.0 mm 0.00 in0.0 mm 0.00 in0.0 mm
05:17 AM 67.3°F19.6°C 65.5°F18.6°C 94% Calm Calm 1.7 mph2.7 kmh 30.02 in1016.6 mb 0.00 in0.0 mm 0.00 in0.0 mm 0.00 in0.0 mm
05:18 AM 67.1°F19.5°C 65.3°F18.5°C 94% Calm Calm -- 30.02 in1016.6 mb 0.00 in0.0 mm 0.00 in0.0 mm 0.00 in0.0 mm
05:19 AM 67.1°F19.5°C 65.3°F18.5°C 94% Calm Calm -- 30.02 in1016.6 mb 0.00 in0.0 mm 0.00 in0.0 mm 0.00 in0.0 mm
05:20 AM 67.1°F19.5°C 65.3°F18.5°C 94% Calm Calm -- 30.02 in1016.6 mb 0.00 in0.0 mm 0.00 in0.0 mm 0.00 in0.0 mm
05:21 AM 67.1°F19.5°C 65.3°F18.5°C 94% Calm Calm -- 30.02 in1016.6 mb 0.00 in0.0 mm 0.00 in0.0 mm 0.00 in0.0 mm
05:22 AM 67.1°F19.5°C 65.3°F18.5°C 94% Calm Calm -- 30.02 in1016.6 mb 0.00 in0.0 mm 0.00 in0.0 mm 0.00 in0.0 mm
05:23 AM 67.1°F19.5°C 65.3°F18.5°C 94% Calm Calm -- 30.02 in1016.6 mb 0.00 in0.0 mm 0.00 in0.0 mm 0.00 in0.0 mm
05:24 AM 67.1°F19.5°C 65.3°F18.5°C 94% Calm Calm -- 30.02 in1016.6 mb 0.00 in0.0 mm 0.00 in0.0 mm 0.00 in0.0 mm
05:25 AM 66.9°F19.4°C 65.1°F18.4°C 94% Calm Calm -- 30.02 in1016.6 mb 0.00 in0.0 mm 0.00 in0.0 mm 0.00 in0.0 mm
05:26 AM 66.9°F19.4°C 65.1°F18.4°C 94% Calm Calm -- 30.02 in1016.6 mb 0.00 in0.0 mm 0.00 in0.0 mm 0.00 in0.0 mm
05:27 AM 66.9°F19.4°C 65.1°F18.4°C 94% Calm Calm -- 30.02 in1016.6 mb 0.00 in0.0 mm 0.00 in0.0 mm 0.00 in0.0 mm
05:28 AM 66.9°F19.4°C 65.1°F18.4°C 94% Calm Calm -- 30.02 in1016.6 mb 0.00 in0.0 mm 0.00 in0.0 mm 0.00 in0.0 mm
05:29 AM 66.9°F19.4°C 65.1°F18.4°C 94% 1.1 mph SSW1.8 kmh SSW 1.1 mph1.8 kmh 30.02 in1016.6 mb 0.00 in0.0 mm 0.00 in0.0 mm 0.00 in0.0 mm
05:30 AM 66.9°F19.4°C 65.1°F18.4°C 94% Calm Calm 1.1 mph1.8 kmh 30.02 in1016.6 mb 0.00 in0.0 mm 0.00 in0.0 mm 0.00 in0.0 mm
05:31 AM 66.9°F19.4°C 65.1°F18.4°C 94% Calm Calm 1.7 mph2.7 kmh 30.02 in1016.6 mb 0.00 in0.0 mm 0.00 in0.0 mm 0.00 in0.0 mm
05:32 AM 66.9°F19.4°C 65.1°F18.4°C 94% Calm Calm 1.7 mph2.7 kmh 30.02 in1016.6 mb 0.00 in0.0 mm 0.00 in0.0 mm 0.00 in0.0 mm
05:33 AM 66.9°F19.4°C 65.1°F18.4°C 94% Calm Calm 1.7 mph2.7 kmh 30.02 in1016.6 mb 0.00 in0.0 mm 0.00 in0.0 mm 0.00 in0.0 mm
05:34 AM 67.1°F19.5°C 65.3°F18.5°C 94% Calm Calm 1.7 mph2.7 kmh 30.02 in1016.6 mb 0.00 in0.0 mm 0.00 in0.0 mm 0.00 in0.0 mm
05:35 AM 67.1°F19.5°C 65.3°F18.5°C 94% Calm Calm 1.7 mph2.7 kmh 30.02 in1016.6 mb 0.00 in0.0 mm 0.00 in0.0 mm 0.00 in0.0 mm
05:36 AM 67.3°F19.6°C 65.8°F18.8°C 95% Calm Calm 1.7 mph2.7 kmh 30.02 in1016.6 mb 0.00 in0.0 mm 0.00 in0.0 mm 0.00 in0.0 mm
05:37 AM 67.3°F19.6°C 65.8°F18.8°C 95% Calm Calm 1.7 mph2.7 kmh 30.02 in1016.6 mb 0.00 in0.0 mm 0.00 in0.0 mm 0.00 in0.0 mm
05:38 AM 67.3°F19.6°C 65.8°F18.8°C 95% Calm Calm 1.7 mph2.7 kmh 30.02 in1016.6 mb 0.00 in0.0 mm 0.00 in0.0 mm 0.00 in0.0 mm
05:39 AM 67.3°F19.6°C 65.8°F18.8°C 95% Calm Calm 1.7 mph2.7 kmh 30.02 in1016.6 mb 0.00 in0.0 mm 0.00 in0.0 mm 0.00 in0.0 mm
05:40 AM 67.3°F19.6°C 65.8°F18.8°C 95% Calm Calm 1.7 mph2.7 kmh 30.02 in1016.6 mb 0.00 in0.0 mm 0.00 in0.0 mm 0.00 in0.0 mm
05:41 AM 67.5°F19.7°C 66.0°F18.9°C 95% Calm Calm -- 30.02 in1016.6 mb 0.00 in0.0 mm 0.00 in0.0 mm 0.00 in0.0 mm
05:42 AM 67.5°F19.7°C 66.0°F18.9°C 95% Calm Calm -- 30.02 in1016.6 mb 0.00 in0.0 mm 0.00 in0.0 mm 0.00 in0.0 mm
05:43 AM 67.5°F19.7°C 66.0°F18.9°C 95% Calm Calm -- 30.02 in1016.6 mb 0.00 in0.0 mm 0.00 in0.0 mm 0.00 in0.0 mm
05:44 AM 67.6°F19.8°C 66.1°F18.9°C 95% Calm Calm -- 30.02 in1016.6 mb 0.00 in0.0 mm 0.00 in0.0 mm 0.00 in0.0 mm
05:45 AM 67.6°F19.8°C 66.1°F18.9°C 95% Calm Calm -- 30.02 in1016.6 mb 0.00 in0.0 mm 0.00 in0.0 mm 0.00 in0.0 mm
05:46 AM 67.6°F19.8°C 66.1°F18.9°C 95% Calm Calm -- 30.02 in1016.6 mb 0.00 in0.0 mm 0.00 in0.0 mm 0.00 in0.0 mm
05:47 AM 67.6°F19.8°C 66.1°F18.9°C 95% Calm Calm -- 30.02 in1016.6 mb 0.00 in0.0 mm 0.00 in0.0 mm 0.00 in0.0 mm
05:48 AM 67.6°F19.8°C 66.1°F18.9°C 95% Calm Calm -- 30.02 in1016.6 mb 0.00 in0.0 mm 0.00 in0.0 mm 0.00 in0.0 mm
05:49 AM 67.6°F19.8°C 66.1°F18.9°C 95% Calm Calm -- 30.02 in1016.6 mb 0.00 in0.0 mm 0.00 in0.0 mm 0.00 in0.0 mm
05:50 AM 67.6°F19.8°C 66.1°F18.9°C 95% Calm Calm -- 30.02 in1016.6 mb 0.00 in0.0 mm 0.00 in0.0 mm 0.00 in0.0 mm
05:51 AM 67.6°F19.8°C 66.1°F18.9°C 95% Calm Calm -- 30.02 in1016.6 mb 0.00 in0.0 mm 0.00 in0.0 mm 0.00 in0.0 mm
05:52 AM 67.6°F19.8°C 66.1°F18.9°C 95% Calm Calm -- 30.02 in1016.6 mb 0.00 in0.0 mm 0.00 in0.0 mm 0.00 in0.0 mm
05:53 AM 67.6°F19.8°C 66.1°F18.9°C 95% Calm Calm -- 30.02 in1016.6 mb 0.00 in0.0 mm 0.00 in0.0 mm 0.00 in0.0 mm
05:54 AM 67.6°F19.8°C 66.1°F18.9°C 95% Calm Calm -- 30.02 in1016.6 mb 0.00 in0.0 mm 0.00 in0.0 mm 0.00 in0.0 mm
05:55 AM 67.6°F19.8°C 66.1°F18.9°C 95% Calm Calm -- 30.02 in1016.6 mb 0.00 in0.0 mm 0.00 in0.0 mm 0.00 in0.0 mm
05:56 AM 67.6°F19.8°C 66.1°F18.9°C 95% Calm Calm -- 30.02 in1016.6 mb 0.00 in0.0 mm 0.00 in0.0 mm 0.00 in0.0 mm
05:57 AM 67.6°F19.8°C 66.1°F18.9°C 95% Calm Calm -- 30.02 in1016.6 mb 0.00 in0.0 mm 0.00 in0.0 mm 0.00 in0.0 mm
05:58 AM 67.6°F19.8°C 66.1°F18.9°C 95% Calm Calm -- 30.02 in1016.6 mb 0.00 in0.0 mm 0.00 in0.0 mm 0.00 in0.0 mm
05:59 AM 67.6°F19.8°C 66.1°F18.9°C 95% Calm Calm -- 30.02 in1016.6 mb 0.00 in0.0 mm 0.00 in0.0 mm 0.00 in0.0 mm
06:00 AM 67.6°F19.8°C 66.1°F18.9°C 95% Calm Calm -- 30.02 in1016.6 mb 0.00 in0.0 mm 0.00 in0.0 mm 0.00 in0.0 mm
06:01 AM 67.6°F19.8°C 66.1°F18.9°C 95% Calm Calm -- 30.02 in1016.6 mb 0.00 in0.0 mm 0.00 in0.0 mm 0.00 in0.0 mm
06:02 AM 67.6°F19.8°C 66.1°F18.9°C 95% Calm Calm -- 30.02 in1016.6 mb 0.00 in0.0 mm 0.00 in0.0 mm 0.00 in0.0 mm
06:03 AM 67.6°F19.8°C 66.1°F18.9°C 95% Calm Calm -- 30.02 in1016.6 mb 0.00 in0.0 mm 0.00 in0.0 mm 0.00 in0.0 mm
06:04 AM 67.6°F19.8°C 66.1°F18.9°C 95% Calm Calm -- 30.02 in1016.6 mb 0.00 in0.0 mm 0.00 in0.0 mm 0.00 in0.0 mm
06:05 AM 67.6°F19.8°C 66.1°F18.9°C 95% Calm Calm -- 30.02 in1016.6 mb 0.00 in0.0 mm 0.00 in0.0 mm 0.00 in0.0 mm
06:06 AM 67.6°F19.8°C 66.1°F18.9°C 95% Calm Calm -- 30.02 in1016.6 mb 0.00 in0.0 mm 0.00 in0.0 mm 0.00 in0.0 mm
06:07 AM 67.6°F19.8°C 66.1°F18.9°C 95% Calm Calm -- 30.03 in1016.9 mb 0.00 in0.0 mm 0.00 in0.0 mm 0.00 in0.0 mm
06:08 AM 67.5°F19.7°C 66.0°F18.9°C 95% Calm Calm -- 30.03 in1016.9 mb 0.00 in0.0 mm 0.00 in0.0 mm 0.00 in0.0 mm
06:09 AM 67.5°F19.7°C 66.0°F18.9°C 95% Calm Calm -- 30.03 in1016.9 mb 0.00 in0.0 mm 0.00 in0.0 mm 0.00 in0.0 mm
06:10 AM 67.5°F19.7°C 66.0°F18.9°C 95% Calm Calm -- 30.03 in1016.9 mb 0.00 in0.0 mm 0.00 in0.0 mm 0.00 in0.0 mm
06:11 AM 67.5°F19.7°C 66.0°F18.9°C 95% Calm Calm -- 30.03 in1016.9 mb 0.00 in0.0 mm 0.00 in0.0 mm 0.00 in0.0 mm
06:12 AM 67.5°F19.7°C 66.0°F18.9°C 95% Calm Calm -- 30.03 in1016.9 mb 0.00 in0.0 mm 0.00 in0.0 mm 0.00 in0.0 mm
06:13 AM 67.5°F19.7°C 66.0°F18.9°C 95% Calm Calm -- 30.03 in1016.9 mb 0.00 in0.0 mm 0.00 in0.0 mm 0.00 in0.0 mm
06:14 AM 67.5°F19.7°C 66.0°F18.9°C 95% Calm Calm -- 30.03 in1016.9 mb 0.00 in0.0 mm 0.00 in0.0 mm 0.00 in0.0 mm
06:15 AM 67.5°F19.7°C 66.0°F18.9°C 95% Calm Calm -- 30.03 in1016.9 mb 0.00 in0.0 mm 0.00 in0.0 mm 0.00 in0.0 mm
06:16 AM 67.5°F19.7°C 66.0°F18.9°C 95% Calm Calm -- 30.03 in1016.9 mb 0.00 in0.0 mm 0.00 in0.0 mm 0.00 in0.0 mm
06:17 AM 67.3°F19.6°C 65.8°F18.8°C 95% Calm Calm -- 30.03 in1016.9 mb 0.00 in0.0 mm 0.00 in0.0 mm 0.00 in0.0 mm
06:18 AM 67.3°F19.6°C 65.8°F18.8°C 95% Calm Calm -- 30.03 in1016.9 mb 0.00 in0.0 mm 0.00 in0.0 mm 0.00 in0.0 mm
06:19 AM 67.3°F19.6°C 65.8°F18.8°C 95% Calm Calm -- 30.03 in1016.9 mb 0.00 in0.0 mm 0.00 in0.0 mm 0.00 in0.0 mm
06:20 AM 67.3°F19.6°C 65.8°F18.8°C 95% Calm Calm -- 30.03 in1016.9 mb 0.00 in0.0 mm 0.00 in0.0 mm 0.00 in0.0 mm
06:21 AM 67.5°F19.7°C 66.0°F18.9°C 95% Calm Calm -- 30.03 in1016.9 mb 0.00 in0.0 mm 0.00 in0.0 mm 0.00 in0.0 mm
06:22 AM 67.5°F19.7°C 66.0°F18.9°C 95% Calm Calm -- 30.03 in1016.9 mb 0.00 in0.0 mm 0.00 in0.0 mm 0.00 in0.0 mm
06:23 AM 67.5°F19.7°C 66.0°F18.9°C 95% Calm Calm -- 30.03 in1016.9 mb 0.00 in0.0 mm 0.00 in0.0 mm 0.00 in0.0 mm
06:24 AM 67.5°F19.7°C 66.0°F18.9°C 95% Calm Calm -- 30.03 in1016.9 mb 0.00 in0.0 mm 0.00 in0.0 mm 0.00 in0.0 mm
06:25 AM 67.5°F19.7°C 66.0°F18.9°C 95% Calm Calm -- 30.03 in1016.9 mb 0.00 in0.0 mm 0.00 in0.0 mm 0.00 in0.0 mm
06:26 AM 67.5°F19.7°C 66.0°F18.9°C 95% Calm Calm -- 30.03 in1016.9 mb 0.00 in0.0 mm 0.00 in0.0 mm 0.00 in0.0 mm
06:27 AM 67.5°F19.7°C 66.0°F18.9°C 95% Calm Calm -- 30.03 in1016.9 mb 0.00 in0.0 mm 0.00 in0.0 mm 0.00 in0.0 mm
06:28 AM 67.5°F19.7°C 66.0°F18.9°C 95% Calm Calm -- 30.03 in1016.9 mb 0.00 in0.0 mm 0.00 in0.0 mm 0.00 in0.0 mm
06:29 AM 67.5°F19.7°C 66.0°F18.9°C 95% Calm Calm -- 30.03 in1016.9 mb 0.00 in0.0 mm 0.00 in0.0 mm 0.00 in0.0 mm
06:30 AM 67.5°F19.7°C 66.0°F18.9°C 95% Calm Calm -- 30.03 in1016.9 mb 0.00 in0.0 mm 0.00 in0.0 mm 0.00 in0.0 mm
06:31 AM 67.5°F19.7°C 66.0°F18.9°C 95% Calm Calm -- 30.03 in1016.9 mb 0.00 in0.0 mm 0.00 in0.0 mm 0.00 in0.0 mm
06:32 AM 67.5°F19.7°C 66.0°F18.9°C 95% Calm Calm -- 30.03 in1016.9 mb 0.00 in0.0 mm 0.00 in0.0 mm 0.00 in0.0 mm
06:33 AM 67.5°F19.7°C 66.0°F18.9°C 95% Calm Calm -- 30.03 in1016.9 mb 0.00 in0.0 mm 0.00 in0.0 mm 0.00 in0.0 mm
06:34 AM 67.5°F19.7°C 66.0°F18.9°C 95% Calm Calm -- 30.03 in1016.9 mb 0.00 in0.0 mm 0.00 in0.0 mm 0.00 in0.0 mm
06:35 AM 67.3°F19.6°C 65.8°F18.8°C 95% Calm Calm -- 30.03 in1016.9 mb 0.00 in0.0 mm 0.00 in0.0 mm 0.00 in0.0 mm
06:36 AM 67.3°F19.6°C 65.8°F18.8°C 95% Calm Calm -- 30.03 in1016.9 mb 0.00 in0.0 mm 0.00 in0.0 mm 0.00 in0.0 mm
06:37 AM 67.3°F19.6°C 65.8°F18.8°C 95% Calm Calm -- 30.03 in1016.9 mb 0.00 in0.0 mm 0.00 in0.0 mm 0.00 in0.0 mm
06:38 AM 67.3°F19.6°C 65.8°F18.8°C 95% Calm Calm -- 30.03 in1016.9 mb 0.00 in0.0 mm 0.00 in0.0 mm 0.00 in0.0 mm
06:39 AM 67.3°F19.6°C 65.8°F18.8°C 95% Calm Calm -- 30.03 in1016.9 mb 0.00 in0.0 mm 0.00 in0.0 mm 0.00 in0.0 mm
06:40 AM 67.1°F19.5°C 65.6°F18.7°C 95% Calm Calm -- 30.03 in1016.9 mb 0.00 in0.0 mm 0.00 in0.0 mm 0.00 in0.0 mm
06:41 AM 67.1°F19.5°C 65.6°F18.7°C 95% Calm Calm -- 30.03 in1016.9 mb 0.00 in0.0 mm 0.00 in0.0 mm 0.00 in0.0 mm
06:42 AM 67.1°F19.5°C 65.6°F18.7°C 95% Calm Calm -- 30.03 in1016.9 mb 0.00 in0.0 mm 0.00 in0.0 mm 0.00 in0.0 mm
06:43 AM 67.1°F19.5°C 65.6°F18.7°C 95% Calm Calm -- 30.04 in1017.3 mb 0.00 in0.0 mm 0.00 in0.0 mm 0.00 in0.0 mm
06:44 AM 67.1°F19.5°C 65.6°F18.7°C 95% Calm Calm -- 30.04 in1017.3 mb 0.00 in0.0 mm 0.00 in0.0 mm 0.00 in0.0 mm
06:45 AM 67.1°F19.5°C 65.6°F18.7°C 95% Calm Calm -- 30.04 in1017.3 mb 0.00 in0.0 mm 0.00 in0.0 mm 0.00 in0.0 mm
06:46 AM 67.1°F19.5°C 65.6°F18.7°C 95% Calm Calm -- 30.04 in1017.3 mb 0.00 in0.0 mm 0.00 in0.0 mm 0.00 in0.0 mm
06:47 AM 67.1°F19.5°C 65.6°F18.7°C 95% Calm Calm -- 30.04 in1017.3 mb 0.00 in0.0 mm 0.00 in0.0 mm 0.00 in0.0 mm
06:48 AM 67.1°F19.5°C 65.6°F18.7°C 95% Calm Calm -- 30.04 in1017.3 mb 0.00 in0.0 mm 0.00 in0.0 mm 0.00 in0.0 mm
06:49 AM 67.1°F19.5°C 65.6°F18.7°C 95% Calm Calm -- 30.04 in1017.3 mb 0.00 in0.0 mm 0.00 in0.0 mm 0.00 in0.0 mm
06:50 AM 67.1°F19.5°C 65.6°F18.7°C 95% Calm Calm -- 30.04 in1017.3 mb 0.00 in0.0 mm 0.00 in0.0 mm 0.00 in0.0 mm
06:51 AM 67.1°F19.5°C 65.6°F18.7°C 95% Calm Calm -- 30.04 in1017.3 mb 0.00 in0.0 mm 0.00 in0.0 mm 0.00 in0.0 mm
06:52 AM 67.1°F19.5°C 65.6°F18.7°C 95% Calm Calm -- 30.04 in1017.3 mb 0.00 in0.0 mm 0.00 in0.0 mm 0.00 in0.0 mm
06:53 AM 67.1°F19.5°C 65.6°F18.7°C 95% Calm Calm -- 30.04 in1017.3 mb 0.00 in0.0 mm 0.00 in0.0 mm 0.00 in0.0 mm
06:54 AM 67.1°F19.5°C 65.6°F18.7°C 95% Calm Calm -- 30.04 in1017.3 mb 0.00 in0.0 mm 0.00 in0.0 mm 0.00 in0.0 mm
06:55 AM 67.1°F19.5°C 65.6°F18.7°C 95% Calm Calm -- 30.04 in1017.3 mb 0.00 in0.0 mm 0.00 in0.0 mm 0.00 in0.0 mm
06:56 AM 67.1°F19.5°C 65.6°F18.7°C 95% Calm Calm -- 30.04 in1017.3 mb 0.00 in0.0 mm 0.00 in0.0 mm 0.00 in0.0 mm
06:57 AM 67.1°F19.5°C 65.6°F18.7°C 95% Calm Calm -- 30.04 in1017.3 mb 0.00 in0.0 mm 0.00 in0.0 mm 0.00 in0.0 mm
06:58 AM 67.1°F19.5°C 65.6°F18.7°C 95% Calm Calm -- 30.04 in1017.3 mb 0.00 in0.0 mm 0.00 in0.0 mm 0.00 in0.0 mm
06:59 AM 67.1°F19.5°C 65.6°F18.7°C 95% Calm Calm -- 30.04 in1017.3 mb 0.00 in0.0 mm 0.00 in0.0 mm 0.00 in0.0 mm
07:00 AM 67.1°F19.5°C 65.6°F18.7°C 95% Calm Calm -- 30.04 in1017.3 mb 0.00 in0.0 mm 0.00 in0.0 mm 0.00 in0.0 mm
07:01 AM 67.3°F19.6°C 65.8°F18.8°C 95% Calm Calm -- 30.04 in1017.3 mb 0.00 in0.0 mm 0.00 in0.0 mm 0.00 in0.0 mm
07:02 AM 67.3°F19.6°C 65.8°F18.8°C 95% Calm Calm -- 30.04 in1017.3 mb 0.00 in0.0 mm 0.00 in0.0 mm 0.00 in0.0 mm
07:03 AM 67.3°F19.6°C 65.8°F18.8°C 95% Calm Calm -- 30.04 in1017.3 mb 0.00 in0.0 mm 0.00 in0.0 mm 0.00 in0.0 mm
07:04 AM 67.3°F19.6°C 65.8°F18.8°C 95% Calm Calm -- 30.04 in1017.3 mb 0.00 in0.0 mm 0.00 in0.0 mm 0.00 in0.0 mm
07:05 AM 67.3°F19.6°C 65.8°F18.8°C 95% Calm Calm -- 30.04 in1017.3 mb 0.00 in0.0 mm 0.00 in0.0 mm 0.00 in0.0 mm
07:06 AM 67.3°F19.6°C 65.8°F18.8°C 95% Calm Calm -- 30.04 in1017.3 mb 0.00 in0.0 mm 0.00 in0.0 mm 0.00 in0.0 mm
07:07 AM 67.3°F19.6°C 65.8°F18.8°C 95% Calm Calm -- 30.04 in1017.3 mb 0.00 in0.0 mm 0.00 in0.0 mm 0.00 in0.0 mm
07:08 AM 67.5°F19.7°C 66.0°F18.9°C 95% Calm Calm -- 30.04 in1017.3 mb 0.00 in0.0 mm 0.00 in0.0 mm 0.00 in0.0 mm
07:09 AM 67.5°F19.7°C 66.0°F18.9°C 95% Calm Calm -- 30.04 in1017.3 mb 0.00 in0.0 mm 0.00 in0.0 mm 0.00 in0.0 mm
07:10 AM 67.5°F19.7°C 66.0°F18.9°C 95% Calm Calm -- 30.04 in1017.3 mb 0.00 in0.0 mm 0.00 in0.0 mm 0.00 in0.0 mm
07:11 AM 67.5°F19.7°C 66.0°F18.9°C 95% Calm Calm -- 30.04 in1017.3 mb 0.00 in0.0 mm 0.00 in0.0 mm 0.00 in0.0 mm
07:12 AM 67.5°F19.7°C 66.0°F18.9°C 95% Calm Calm -- 30.04 in1017.3 mb 0.00 in0.0 mm 0.00 in0.0 mm 0.00 in0.0 mm
07:13 AM 67.6°F19.8°C 66.1°F18.9°C 95% Calm Calm -- 30.04 in1017.3 mb 0.00 in0.0 mm 0.00 in0.0 mm 0.00 in0.0 mm
07:14 AM 67.6°F19.8°C 66.1°F18.9°C 95% Calm Calm -- 30.04 in1017.3 mb 0.00 in0.0 mm 0.00 in0.0 mm 0.00 in0.0 mm
07:15 AM 67.8°F19.9°C 66.3°F19.1°C 95% Calm Calm -- 30.04 in1017.3 mb 0.00 in0.0 mm 0.00 in0.0 mm 0.00 in0.0 mm
07:16 AM 67.8°F19.9°C 66.3°F19.1°C 95% Calm Calm -- 30.04 in1017.3 mb 0.00 in0.0 mm 0.00 in0.0 mm 0.00 in0.0 mm
07:17 AM 67.8°F19.9°C 66.3°F19.1°C 95% Calm Calm -- 30.04 in1017.3 mb 0.00 in0.0 mm 0.00 in0.0 mm 0.00 in0.0 mm
07:18 AM 68.0°F20.0°C 66.5°F19.2°C 95% Calm Calm -- 30.04 in1017.3 mb 0.00 in0.0 mm 0.00 in0.0 mm 0.00 in0.0 mm
07:19 AM 68.0°F20.0°C 66.5°F19.2°C 95% Calm Calm -- 30.05 in1017.6 mb 0.00 in0.0 mm 0.00 in0.0 mm 0.00 in0.0 mm
07:20 AM 68.0°F20.0°C 66.5°F19.2°C 95% Calm Calm -- 30.05 in1017.6 mb 0.00 in0.0 mm 0.00 in0.0 mm 0.00 in0.0 mm
07:21 AM 68.0°F20.0°C 66.5°F19.2°C 95% Calm Calm -- 30.05 in1017.6 mb 0.00 in0.0 mm 0.00 in0.0 mm 0.00 in0.0 mm
07:22 AM 68.0°F20.0°C 66.5°F19.2°C 95% Calm Calm -- 30.05 in1017.6 mb 0.00 in0.0 mm 0.00 in0.0 mm 0.00 in0.0 mm
07:23 AM 68.2°F20.1°C 66.7°F19.3°C 95% Calm Calm -- 30.05 in1017.6 mb 0.00 in0.0 mm 0.00 in0.0 mm 0.00 in0.0 mm
07:24 AM 68.2°F20.1°C 66.7°F19.3°C 95% Calm Calm -- 30.05 in1017.6 mb 0.00 in0.0 mm 0.00 in0.0 mm 0.00 in0.0 mm
07:25 AM 68.2°F20.1°C 66.7°F19.3°C 95% 2.2 mph WSW3.5 kmh WSW 3.2 mph5.1 kmh 30.05 in1017.6 mb 0.00 in0.0 mm 0.00 in0.0 mm 0.00 in0.0 mm
07:26 AM 68.2°F20.1°C 66.7°F19.3°C 95% 1.7 mph WNW2.7 kmh WNW 3.2 mph5.1 kmh 30.05 in1017.6 mb 0.00 in0.0 mm 0.00 in0.0 mm 0.00 in0.0 mm
07:27 AM 68.2°F20.1°C 66.7°F19.3°C 95% Calm Calm 3.2 mph5.1 kmh 30.05 in1017.6 mb 0.00 in0.0 mm 0.00 in0.0 mm 0.00 in0.0 mm
07:28 AM 68.2°F20.1°C 66.7°F19.3°C 95% Calm Calm 3.2 mph5.1 kmh 30.05 in1017.6 mb 0.00 in0.0 mm 0.00 in0.0 mm 0.00 in0.0 mm
07:29 AM 68.2°F20.1°C 66.7°F19.3°C 95% Calm Calm 3.2 mph5.1 kmh 30.05 in1017.6 mb 0.00 in0.0 mm 0.00 in0.0 mm 0.00 in0.0 mm
07:30 AM 68.4°F20.2°C 66.9°F19.4°C 95% 1.7 mph W2.7 kmh W 3.2 mph5.1 kmh 30.05 in1017.6 mb 0.00 in0.0 mm 0.00 in0.0 mm 0.00 in0.0 mm
07:31 AM 68.4°F20.2°C 66.9°F19.4°C 95% 1.7 mph W2.7 kmh W 3.2 mph5.1 kmh 30.05 in1017.6 mb 0.00 in0.0 mm 0.00 in0.0 mm 0.00 in0.0 mm
07:32 AM 68.4°F20.2°C 66.9°F19.4°C 95% 1.1 mph WNW1.8 kmh WNW 3.2 mph5.1 kmh 30.05 in1017.6 mb 0.00 in0.0 mm 0.00 in0.0 mm 0.00 in0.0 mm
07:33 AM 68.5°F20.3°C 67.0°F19.4°C 95% Calm Calm 3.2 mph5.1 kmh 30.05 in1017.6 mb 0.00 in0.0 mm 0.00 in0.0 mm 0.00 in0.0 mm
07:34 AM 68.5°F20.3°C 67.0°F19.4°C 95% Calm Calm 3.2 mph5.1 kmh 30.05 in1017.6 mb 0.00 in0.0 mm 0.00 in0.0 mm 0.00 in0.0 mm
07:35 AM 68.5°F20.3°C 67.0°F19.4°C 95% 2.2 mph NW3.5 kmh NW 3.2 mph5.1 kmh 30.05 in1017.6 mb 0.00 in0.0 mm 0.00 in0.0 mm 0.00 in0.0 mm
07:36 AM 68.5°F20.3°C 67.0°F19.4°C 95% 2.2 mph WNW3.5 kmh WNW 3.2 mph5.1 kmh 30.05 in1017.6 mb 0.00 in0.0 mm 0.00 in0.0 mm 0.00 in0.0 mm
07:37 AM 68.7°F20.4°C 67.2°F19.6°C 95% Calm Calm 3.2 mph5.1 kmh 30.05 in1017.6 mb 0.00 in0.0 mm 0.00 in0.0 mm 0.00 in0.0 mm
07:38 AM 68.7°F20.4°C 67.2°F19.6°C 95% Calm Calm 3.2 mph5.1 kmh 30.05 in1017.6 mb 0.00 in0.0 mm 0.00 in0.0 mm 0.00 in0.0 mm
07:39 AM 68.7°F20.4°C 67.2°F19.6°C 95% Calm Calm 3.2 mph5.1 kmh 30.05 in1017.6 mb 0.00 in0.0 mm 0.00 in0.0 mm 0.00 in0.0 mm
07:40 AM 68.9°F20.5°C 67.4°F19.7°C 95% Calm Calm 3.2 mph5.1 kmh 30.05 in1017.6 mb 0.00 in0.0 mm 0.00 in0.0 mm 0.00 in0.0 mm
07:41 AM 68.9°F20.5°C 67.4°F19.7°C 95% 2.2 mph W3.5 kmh W 3.2 mph5.1 kmh 30.05 in1017.6 mb 0.00 in0.0 mm 0.00 in0.0 mm 0.00 in0.0 mm
07:42 AM 68.9°F20.5°C 67.4°F19.7°C 95% 2.2 mph NNW3.5 kmh NNW 3.2 mph5.1 kmh 30.05 in1017.6 mb 0.00 in0.0 mm 0.00 in0.0 mm 0.00 in0.0 mm
07:43 AM 69.1°F20.6°C 67.6°F19.8°C 95% 1.7 mph W2.7 kmh W 3.2 mph5.1 kmh 30.05 in1017.6 mb 0.00 in0.0 mm 0.00 in0.0 mm 0.00 in0.0 mm
07:44 AM 69.1°F20.6°C 67.6°F19.8°C 95% 3.7 mph WNW6.0 kmh WNW 3.7 mph6.0 kmh 30.05 in1017.6 mb 0.00 in0.0 mm 0.00 in0.0 mm 0.00 in0.0 mm
07:45 AM 69.1°F20.6°C 67.6°F19.8°C 95% 4.7 mph WNW7.6 kmh WNW 4.7 mph7.6 kmh 30.05 in1017.6 mb 0.00 in0.0 mm 0.00 in0.0 mm 0.00 in0.0 mm
07:46 AM 69.1°F20.6°C 67.6°F19.8°C 95% 3.2 mph E5.1 kmh E 4.7 mph7.6 kmh 30.05 in1017.6 mb 0.00 in0.0 mm 0.00 in0.0 mm 0.00 in0.0 mm
07:47 AM 69.1°F20.6°C 67.6°F19.8°C 95% 2.2 mph W3.5 kmh W 4.7 mph7.6 kmh 30.05 in1017.6 mb 0.00 in0.0 mm 0.00 in0.0 mm 0.00 in0.0 mm
07:48 AM 69.3°F20.7°C 67.8°F19.9°C 95% 3.2 mph WNW5.1 kmh WNW 4.7 mph7.6 kmh 30.05 in1017.6 mb 0.00 in0.0 mm 0.00 in0.0 mm 0.00 in0.0 mm
07:49 AM 69.3°F20.7°C 67.8°F19.9°C 95% 3.2 mph WNW5.1 kmh WNW 4.7 mph7.6 kmh 30.05 in1017.6 mb 0.00 in0.0 mm 0.00 in0.0 mm 0.00 in0.0 mm
07:50 AM 69.3°F20.7°C 67.8°F19.9°C 95% 2.7 mph W4.3 kmh W 4.7 mph7.6 kmh 30.05 in1017.6 mb 0.00 in0.0 mm 0.00 in0.0 mm 0.00 in0.0 mm
07:51 AM 69.3°F20.7°C 67.8°F19.9°C 95% 4.2 mph W6.8 kmh W 4.7 mph7.6 kmh 30.05 in1017.6 mb 0.00 in0.0 mm 0.00 in0.0 mm 0.00 in0.0 mm
07:52 AM 69.3°F20.7°C 67.8°F19.9°C 95% 1.1 mph W1.8 kmh W 4.7 mph7.6 kmh 30.05 in1017.6 mb 0.00 in0.0 mm 0.00 in0.0 mm 0.00 in0.0 mm
07:53 AM 69.4°F20.8°C 67.9°F19.9°C 95% 2.2 mph WSW3.5 kmh WSW 4.7 mph7.6 kmh 30.05 in1017.6 mb 0.00 in0.0 mm 0.00 in0.0 mm 0.00 in0.0 mm
07:54 AM 69.4°F20.8°C 67.9°F19.9°C 95% 1.7 mph W2.7 kmh W 4.7 mph7.6 kmh 30.05 in1017.6 mb 0.00 in0.0 mm 0.00 in0.0 mm 0.00 in0.0 mm
07:55 AM 69.4°F20.8°C 67.9°F19.9°C 95% 1.7 mph W2.7 kmh W 4.7 mph7.6 kmh 30.05 in1017.6 mb 0.00 in0.0 mm 0.00 in0.0 mm 0.00 in0.0 mm
07:56 AM 69.4°F20.8°C 67.9°F19.9°C 95% 1.7 mph WNW2.7 kmh WNW 4.7 mph7.6 kmh 30.05 in1017.6 mb 0.00 in0.0 mm 0.00 in0.0 mm 0.00 in0.0 mm
07:57 AM 69.4°F20.8°C 67.9°F19.9°C 95% 2.7 mph W4.3 kmh W 4.7 mph7.6 kmh 30.05 in1017.6 mb 0.00 in0.0 mm 0.00 in0.0 mm 0.00 in0.0 mm
07:58 AM 69.4°F20.8°C 67.9°F19.9°C 95% 2.7 mph NNW4.3 kmh NNW 4.7 mph7.6 kmh 30.05 in1017.6 mb 0.00 in0.0 mm 0.00 in0.0 mm 0.00 in0.0 mm
07:59 AM 69.6°F20.9°C 68.1°F20.1°C 95% 3.2 mph W5.1 kmh W 4.7 mph7.6 kmh 30.05 in1017.6 mb 0.00 in0.0 mm 0.00 in0.0 mm 0.00 in0.0 mm
08:00 AM 69.8°F21.0°C 68.3°F20.2°C 95% 2.7 mph W4.3 kmh W 4.7 mph7.6 kmh 30.05 in1017.6 mb 0.00 in0.0 mm 0.00 in0.0 mm 0.00 in0.0 mm
08:01 AM 69.8°F21.0°C 68.3°F20.2°C 95% 3.2 mph W5.1 kmh W 4.7 mph7.6 kmh 30.05 in1017.6 mb 0.00 in0.0 mm 0.00 in0.0 mm 0.00 in0.0 mm
08:02 AM 69.8°F21.0°C 68.3°F20.2°C 95% 4.2 mph NW6.8 kmh NW 4.2 mph6.8 kmh 30.05 in1017.6 mb 0.00 in0.0 mm 0.00 in0.0 mm 0.00 in0.0 mm
08:03 AM 69.8°F21.0°C 68.3°F20.2°C 95% 4.2 mph NW6.8 kmh NW 4.2 mph6.8 kmh 30.05 in1017.6 mb 0.00 in0.0 mm 0.00 in0.0 mm 0.00 in0.0 mm
08:04 AM 69.8°F21.0°C 68.3°F20.2°C 95% Calm Calm 4.2 mph6.8 kmh 30.05 in1017.6 mb 0.00 in0.0 mm 0.00 in0.0 mm 0.00 in0.0 mm
08:05 AM 69.8°F21.0°C 68.3°F20.2°C 95% Calm Calm 4.2 mph6.8 kmh 30.05 in1017.6 mb 0.00 in0.0 mm 0.00 in0.0 mm 0.00 in0.0 mm
08:06 AM 69.8°F21.0°C 68.3°F20.2°C 95% Calm Calm 4.2 mph6.8 kmh 30.05 in1017.6 mb 0.00 in0.0 mm 0.00 in0.0 mm 0.00 in0.0 mm
08:07 AM 70.2°F21.2°C 68.7°F20.4°C 95% 3.2 mph W5.1 kmh W 4.2 mph6.8 kmh 30.06 in1017.9 mb 0.00 in0.0 mm 0.00 in0.0 mm 0.00 in0.0 mm
08:08 AM 70.2°F21.2°C 68.7°F20.4°C 95% 4.2 mph W6.8 kmh W 5.3 mph8.5 kmh 30.06 in1017.9 mb 0.00 in0.0 mm 0.00 in0.0 mm 0.00 in0.0 mm
08:09 AM 70.2°F21.2°C 68.7°F20.4°C 95% 4.7 mph W7.6 kmh W 5.3 mph8.5 kmh 30.06 in1017.9 mb 0.00 in0.0 mm 0.00 in0.0 mm 0.00 in0.0 mm
08:10 AM 70.3°F21.3°C 68.8°F20.4°C 95% 5.8 mph WNW9.3 kmh WNW 5.8 mph9.3 kmh 30.06 in1017.9 mb 0.00 in0.0 mm 0.00 in0.0 mm 0.00 in0.0 mm
08:11 AM 70.3°F21.3°C 68.8°F20.4°C 95% 2.7 mph W4.3 kmh W 5.8 mph9.3 kmh 30.06 in1017.9 mb 0.00 in0.0 mm 0.00 in0.0 mm 0.00 in0.0 mm
08:12 AM 70.3°F21.3°C 68.8°F20.4°C 95% 2.2 mph W3.5 kmh W 5.8 mph9.3 kmh 30.06 in1017.9 mb 0.00 in0.0 mm 0.00 in0.0 mm 0.00 in0.0 mm
08:13 AM 70.5°F21.4°C 69.0°F20.6°C 95% 4.2 mph W6.8 kmh W 5.8 mph9.3 kmh 30.06 in1017.9 mb 0.00 in0.0 mm 0.00 in0.0 mm 0.00 in0.0 mm
08:14 AM 70.5°F21.4°C 69.0°F20.6°C 95% 3.7 mph W6.0 kmh W 5.8 mph9.3 kmh 30.06 in1017.9 mb 0.00 in0.0 mm 0.00 in0.0 mm 0.00 in0.0 mm
08:15 AM 70.5°F21.4°C 69.0°F20.6°C 95% 2.7 mph WNW4.3 kmh WNW 5.8 mph9.3 kmh 30.06 in1017.9 mb 0.00 in0.0 mm 0.00 in0.0 mm 0.00 in0.0 mm
08:16 AM 70.5°F21.4°C 69.0°F20.6°C 95% 4.2 mph W6.8 kmh W 5.8 mph9.3 kmh 30.06 in1017.9 mb 0.00 in0.0 mm 0.00 in0.0 mm 0.00 in0.0 mm
08:17 AM 70.7°F21.5°C 68.9°F20.5°C 94% 3.2 mph WSW5.1 kmh WSW 5.8 mph9.3 kmh 30.06 in1017.9 mb 0.00 in0.0 mm 0.00 in0.0 mm 0.00 in0.0 mm
08:18 AM 70.7°F21.5°C 68.9°F20.5°C 94% 3.7 mph NNW6.0 kmh NNW 5.8 mph9.3 kmh 30.06 in1017.9 mb 0.00 in0.0 mm 0.00 in0.0 mm 0.00 in0.0 mm
08:19 AM 70.7°F21.5°C 68.9°F20.5°C 94% 2.2 mph NW3.5 kmh NW 5.8 mph9.3 kmh 30.06 in1017.9 mb 0.00 in0.0 mm 0.00 in0.0 mm 0.00 in0.0 mm
08:20 AM 70.9°F21.6°C 69.1°F20.6°C 94% 3.2 mph WSW5.1 kmh WSW 6.3 mph10.1 kmh 30.06 in1017.9 mb 0.00 in0.0 mm 0.00 in0.0 mm 0.00 in0.0 mm
08:21 AM 70.9°F21.6°C 69.1°F20.6°C 94% 4.7 mph WNW7.6 kmh WNW 6.3 mph10.1 kmh 30.06 in1017.9 mb 0.00 in0.0 mm 0.00 in0.0 mm 0.00 in0.0 mm
08:22 AM 70.9°F21.6°C 69.1°F20.6°C 94% 4.2 mph WNW6.8 kmh WNW 6.3 mph10.1 kmh 30.06 in1017.9 mb 0.00 in0.0 mm 0.00 in0.0 mm 0.00 in0.0 mm
08:23 AM 70.9°F21.6°C 69.1°F20.6°C 94% 5.8 mph W9.3 kmh W 6.3 mph10.1 kmh 30.06 in1017.9 mb 0.00 in0.0 mm 0.00 in0.0 mm 0.00 in0.0 mm
08:24 AM 70.9°F21.6°C 69.1°F20.6°C 94% 3.7 mph WNW6.0 kmh WNW 6.3 mph10.1 kmh 30.06 in1017.9 mb 0.00 in0.0 mm 0.00 in0.0 mm 0.00 in0.0 mm
08:25 AM 71.1°F21.7°C 69.3°F20.7°C 94% 3.7 mph W6.0 kmh W 6.3 mph10.1 kmh 30.06 in1017.9 mb 0.00 in0.0 mm 0.00 in0.0 mm 0.00 in0.0 mm
08:26 AM 71.1°F21.7°C 69.3°F20.7°C 94% 3.7 mph W6.0 kmh W 6.3 mph10.1 kmh 30.06 in1017.9 mb 0.00 in0.0 mm 0.00 in0.0 mm 0.00 in0.0 mm
08:27 AM 71.2°F21.8°C 69.4°F20.8°C 94% 5.3 mph WNW8.5 kmh WNW 6.3 mph10.1 kmh 30.06 in1017.9 mb 0.00 in0.0 mm 0.00 in0.0 mm 0.00 in0.0 mm
08:28 AM 71.2°F21.8°C 69.4°F20.8°C 94% 2.7 mph WNW4.3 kmh WNW 6.3 mph10.1 kmh 30.06 in1017.9 mb 0.00 in0.0 mm 0.00 in0.0 mm 0.00 in0.0 mm
08:29 AM 71.4°F21.9°C 69.6°F20.9°C 94% 1.1 mph W1.8 kmh W 6.3 mph10.1 kmh 30.06 in1017.9 mb 0.00 in0.0 mm 0.00 in0.0 mm 0.00 in0.0 mm
08:30 AM 71.4°F21.9°C 69.6°F20.9°C 94% Calm Calm 6.3 mph10.1 kmh 30.06 in1017.9 mb 0.00 in0.0 mm 0.00 in0.0 mm 0.00 in0.0 mm
08:31 AM 71.4°F21.9°C 69.3°F20.7°C 93% 2.7 mph SSW4.3 kmh SSW 6.3 mph10.1 kmh 30.06 in1017.9 mb 0.00 in0.0 mm 0.00 in0.0 mm 0.00 in0.0 mm
08:32 AM 71.6°F22.0°C 69.5°F20.8°C 93% 2.7 mph WNW4.3 kmh WNW 6.3 mph10.1 kmh 30.06 in1017.9 mb 0.00 in0.0 mm 0.00 in0.0 mm 0.00 in0.0 mm
08:33 AM 71.6°F22.0°C 69.5°F20.8°C 93% 1.7 mph W2.7 kmh W 6.3 mph10.1 kmh 30.06 in1017.9 mb 0.00 in0.0 mm 0.00 in0.0 mm 0.00 in0.0 mm
08:34 AM 71.6°F22.0°C 69.5°F20.8°C 93% 3.2 mph NW5.1 kmh NW 6.3 mph10.1 kmh 30.06 in1017.9 mb 0.00 in0.0 mm 0.00 in0.0 mm 0.00 in0.0 mm
08:35 AM 71.6°F22.0°C 69.5°F20.8°C 93% 4.2 mph W6.8 kmh W 5.3 mph8.5 kmh 30.06 in1017.9 mb 0.00 in0.0 mm 0.00 in0.0 mm 0.00 in0.0 mm
08:36 AM 71.6°F22.0°C 69.5°F20.8°C 93% 3.2 mph SSW5.1 kmh SSW 5.3 mph8.5 kmh 30.06 in1017.9 mb 0.00 in0.0 mm 0.00 in0.0 mm 0.00 in0.0 mm
08:37 AM 71.6°F22.0°C 69.1°F20.6°C 92% 3.7 mph ESE6.0 kmh ESE 5.3 mph8.5 kmh 30.06 in1017.9 mb 0.00 in0.0 mm 0.00 in0.0 mm 0.00 in0.0 mm
08:38 AM 71.6°F22.0°C 69.1°F20.6°C 92% 3.2 mph WNW5.1 kmh WNW 4.7 mph7.6 kmh 30.06 in1017.9 mb 0.00 in0.0 mm 0.00 in0.0 mm 0.00 in0.0 mm
08:39 AM 71.8°F22.1°C 69.3°F20.7°C 92% 1.7 mph W2.7 kmh W 4.7 mph7.6 kmh 30.06 in1017.9 mb 0.00 in0.0 mm 0.00 in0.0 mm 0.00 in0.0 mm
08:40 AM 71.8°F22.1°C 69.3°F20.7°C 92% 2.7 mph W4.3 kmh W 4.7 mph7.6 kmh 30.06 in1017.9 mb 0.00 in0.0 mm 0.00 in0.0 mm 0.00 in0.0 mm
08:41 AM 72.0°F22.2°C 69.5°F20.8°C 92% 4.2 mph WNW6.8 kmh WNW 4.7 mph7.6 kmh 30.06 in1017.9 mb 0.00 in0.0 mm 0.00 in0.0 mm 0.00 in0.0 mm
08:42 AM 72.0°F22.2°C 69.5°F20.8°C 92% 4.7 mph NW7.6 kmh NW 5.3 mph8.5 kmh 30.06 in1017.9 mb 0.00 in0.0 mm 0.00 in0.0 mm 0.00 in0.0 mm
08:43 AM 72.1°F22.3°C 69.6°F20.9°C 92% 4.7 mph W7.6 kmh W 5.3 mph8.5 kmh 30.07 in1018.3 mb 0.00 in0.0 mm 0.00 in0.0 mm 0.00 in0.0 mm
08:44 AM 72.1°F22.3°C 69.6°F20.9°C 92% 2.7 mph W4.3 kmh W 5.3 mph8.5 kmh 30.07 in1018.3 mb 0.00 in0.0 mm 0.00 in0.0 mm 0.00 in0.0 mm
08:45 AM 72.1°F22.3°C 69.3°F20.7°C 91% 5.3 mph SSW8.5 kmh SSW 5.3 mph8.5 kmh 30.07 in1018.3 mb 0.00 in0.0 mm 0.00 in0.0 mm 0.00 in0.0 mm
08:46 AM 72.3°F22.4°C 69.5°F20.8°C 91% 5.8 mph WNW9.3 kmh WNW 5.8 mph9.3 kmh 30.07 in1018.3 mb 0.00 in0.0 mm 0.00 in0.0 mm 0.00 in0.0 mm
08:47 AM 72.3°F22.4°C 69.5°F20.8°C 91% 5.8 mph WNW9.3 kmh WNW 6.3 mph10.1 kmh 30.07 in1018.3 mb 0.00 in0.0 mm 0.00 in0.0 mm 0.00 in0.0 mm
08:48 AM 72.3°F22.4°C 69.5°F20.8°C 91% 5.3 mph WNW8.5 kmh WNW 6.3 mph10.1 kmh 30.07 in1018.3 mb 0.00 in0.0 mm 0.00 in0.0 mm 0.00 in0.0 mm
08:49 AM 72.5°F22.5°C 69.4°F20.8°C 90% 6.3 mph WNW10.1 kmh WNW 6.3 mph10.1 kmh 30.07 in1018.3 mb 0.00 in0.0 mm 0.00 in0.0 mm 0.00 in0.0 mm
08:50 AM 72.5°F22.5°C 69.4°F20.8°C 90% 6.3 mph W10.1 kmh W 6.3 mph10.1 kmh 30.07 in1018.3 mb 0.00 in0.0 mm 0.00 in0.0 mm 0.00 in0.0 mm
08:51 AM 72.5°F22.5°C 69.4°F20.8°C 90% 3.2 mph NW5.1 kmh NW 6.3 mph10.1 kmh 30.07 in1018.3 mb 0.00 in0.0 mm 0.00 in0.0 mm 0.00 in0.0 mm
08:52 AM 72.7°F22.6°C 69.6°F20.9°C 90% 3.2 mph WNW5.1 kmh WNW 6.3 mph10.1 kmh 30.07 in1018.3 mb 0.00 in0.0 mm 0.00 in0.0 mm 0.00 in0.0 mm
08:53 AM 72.9°F22.7°C 69.8°F21.0°C 90% 3.7 mph WNW6.0 kmh WNW 6.3 mph10.1 kmh 30.07 in1018.3 mb 0.00 in0.0 mm 0.00 in0.0 mm 0.00 in0.0 mm
08:54 AM 72.9°F22.7°C 69.8°F21.0°C 90% 4.7 mph W7.6 kmh W 6.3 mph10.1 kmh 30.07 in1018.3 mb 0.00 in0.0 mm 0.00 in0.0 mm 0.00 in0.0 mm
08:55 AM 72.9°F22.7°C 69.8°F21.0°C 90% 5.3 mph W8.5 kmh W 6.8 mph10.9 kmh 30.07 in1018.3 mb 0.00 in0.0 mm 0.00 in0.0 mm 0.00 in0.0 mm
08:56 AM 72.9°F22.7°C 69.5°F20.8°C 89% 4.2 mph WNW6.8 kmh WNW 6.8 mph10.9 kmh 30.07 in1018.3 mb 0.00 in0.0 mm 0.00 in0.0 mm 0.00 in0.0 mm
08:57 AM 73.0°F22.8°C 69.6°F20.9°C 89% 3.7 mph WNW6.0 kmh WNW 6.8 mph10.9 kmh 30.07 in1018.3 mb 0.00 in0.0 mm 0.00 in0.0 mm 0.00 in0.0 mm
08:58 AM 73.0°F22.8°C 69.6°F20.9°C 89% 4.2 mph W6.8 kmh W 6.8 mph10.9 kmh 30.07 in1018.3 mb 0.00 in0.0 mm 0.00 in0.0 mm 0.00 in0.0 mm
08:59 AM 73.0°F22.8°C 69.6°F20.9°C 89% 4.7 mph WNW7.6 kmh WNW 6.8 mph10.9 kmh 30.07 in1018.3 mb 0.00 in0.0 mm 0.00 in0.0 mm 0.00 in0.0 mm
09:00 AM 73.0°F22.8°C 69.6°F20.9°C 89% 4.7 mph WNW7.6 kmh WNW 6.8 mph10.9 kmh 30.07 in1018.3 mb 0.00 in0.0 mm 0.00 in0.0 mm 0.00 in0.0 mm
09:01 AM 73.0°F22.8°C 69.6°F20.9°C 89% 3.7 mph WNW6.0 kmh WNW 6.8 mph10.9 kmh 30.07 in1018.3 mb 0.00 in0.0 mm 0.00 in0.0 mm 0.00 in0.0 mm
09:02 AM 73.2°F22.9°C 69.8°F21.0°C 89% 3.7 mph NW6.0 kmh NW 6.8 mph10.9 kmh 30.07 in1018.3 mb 0.00 in0.0 mm 0.00 in0.0 mm 0.00 in0.0 mm
09:03 AM 73.2°F22.9°C 69.8°F21.0°C 89% 5.8 mph W9.3 kmh W 6.8 mph10.9 kmh 30.07 in1018.3 mb 0.00 in0.0 mm 0.00 in0.0 mm 0.00 in0.0 mm
09:04 AM 73.6°F23.1°C 69.8°F21.0°C 88% 3.2 mph SW5.1 kmh SW 6.8 mph10.9 kmh 30.07 in1018.3 mb 0.00 in0.0 mm 0.00 in0.0 mm 0.00 in0.0 mm
09:05 AM 73.6°F23.1°C 69.8°F21.0°C 88% 4.7 mph WNW7.6 kmh WNW 6.8 mph10.9 kmh 30.07 in1018.3 mb 0.00 in0.0 mm 0.00 in0.0 mm 0.00 in0.0 mm
09:06 AM 73.6°F23.1°C 69.8°F21.0°C 88% 6.3 mph WSW10.1 kmh WSW 7.8 mph12.6 kmh 30.07 in1018.3 mb 0.00 in0.0 mm 0.00 in0.0 mm 0.00 in0.0 mm
09:07 AM 73.6°F23.1°C 69.8°F21.0°C 88% 6.3 mph WSW10.1 kmh WSW 7.8 mph12.6 kmh 30.07 in1018.3 mb 0.00 in0.0 mm 0.00 in0.0 mm 0.00 in0.0 mm
09:08 AM 73.6°F23.1°C 69.8°F21.0°C 88% Calm Calm 7.8 mph12.6 kmh 30.07 in1018.3 mb 0.00 in0.0 mm 0.00 in0.0 mm 0.00 in0.0 mm
09:09 AM 73.6°F23.1°C 69.8°F21.0°C 88% Calm Calm 7.8 mph12.6 kmh 30.07 in1018.3 mb 0.00 in0.0 mm 0.00 in0.0 mm 0.00 in0.0 mm
09:10 AM 73.6°F23.1°C 69.8°F21.0°C 88% 6.3 mph NW10.1 kmh NW 7.8 mph12.6 kmh 30.07 in1018.3 mb 0.00 in0.0 mm 0.00 in0.0 mm 0.00 in0.0 mm
09:11 AM 74.1°F23.4°C 70.0°F21.1°C 87% 3.2 mph W5.1 kmh W 7.8 mph12.6 kmh 30.07 in1018.3 mb 0.00 in0.0 mm 0.00 in0.0 mm 0.00 in0.0 mm
09:12 AM 74.1°F23.4°C 69.6°F20.9°C 86% 5.8 mph W9.3 kmh W 7.8 mph12.6 kmh 30.07 in1018.3 mb 0.00 in0.0 mm 0.00 in0.0 mm 0.00 in0.0 mm
09:13 AM 74.1°F23.4°C 69.6°F20.9°C 86% 2.7 mph W4.3 kmh W 7.8 mph12.6 kmh 30.07 in1018.3 mb 0.00 in0.0 mm 0.00 in0.0 mm 0.00 in0.0 mm
09:14 AM 74.5°F23.6°C 70.0°F21.1°C 86% 2.7 mph WNW4.3 kmh WNW 6.8 mph10.9 kmh 30.07 in1018.3 mb 0.00 in0.0 mm 0.00 in0.0 mm 0.00 in0.0 mm
09:15 AM 74.7°F23.7°C 70.2°F21.2°C 86% 6.8 mph WNW10.9 kmh WNW 6.8 mph10.9 kmh 30.07 in1018.3 mb 0.00 in0.0 mm 0.00 in0.0 mm 0.00 in0.0 mm
09:16 AM 74.7°F23.7°C 70.2°F21.2°C 86% 7.8 mph WNW12.6 kmh WNW 7.8 mph12.6 kmh 30.07 in1018.3 mb 0.00 in0.0 mm 0.00 in0.0 mm 0.00 in0.0 mm
09:17 AM 74.5°F23.6°C 69.7°F20.9°C 85% 5.3 mph W8.5 kmh W 7.8 mph12.6 kmh 30.07 in1018.3 mb 0.00 in0.0 mm 0.00 in0.0 mm 0.00 in0.0 mm
09:18 AM 74.5°F23.6°C 69.7°F20.9°C 85% 5.8 mph NW9.3 kmh NW 7.8 mph12.6 kmh 30.07 in1018.3 mb 0.00 in0.0 mm 0.00 in0.0 mm 0.00 in0.0 mm
09:19 AM 74.5°F23.6°C 69.7°F20.9°C 85% 5.3 mph W8.5 kmh W 7.8 mph12.6 kmh 30.08 in1018.6 mb 0.00 in0.0 mm 0.00 in0.0 mm 0.00 in0.0 mm
09:20 AM 74.5°F23.6°C 69.7°F20.9°C 85% 4.2 mph NNE6.8 kmh NNE 7.8 mph12.6 kmh 30.08 in1018.6 mb 0.00 in0.0 mm 0.00 in0.0 mm 0.00 in0.0 mm
09:21 AM 74.7°F23.7°C 69.9°F21.1°C 85% 5.3 mph W8.5 kmh W 7.8 mph12.6 kmh 30.08 in1018.6 mb 0.00 in0.0 mm 0.00 in0.0 mm 0.00 in0.0 mm
09:22 AM 74.7°F23.7°C 69.9°F21.1°C 85% 3.2 mph W5.1 kmh W 7.8 mph12.6 kmh 30.08 in1018.6 mb 0.00 in0.0 mm 0.00 in0.0 mm 0.00 in0.0 mm
09:23 AM 74.7°F23.7°C 69.9°F21.1°C 85% 5.8 mph WNW9.3 kmh WNW 7.8 mph12.6 kmh 30.08 in1018.6 mb 0.00 in0.0 mm 0.00 in0.0 mm 0.00 in0.0 mm
09:24 AM 74.8°F23.8°C 70.0°F21.1°C 85% 4.7 mph WNW7.6 kmh WNW 7.8 mph12.6 kmh 30.08 in1018.6 mb 0.00 in0.0 mm 0.00 in0.0 mm 0.00 in0.0 mm
09:25 AM 74.8°F23.8°C 70.0°F21.1°C 85% 3.7 mph WNW6.0 kmh WNW 7.8 mph12.6 kmh 30.08 in1018.6 mb 0.00 in0.0 mm 0.00 in0.0 mm 0.00 in0.0 mm
09:26 AM 75.0°F23.9°C 70.2°F21.2°C 85% 4.2 mph WNW6.8 kmh WNW 7.8 mph12.6 kmh 30.08 in1018.6 mb 0.00 in0.0 mm 0.00 in0.0 mm 0.00 in0.0 mm
09:27 AM 75.4°F24.1°C 70.2°F21.2°C 84% 4.7 mph NNW7.6 kmh NNW 7.8 mph12.6 kmh 30.08 in1018.6 mb 0.00 in0.0 mm 0.00 in0.0 mm 0.00 in0.0 mm
09:28 AM 75.6°F24.2°C 70.1°F21.2°C 83% 3.2 mph W5.1 kmh W 7.8 mph12.6 kmh 30.08 in1018.6 mb 0.00 in0.0 mm 0.00 in0.0 mm 0.00 in0.0 mm
09:29 AM 75.7°F24.3°C 70.2°F21.2°C 83% 4.2 mph WNW6.8 kmh WNW 7.8 mph12.6 kmh 30.08 in1018.6 mb 0.00 in0.0 mm 0.00 in0.0 mm 0.00 in0.0 mm
09:30 AM 75.9°F24.4°C 70.4°F21.3°C 83% 4.7 mph NW7.6 kmh NW 7.8 mph12.6 kmh 30.08 in1018.6 mb 0.00 in0.0 mm 0.00 in0.0 mm 0.00 in0.0 mm
09:31 AM 75.9°F24.4°C 70.4°F21.3°C 83% 3.7 mph W6.0 kmh W 7.8 mph12.6 kmh 30.08 in1018.6 mb 0.00 in0.0 mm 0.00 in0.0 mm 0.00 in0.0 mm
09:32 AM 75.9°F24.4°C 70.4°F21.3°C 83% 3.2 mph W5.1 kmh W 7.8 mph12.6 kmh 30.08 in1018.6 mb 0.00 in0.0 mm 0.00 in0.0 mm 0.00 in0.0 mm
09:33 AM 76.1°F24.5°C 70.5°F21.4°C 83% 4.7 mph WNW7.6 kmh WNW 5.8 mph9.3 kmh 30.08 in1018.6 mb 0.00 in0.0 mm 0.00 in0.0 mm 0.00 in0.0 mm
09:34 AM 76.3°F24.6°C 70.4°F21.3°C 82% 5.8 mph W9.3 kmh W 5.8 mph9.3 kmh 30.08 in1018.6 mb 0.00 in0.0 mm 0.00 in0.0 mm 0.00 in0.0 mm
09:35 AM 76.5°F24.7°C 70.2°F21.2°C 81% 5.8 mph WNW9.3 kmh WNW 7.8 mph12.6 kmh 30.08 in1018.6 mb 0.00 in0.0 mm 0.00 in0.0 mm 0.00 in0.0 mm
09:36 AM 76.5°F24.7°C 70.2°F21.2°C 81% 5.3 mph S8.5 kmh S 7.8 mph12.6 kmh 30.08 in1018.6 mb 0.00 in0.0 mm 0.00 in0.0 mm 0.00 in0.0 mm
09:37 AM 76.8°F24.9°C 70.1°F21.2°C 80% 4.7 mph W7.6 kmh W 7.8 mph12.6 kmh 30.08 in1018.6 mb 0.00 in0.0 mm 0.00 in0.0 mm 0.00 in0.0 mm
09:38 AM 76.8°F24.9°C 70.1°F21.2°C 80% 3.2 mph WNW5.1 kmh WNW 7.8 mph12.6 kmh 30.08 in1018.6 mb 0.00 in0.0 mm 0.00 in0.0 mm 0.00 in0.0 mm
09:39 AM 76.8°F24.9°C 70.5°F21.4°C 81% 3.7 mph WSW6.0 kmh WSW 7.8 mph12.6 kmh 30.08 in1018.6 mb 0.00 in0.0 mm 0.00 in0.0 mm 0.00 in0.0 mm
09:40 AM 76.6°F24.8°C 70.3°F21.3°C 81% 5.8 mph W9.3 kmh W 7.8 mph12.6 kmh 30.08 in1018.6 mb 0.00 in0.0 mm 0.00 in0.0 mm 0.00 in0.0 mm
09:41 AM 76.8°F24.9°C 70.1°F21.2°C 80% 4.2 mph WNW6.8 kmh WNW 7.8 mph12.6 kmh 30.08 in1018.6 mb 0.00 in0.0 mm 0.00 in0.0 mm 0.00 in0.0 mm
09:42 AM 77.2°F25.1°C 70.2°F21.2°C 79% 4.2 mph W6.8 kmh W 7.8 mph12.6 kmh 30.08 in1018.6 mb 0.00 in0.0 mm 0.00 in0.0 mm 0.00 in0.0 mm
09:43 AM 77.2°F25.1°C 70.2°F21.2°C 79% 6.8 mph W10.9 kmh W 7.8 mph12.6 kmh 30.08 in1018.6 mb 0.00 in0.0 mm 0.00 in0.0 mm 0.00 in0.0 mm
09:44 AM 77.2°F25.1°C 70.2°F21.2°C 79% 5.8 mph WNW9.3 kmh WNW 7.8 mph12.6 kmh 30.08 in1018.6 mb 0.00 in0.0 mm 0.00 in0.0 mm 0.00 in0.0 mm
09:45 AM 77.2°F25.1°C 70.2°F21.2°C 79% 6.3 mph WNW10.1 kmh WNW 7.8 mph12.6 kmh 30.08 in1018.6 mb 0.00 in0.0 mm 0.00 in0.0 mm 0.00 in0.0 mm
09:46 AM 77.2°F25.1°C 70.2°F21.2°C 79% 5.3 mph W8.5 kmh W 7.8 mph12.6 kmh 30.08 in1018.6 mb 0.00 in0.0 mm 0.00 in0.0 mm 0.00 in0.0 mm
09:47 AM 77.4°F25.2°C 70.4°F21.3°C 79% 5.3 mph N8.5 kmh N 7.8 mph12.6 kmh 30.08 in1018.6 mb 0.00 in0.0 mm 0.00 in0.0 mm 0.00 in0.0 mm
09:48 AM 77.5°F25.3°C 70.5°F21.4°C 79% 5.8 mph NNW9.3 kmh NNW 7.8 mph12.6 kmh 30.08 in1018.6 mb 0.00 in0.0 mm 0.00 in0.0 mm 0.00 in0.0 mm
09:49 AM 77.5°F25.3°C 70.1°F21.2°C 78% 5.8 mph WNW9.3 kmh WNW 7.8 mph12.6 kmh 30.08 in1018.6 mb 0.00 in0.0 mm 0.00 in0.0 mm 0.00 in0.0 mm
09:50 AM 77.5°F25.3°C 70.1°F21.2°C 78% 6.3 mph WNW10.1 kmh WNW 7.8 mph12.6 kmh 30.08 in1018.6 mb 0.00 in0.0 mm 0.00 in0.0 mm 0.00 in0.0 mm
09:51 AM 77.5°F25.3°C 70.1°F21.2°C 78% 6.8 mph W10.9 kmh W 7.8 mph12.6 kmh 30.08 in1018.6 mb 0.00 in0.0 mm 0.00 in0.0 mm 0.00 in0.0 mm
09:52 AM 77.5°F25.3°C 70.1°F21.2°C 78% 8.3 mph W13.4 kmh W 9.4 mph15.1 kmh 30.08 in1018.6 mb 0.00 in0.0 mm 0.00 in0.0 mm 0.00 in0.0 mm
09:53 AM 77.5°F25.3°C 69.7°F20.9°C 77% 5.3 mph WNW8.5 kmh WNW 9.4 mph15.1 kmh 30.08 in1018.6 mb 0.00 in0.0 mm 0.00 in0.0 mm 0.00 in0.0 mm
09:54 AM 77.5°F25.3°C 69.7°F20.9°C 77% 6.8 mph WNW10.9 kmh WNW 9.4 mph15.1 kmh 30.08 in1018.6 mb 0.00 in0.0 mm 0.00 in0.0 mm 0.00 in0.0 mm
09:55 AM 77.9°F25.5°C 70.1°F21.2°C 77% 4.2 mph NW6.8 kmh NW 9.4 mph15.1 kmh 30.07 in1018.3 mb 0.00 in0.0 mm 0.00 in0.0 mm 0.00 in0.0 mm
09:56 AM 78.1°F25.6°C 69.9°F21.1°C 76% 6.8 mph W10.9 kmh W 9.4 mph15.1 kmh 30.07 in1018.3 mb 0.00 in0.0 mm 0.00 in0.0 mm 0.00 in0.0 mm
09:57 AM 78.3°F25.7°C 70.1°F21.2°C 76% 5.8 mph NW9.3 kmh NW 9.4 mph15.1 kmh 30.07 in1018.3 mb 0.00 in0.0 mm 0.00 in0.0 mm 0.00 in0.0 mm
09:58 AM 78.3°F25.7°C 70.1°F21.2°C 76% 5.8 mph WNW9.3 kmh WNW 9.4 mph15.1 kmh 30.07 in1018.3 mb 0.00 in0.0 mm 0.00 in0.0 mm 0.00 in0.0 mm
09:59 AM 78.3°F25.7°C 70.1°F21.2°C 76% 5.3 mph W8.5 kmh W 9.4 mph15.1 kmh 30.07 in1018.3 mb 0.00 in0.0 mm 0.00 in0.0 mm 0.00 in0.0 mm
10:00 AM 78.3°F25.7°C 70.1°F21.2°C 76% 4.7 mph WNW7.6 kmh WNW 9.4 mph15.1 kmh 30.07 in1018.3 mb 0.00 in0.0 mm 0.00 in0.0 mm 0.00 in0.0 mm
10:01 AM 78.4°F25.8°C 70.2°F21.2°C 76% 5.8 mph W9.3 kmh W 9.4 mph15.1 kmh 30.07 in1018.3 mb 0.00 in0.0 mm 0.00 in0.0 mm 0.00 in0.0 mm
10:02 AM 78.4°F25.8°C 69.8°F21.0°C 75% 6.3 mph W10.1 kmh W 8.9 mph14.3 kmh 30.07 in1018.3 mb 0.00 in0.0 mm 0.00 in0.0 mm 0.00 in0.0 mm
10:03 AM 78.8°F26.0°C 70.2°F21.2°C 75% 6.8 mph WNW10.9 kmh WNW 8.9 mph14.3 kmh 30.07 in1018.3 mb 0.00 in0.0 mm 0.00 in0.0 mm 0.00 in0.0 mm
10:04 AM 78.8°F26.0°C 70.2°F21.2°C 75% 6.8 mph W10.9 kmh W 8.9 mph14.3 kmh 30.07 in1018.3 mb 0.00 in0.0 mm 0.00 in0.0 mm 0.00 in0.0 mm
10:05 AM 78.8°F26.0°C 69.8°F21.0°C 74% 7.8 mph WNW12.6 kmh WNW 8.9 mph14.3 kmh 30.07 in1018.3 mb 0.00 in0.0 mm 0.00 in0.0 mm 0.00 in0.0 mm
10:06 AM 79.0°F26.1°C 70.0°F21.1°C 74% 3.7 mph W6.0 kmh W 8.9 mph14.3 kmh 30.07 in1018.3 mb 0.00 in0.0 mm 0.00 in0.0 mm 0.00 in0.0 mm
10:07 AM 79.0°F26.1°C 70.0°F21.1°C 74% 4.7 mph W7.6 kmh W 8.9 mph14.3 kmh 30.07 in1018.3 mb 0.00 in0.0 mm 0.00 in0.0 mm 0.00 in0.0 mm
10:08 AM 79.3°F26.3°C 69.9°F21.1°C 73% 5.8 mph W9.3 kmh W 8.3 mph13.4 kmh 30.07 in1018.3 mb 0.00 in0.0 mm 0.00 in0.0 mm 0.00 in0.0 mm
10:09 AM 79.5°F26.4°C 70.5°F21.4°C 74% 4.7 mph WNW7.6 kmh WNW 7.8 mph12.6 kmh 30.07 in1018.3 mb 0.00 in0.0 mm 0.00 in0.0 mm 0.00 in0.0 mm
10:10 AM 79.5°F26.4°C 70.1°F21.2°C 73% 4.7 mph WNW7.6 kmh WNW 7.8 mph12.6 kmh 30.07 in1018.3 mb 0.00 in0.0 mm 0.00 in0.0 mm 0.00 in0.0 mm
10:11 AM 79.5°F26.4°C 70.1°F21.2°C 73% 6.8 mph WNW10.9 kmh WNW 7.8 mph12.6 kmh 30.07 in1018.3 mb 0.00 in0.0 mm 0.00 in0.0 mm 0.00 in0.0 mm
10:12 AM 79.5°F26.4°C 70.1°F21.2°C 73% 4.7 mph W7.6 kmh W 7.8 mph12.6 kmh 30.07 in1018.3 mb 0.00 in0.0 mm 0.00 in0.0 mm 0.00 in0.0 mm
10:13 AM 79.5°F26.4°C 70.1°F21.2°C 73% 4.7 mph W7.6 kmh W 7.8 mph12.6 kmh 30.07 in1018.3 mb 0.00 in0.0 mm 0.00 in0.0 mm 0.00 in0.0 mm
10:14 AM 79.5°F26.4°C 70.1°F21.2°C 73% 5.3 mph NW8.5 kmh NW 7.8 mph12.6 kmh 30.07 in1018.3 mb 0.00 in0.0 mm 0.00 in0.0 mm 0.00 in0.0 mm
10:15 AM 79.3°F26.3°C 69.9°F21.1°C 73% 5.3 mph WNW8.5 kmh WNW 7.8 mph12.6 kmh 30.07 in1018.3 mb 0.00 in0.0 mm 0.00 in0.0 mm 0.00 in0.0 mm
10:16 AM 79.2°F26.2°C 69.8°F21.0°C 73% 5.3 mph W8.5 kmh W 7.8 mph12.6 kmh 30.07 in1018.3 mb 0.00 in0.0 mm 0.00 in0.0 mm 0.00 in0.0 mm
10:17 AM 79.2°F26.2°C 70.2°F21.2°C 74% 4.7 mph W7.6 kmh W 7.3 mph11.7 kmh 30.07 in1018.3 mb 0.00 in0.0 mm 0.00 in0.0 mm 0.00 in0.0 mm
10:18 AM 79.3°F26.3°C 69.9°F21.1°C 73% 4.7 mph WNW7.6 kmh WNW 7.3 mph11.7 kmh 30.07 in1018.3 mb 0.00 in0.0 mm 0.00 in0.0 mm 0.00 in0.0 mm
10:19 AM 79.2°F26.2°C 69.8°F21.0°C 73% 7.3 mph WNW11.7 kmh WNW 7.3 mph11.7 kmh 30.07 in1018.3 mb 0.00 in0.0 mm 0.00 in0.0 mm 0.00 in0.0 mm
10:20 AM 79.2°F26.2°C 69.8°F21.0°C 73% 5.3 mph W8.5 kmh W 7.3 mph11.7 kmh 30.07 in1018.3 mb 0.00 in0.0 mm 0.00 in0.0 mm 0.00 in0.0 mm
10:21 AM 79.3°F26.3°C 69.9°F21.1°C 73% 5.8 mph WNW9.3 kmh WNW 7.3 mph11.7 kmh 30.07 in1018.3 mb 0.00 in0.0 mm 0.00 in0.0 mm 0.00 in0.0 mm
10:22 AM 79.5°F26.4°C 69.3°F20.7°C 71% 6.8 mph WNW10.9 kmh WNW 7.3 mph11.7 kmh 30.07 in1018.3 mb 0.00 in0.0 mm 0.00 in0.0 mm 0.00 in0.0 mm
10:23 AM 79.5°F26.4°C 68.8°F20.4°C 70% 6.3 mph W10.1 kmh W 7.8 mph12.6 kmh 30.07 in1018.3 mb 0.00 in0.0 mm 0.00 in0.0 mm 0.00 in0.0 mm
10:24 AM 79.5°F26.4°C 68.8°F20.4°C 70% 5.3 mph WSW8.5 kmh WSW 9.4 mph15.1 kmh 30.07 in1018.3 mb 0.00 in0.0 mm 0.00 in0.0 mm 0.00 in0.0 mm
10:25 AM 79.5°F26.4°C 68.4°F20.2°C 69% 5.3 mph WNW8.5 kmh WNW 9.4 mph15.1 kmh 30.07 in1018.3 mb 0.00 in0.0 mm 0.00 in0.0 mm 0.00 in0.0 mm
10:26 AM 79.5°F26.4°C 68.4°F20.2°C 69% 5.8 mph WNW9.3 kmh WNW 9.4 mph15.1 kmh 30.07 in1018.3 mb 0.00 in0.0 mm 0.00 in0.0 mm 0.00 in0.0 mm
10:27 AM 79.5°F26.4°C 68.0°F20.0°C 68% 6.3 mph W10.1 kmh W 9.4 mph15.1 kmh 30.07 in1018.3 mb 0.00 in0.0 mm 0.00 in0.0 mm 0.00 in0.0 mm
10:28 AM 79.5°F26.4°C 67.6°F19.8°C 67% 5.3 mph W8.5 kmh W 9.4 mph15.1 kmh 30.07 in1018.3 mb 0.00 in0.0 mm 0.00 in0.0 mm 0.00 in0.0 mm
10:29 AM 79.7°F26.5°C 67.8°F19.9°C 67% 4.2 mph W6.8 kmh W 9.4 mph15.1 kmh 30.07 in1018.3 mb 0.00 in0.0 mm 0.00 in0.0 mm 0.00 in0.0 mm
10:30 AM 79.7°F26.5°C 67.8°F19.9°C 67% 5.3 mph SW8.5 kmh SW 10.4 mph16.7 kmh 30.07 in1018.3 mb 0.00 in0.0 mm 0.00 in0.0 mm 0.00 in0.0 mm
10:31 AM 79.7°F26.5°C 67.8°F19.9°C 67% 7.8 mph W12.6 kmh W 10.4 mph16.7 kmh 30.07 in1018.3 mb 0.00 in0.0 mm 0.00 in0.0 mm 0.00 in0.0 mm
10:32 AM 79.9°F26.6°C 67.9°F19.9°C 67% 6.8 mph WNW10.9 kmh WNW 10.4 mph16.7 kmh 30.07 in1018.3 mb 0.00 in0.0 mm 0.00 in0.0 mm 0.00 in0.0 mm
10:33 AM 79.9°F26.6°C 67.9°F19.9°C 67% 6.3 mph NW10.1 kmh NW 10.4 mph16.7 kmh 30.07 in1018.3 mb 0.00 in0.0 mm 0.00 in0.0 mm 0.00 in0.0 mm
10:34 AM 80.1°F26.7°C 68.1°F20.1°C 67% 6.3 mph W10.1 kmh W 10.4 mph16.7 kmh 30.07 in1018.3 mb 0.00 in0.0 mm 0.00 in0.0 mm 0.00 in0.0 mm
10:35 AM 80.1°F26.7°C 68.1°F20.1°C 67% 5.8 mph WNW9.3 kmh WNW 10.4 mph16.7 kmh 30.07 in1018.3 mb 0.00 in0.0 mm 0.00 in0.0 mm 0.00 in0.0 mm
10:36 AM 80.2°F26.8°C 68.2°F20.1°C 67% 4.7 mph WNW7.6 kmh WNW 10.4 mph16.7 kmh 30.07 in1018.3 mb 0.00 in0.0 mm 0.00 in0.0 mm 0.00 in0.0 mm
10:37 AM 80.2°F26.8°C 68.2°F20.1°C 67% 7.8 mph W12.6 kmh W 10.4 mph16.7 kmh 30.07 in1018.3 mb 0.00 in0.0 mm 0.00 in0.0 mm 0.00 in0.0 mm
10:38 AM 80.2°F26.8°C 68.2°F20.1°C 67% 7.3 mph WNW11.7 kmh WNW 10.4 mph16.7 kmh 30.07 in1018.3 mb 0.00 in0.0 mm 0.00 in0.0 mm 0.00 in0.0 mm
10:39 AM 80.2°F26.8°C 68.2°F20.1°C 67% 9.9 mph WNW15.9 kmh WNW 10.4 mph16.7 kmh 30.07 in1018.3 mb 0.00 in0.0 mm 0.00 in0.0 mm 0.00 in0.0 mm
10:40 AM 80.2°F26.8°C 67.8°F19.9°C 66% 7.3 mph WNW11.7 kmh WNW 9.9 mph15.9 kmh 30.07 in1018.3 mb 0.00 in0.0 mm 0.00 in0.0 mm 0.00 in0.0 mm
10:41 AM 80.2°F26.8°C 67.8°F19.9°C 66% 8.9 mph NW14.3 kmh NW 9.9 mph15.9 kmh 30.07 in1018.3 mb 0.00 in0.0 mm 0.00 in0.0 mm 0.00 in0.0 mm
10:42 AM 80.2°F26.8°C 67.8°F19.9°C 66% 6.8 mph W10.9 kmh W 9.9 mph15.9 kmh 30.07 in1018.3 mb 0.00 in0.0 mm 0.00 in0.0 mm 0.00 in0.0 mm
10:43 AM 80.4°F26.9°C 68.0°F20.0°C 66% 6.3 mph WNW10.1 kmh WNW 9.9 mph15.9 kmh 30.07 in1018.3 mb 0.00 in0.0 mm 0.00 in0.0 mm 0.00 in0.0 mm
10:44 AM 80.6°F27.0°C 68.2°F20.1°C 66% 9.9 mph NNW15.9 kmh NNW 9.9 mph15.9 kmh 30.07 in1018.3 mb 0.00 in0.0 mm 0.00 in0.0 mm 0.00 in0.0 mm
10:45 AM 80.4°F26.9°C 67.5°F19.7°C 65% 8.9 mph W14.3 kmh W 9.9 mph15.9 kmh 30.07 in1018.3 mb 0.00 in0.0 mm 0.00 in0.0 mm 0.00 in0.0 mm
10:46 AM 80.2°F26.8°C 67.8°F19.9°C 66% 9.4 mph W15.1 kmh W 9.9 mph15.9 kmh 30.07 in1018.3 mb 0.00 in0.0 mm 0.00 in0.0 mm 0.00 in0.0 mm
10:47 AM 80.1°F26.7°C 67.7°F19.8°C 66% 7.8 mph W12.6 kmh W 9.9 mph15.9 kmh 30.07 in1018.3 mb 0.00 in0.0 mm 0.00 in0.0 mm 0.00 in0.0 mm
10:48 AM 80.1°F26.7°C 67.3°F19.6°C 65% 5.3 mph W8.5 kmh W 9.9 mph15.9 kmh 30.07 in1018.3 mb 0.00 in0.0 mm 0.00 in0.0 mm 0.00 in0.0 mm
10:49 AM 80.1°F26.7°C 67.7°F19.8°C 66% 6.8 mph NW10.9 kmh NW 9.9 mph15.9 kmh 30.07 in1018.3 mb 0.00 in0.0 mm 0.00 in0.0 mm 0.00 in0.0 mm
10:50 AM 80.1°F26.7°C 67.7°F19.8°C 66% 5.8 mph NW9.3 kmh NW 9.9 mph15.9 kmh 30.07 in1018.3 mb 0.00 in0.0 mm 0.00 in0.0 mm 0.00 in0.0 mm
10:51 AM 80.2°F26.8°C 67.8°F19.9°C 66% 5.3 mph W8.5 kmh W 9.9 mph15.9 kmh 30.07 in1018.3 mb 0.00 in0.0 mm 0.00 in0.0 mm 0.00 in0.0 mm
10:52 AM 80.2°F26.8°C 67.3°F19.6°C 65% 7.8 mph W12.6 kmh W 10.4 mph16.7 kmh 30.07 in1018.3 mb 0.00 in0.0 mm 0.00 in0.0 mm 0.00 in0.0 mm
10:53 AM 80.4°F26.9°C 67.5°F19.7°C 65% 3.7 mph WSW6.0 kmh WSW 10.4 mph16.7 kmh 30.07 in1018.3 mb 0.00 in0.0 mm 0.00 in0.0 mm 0.00 in0.0 mm
10:54 AM 80.6°F27.0°C 68.2°F20.1°C 66% 5.8 mph W9.3 kmh W 10.4 mph16.7 kmh 30.07 in1018.3 mb 0.00 in0.0 mm 0.00 in0.0 mm 0.00 in0.0 mm
10:55 AM 80.6°F27.0°C 68.2°F20.1°C 66% 5.3 mph W8.5 kmh W 10.4 mph16.7 kmh 30.07 in1018.3 mb 0.00 in0.0 mm 0.00 in0.0 mm 0.00 in0.0 mm
10:56 AM 80.8°F27.1°C 68.4°F20.2°C 66% 5.8 mph WNW9.3 kmh WNW 10.4 mph16.7 kmh 30.07 in1018.3 mb 0.00 in0.0 mm 0.00 in0.0 mm 0.00 in0.0 mm
10:57 AM 81.0°F27.2°C 68.5°F20.3°C 66% 5.3 mph N8.5 kmh N 10.4 mph16.7 kmh 30.07 in1018.3 mb 0.00 in0.0 mm 0.00 in0.0 mm 0.00 in0.0 mm
10:58 AM 81.0°F27.2°C 68.5°F20.3°C 66% 8.3 mph WNW13.4 kmh WNW 10.4 mph16.7 kmh 30.07 in1018.3 mb 0.00 in0.0 mm 0.00 in0.0 mm 0.00 in0.0 mm
10:59 AM 80.8°F27.1°C 68.4°F20.2°C 66% 8.3 mph W13.4 kmh W 10.4 mph16.7 kmh 30.07 in1018.3 mb 0.00 in0.0 mm 0.00 in0.0 mm 0.00 in0.0 mm
11:00 AM 80.4°F26.9°C 68.0°F20.0°C 66% 4.2 mph WNW6.8 kmh WNW 10.4 mph16.7 kmh 30.07 in1018.3 mb 0.00 in0.0 mm 0.00 in0.0 mm 0.00 in0.0 mm
11:01 AM 80.4°F26.9°C 68.0°F20.0°C 66% 3.2 mph WSW5.1 kmh WSW 10.4 mph16.7 kmh 30.07 in1018.3 mb 0.00 in0.0 mm 0.00 in0.0 mm 0.00 in0.0 mm
11:02 AM 81.0°F27.2°C 69.0°F20.6°C 67% 5.3 mph W8.5 kmh W 8.3 mph13.4 kmh 30.07 in1018.3 mb 0.00 in0.0 mm 0.00 in0.0 mm 0.00 in0.0 mm
11:03 AM 81.0°F27.2°C 68.5°F20.3°C 66% 6.8 mph WNW10.9 kmh WNW 10.4 mph16.7 kmh 30.07 in1018.3 mb 0.00 in0.0 mm 0.00 in0.0 mm 0.00 in0.0 mm
11:04 AM 80.8°F27.1°C 67.9°F19.9°C 65% 13.5 mph NW21.7 kmh NW 13.5 mph21.7 kmh 30.07 in1018.3 mb 0.00 in0.0 mm 0.00 in0.0 mm 0.00 in0.0 mm
11:05 AM 80.6°F27.0°C 67.7°F19.8°C 65% 7.8 mph S12.6 kmh S 13.5 mph21.7 kmh 30.07 in1018.3 mb 0.00 in0.0 mm 0.00 in0.0 mm 0.00 in0.0 mm
11:06 AM 80.6°F27.0°C 67.7°F19.8°C 65% 8.9 mph WNW14.3 kmh WNW 13.5 mph21.7 kmh 30.07 in1018.3 mb 0.00 in0.0 mm 0.00 in0.0 mm 0.00 in0.0 mm
11:07 AM 80.8°F27.1°C 67.9°F19.9°C 65% 6.8 mph W10.9 kmh W 13.5 mph21.7 kmh 30.07 in1018.3 mb 0.00 in0.0 mm 0.00 in0.0 mm 0.00 in0.0 mm
11:08 AM 81.1°F27.3°C 67.7°F19.8°C 64% 5.8 mph NNW9.3 kmh NNW 13.5 mph21.7 kmh 30.07 in1018.3 mb 0.00 in0.0 mm 0.00 in0.0 mm 0.00 in0.0 mm
11:09 AM 81.1°F27.3°C 67.7°F19.8°C 64% 5.3 mph W8.5 kmh W 13.5 mph21.7 kmh 30.07 in1018.3 mb 0.00 in0.0 mm 0.00 in0.0 mm 0.00 in0.0 mm
11:10 AM 81.0°F27.2°C 67.7°F19.8°C 64% 4.2 mph W6.8 kmh W 13.5 mph21.7 kmh 30.07 in1018.3 mb 0.00 in0.0 mm 0.00 in0.0 mm 0.00 in0.0 mm
11:11 AM 81.0°F27.2°C 67.7°F19.8°C 64% 6.3 mph WNW10.1 kmh WNW 13.5 mph21.7 kmh 30.07 in1018.3 mb 0.00 in0.0 mm 0.00 in0.0 mm 0.00 in0.0 mm
11:12 AM 81.3°F27.4°C 68.4°F20.2°C 65% 7.8 mph WNW12.6 kmh WNW 13.5 mph21.7 kmh 30.07 in1018.3 mb 0.00 in0.0 mm 0.00 in0.0 mm 0.00 in0.0 mm
11:13 AM 81.5°F27.5°C 68.6°F20.3°C 65% 7.8 mph NW12.6 kmh NW 13.5 mph21.7 kmh 30.07 in1018.3 mb 0.00 in0.0 mm 0.00 in0.0 mm 0.00 in0.0 mm
11:14 AM 81.5°F27.5°C 68.6°F20.3°C 65% 9.4 mph WNW15.1 kmh WNW 9.4 mph15.1 kmh 30.07 in1018.3 mb 0.00 in0.0 mm 0.00 in0.0 mm 0.00 in0.0 mm
11:15 AM 81.5°F27.5°C 68.1°F20.1°C 64% 4.2 mph WNW6.8 kmh WNW 9.4 mph15.1 kmh 30.07 in1018.3 mb 0.00 in0.0 mm 0.00 in0.0 mm 0.00 in0.0 mm
11:16 AM 81.5°F27.5°C 68.1°F20.1°C 64% 4.7 mph WNW7.6 kmh WNW 9.4 mph15.1 kmh 30.07 in1018.3 mb 0.00 in0.0 mm 0.00 in0.0 mm 0.00 in0.0 mm
11:17 AM 81.9°F27.7°C 68.5°F20.3°C 64% 4.7 mph WNW7.6 kmh WNW 9.4 mph15.1 kmh 30.07 in1018.3 mb 0.00 in0.0 mm 0.00 in0.0 mm 0.00 in0.0 mm
11:18 AM 82.2°F27.9°C 68.8°F20.4°C 64% 5.8 mph NW9.3 kmh NW 9.4 mph15.1 kmh 30.07 in1018.3 mb 0.00 in0.0 mm 0.00 in0.0 mm 0.00 in0.0 mm
11:19 AM 82.2°F27.9°C 68.3°F20.2°C 63% 10.9 mph WNW17.5 kmh WNW 10.9 mph17.5 kmh 30.07 in1018.3 mb 0.00 in0.0 mm 0.00 in0.0 mm 0.00 in0.0 mm
11:20 AM 82.2°F27.9°C 68.3°F20.2°C 63% 8.3 mph NW13.4 kmh NW 10.9 mph17.5 kmh 30.07 in1018.3 mb 0.00 in0.0 mm 0.00 in0.0 mm 0.00 in0.0 mm
11:21 AM 82.2°F27.9°C 68.3°F20.2°C 63% 10.4 mph WNW16.7 kmh WNW 10.9 mph17.5 kmh 30.07 in1018.3 mb 0.00 in0.0 mm 0.00 in0.0 mm 0.00 in0.0 mm
11:22 AM 81.9°F27.7°C 68.0°F20.0°C 63% 5.8 mph NW9.3 kmh NW 10.9 mph17.5 kmh 30.07 in1018.3 mb 0.00 in0.0 mm 0.00 in0.0 mm 0.00 in0.0 mm
11:23 AM 81.9°F27.7°C 68.0°F20.0°C 63% 6.8 mph WNW10.9 kmh WNW 10.9 mph17.5 kmh 30.07 in1018.3 mb 0.00 in0.0 mm 0.00 in0.0 mm 0.00 in0.0 mm
11:24 AM 81.9°F27.7°C 68.0°F20.0°C 63% 4.7 mph WNW7.6 kmh WNW 10.9 mph17.5 kmh 30.07 in1018.3 mb 0.00 in0.0 mm 0.00 in0.0 mm 0.00 in0.0 mm
11:25 AM 81.7°F27.6°C 68.3°F20.2°C 64% 3.7 mph WNW6.0 kmh WNW 10.9 mph17.5 kmh 30.07 in1018.3 mb 0.00 in0.0 mm 0.00 in0.0 mm 0.00 in0.0 mm
11:26 AM 81.7°F27.6°C 68.3°F20.2°C 64% 5.3 mph WNW8.5 kmh WNW 10.9 mph17.5 kmh 30.07 in1018.3 mb 0.00 in0.0 mm 0.00 in0.0 mm 0.00 in0.0 mm
11:27 AM 82.0°F27.8°C 68.6°F20.3°C 64% 5.8 mph WNW9.3 kmh WNW 10.9 mph17.5 kmh 30.07 in1018.3 mb 0.00 in0.0 mm 0.00 in0.0 mm 0.00 in0.0 mm
11:28 AM 82.2°F27.9°C 68.8°F20.4°C 64% 7.8 mph NW12.6 kmh NW 10.9 mph17.5 kmh 30.07 in1018.3 mb 0.00 in0.0 mm 0.00 in0.0 mm 0.00 in0.0 mm
11:29 AM 82.2°F27.9°C 68.3°F20.2°C 63% 6.8 mph WNW10.9 kmh WNW 10.9 mph17.5 kmh 30.07 in1018.3 mb 0.00 in0.0 mm 0.00 in0.0 mm 0.00 in0.0 mm
11:30 AM 82.0°F27.8°C 67.2°F19.6°C 61% 11.4 mph WNW18.3 kmh WNW 11.4 mph18.3 kmh 30.07 in1018.3 mb 0.00 in0.0 mm 0.00 in0.0 mm 0.00 in0.0 mm
11:31 AM 81.9°F27.7°C 67.1°F19.5°C 61% 6.3 mph WNW10.1 kmh WNW 11.4 mph18.3 kmh 30.07 in1018.3 mb 0.00 in0.0 mm 0.00 in0.0 mm 0.00 in0.0 mm
11:32 AM 81.9°F27.7°C 67.6°F19.8°C 62% 8.3 mph NW13.4 kmh NW 11.4 mph18.3 kmh 30.07 in1018.3 mb 0.00 in0.0 mm 0.00 in0.0 mm 0.00 in0.0 mm
11:33 AM 81.9°F27.7°C 67.6°F19.8°C 62% 6.8 mph NNE10.9 kmh NNE 11.4 mph18.3 kmh 30.07 in1018.3 mb 0.00 in0.0 mm 0.00 in0.0 mm 0.00 in0.0 mm
11:34 AM 82.0°F27.8°C 67.7°F19.8°C 62% 6.3 mph WNW10.1 kmh WNW 11.4 mph18.3 kmh 30.07 in1018.3 mb 0.00 in0.0 mm 0.00 in0.0 mm 0.00 in0.0 mm
11:35 AM 82.2°F27.9°C 68.3°F20.2°C 63% 6.8 mph WNW10.9 kmh WNW 11.4 mph18.3 kmh 30.07 in1018.3 mb 0.00 in0.0 mm 0.00 in0.0 mm 0.00 in0.0 mm
11:36 AM 82.2°F27.9°C 67.9°F19.9°C 62% 6.8 mph NNW10.9 kmh NNW 11.4 mph18.3 kmh 30.07 in1018.3 mb 0.00 in0.0 mm 0.00 in0.0 mm 0.00 in0.0 mm
11:37 AM 82.4°F28.0°C 68.5°F20.3°C 63% 7.8 mph NW12.6 kmh NW 11.4 mph18.3 kmh 30.07 in1018.3 mb 0.00 in0.0 mm 0.00 in0.0 mm 0.00 in0.0 mm
11:38 AM 82.4°F28.0°C 68.5°F20.3°C 63% 5.8 mph W9.3 kmh W 11.4 mph18.3 kmh 30.07 in1018.3 mb 0.00 in0.0 mm 0.00 in0.0 mm 0.00 in0.0 mm
11:39 AM 82.6°F28.1°C 69.2°F20.7°C 64% 4.2 mph W6.8 kmh W 11.4 mph18.3 kmh 30.07 in1018.3 mb 0.00 in0.0 mm 0.00 in0.0 mm 0.00 in0.0 mm
11:40 AM 82.4°F28.0°C 68.5°F20.3°C 63% 6.3 mph NW10.1 kmh NW 11.4 mph18.3 kmh 30.07 in1018.3 mb 0.00 in0.0 mm 0.00 in0.0 mm 0.00 in0.0 mm
11:41 AM 82.4°F28.0°C 68.5°F20.3°C 63% 6.8 mph WNW10.9 kmh WNW 9.9 mph15.9 kmh 30.07 in1018.3 mb 0.00 in0.0 mm 0.00 in0.0 mm 0.00 in0.0 mm
11:42 AM 82.6°F28.1°C 68.7°F20.4°C 63% 7.3 mph W11.7 kmh W 9.4 mph15.1 kmh 30.07 in1018.3 mb 0.00 in0.0 mm 0.00 in0.0 mm 0.00 in0.0 mm
11:43 AM 82.9°F28.3°C 68.5°F20.3°C 62% 6.3 mph N10.1 kmh N 9.4 mph15.1 kmh 30.07 in1018.3 mb 0.00 in0.0 mm 0.00 in0.0 mm 0.00 in0.0 mm
11:44 AM 82.9°F28.3°C 68.5°F20.3°C 62% 8.9 mph W14.3 kmh W 13.0 mph20.9 kmh 30.07 in1018.3 mb 0.00 in0.0 mm 0.00 in0.0 mm 0.00 in0.0 mm
11:45 AM 82.6°F28.1°C 67.8°F19.9°C 61% 8.9 mph W14.3 kmh W 13.0 mph20.9 kmh 30.07 in1018.3 mb 0.00 in0.0 mm 0.00 in0.0 mm 0.00 in0.0 mm
11:46 AM 82.6°F28.1°C 68.2°F20.1°C 62% 8.3 mph WNW13.4 kmh WNW 13.0 mph20.9 kmh 30.07 in1018.3 mb 0.00 in0.0 mm 0.00 in0.0 mm 0.00 in0.0 mm
11:47 AM 82.6°F28.1°C 67.8°F19.9°C 61% 9.9 mph NW15.9 kmh NW 13.0 mph20.9 kmh 30.07 in1018.3 mb 0.00 in0.0 mm 0.00 in0.0 mm 0.00 in0.0 mm
11:48 AM 82.6°F28.1°C 67.8°F19.9°C 61% 7.8 mph W12.6 kmh W 13.0 mph20.9 kmh 30.07 in1018.3 mb 0.00 in0.0 mm 0.00 in0.0 mm 0.00 in0.0 mm
11:49 AM 82.8°F28.2°C 68.4°F20.2°C 62% 6.8 mph WNW10.9 kmh WNW 13.0 mph20.9 kmh 30.07 in1018.3 mb 0.00 in0.0 mm 0.00 in0.0 mm 0.00 in0.0 mm
11:50 AM 82.8°F28.2°C 67.9°F19.9°C 61% 7.3 mph NNW11.7 kmh NNW 13.0 mph20.9 kmh 30.07 in1018.3 mb 0.00 in0.0 mm 0.00 in0.0 mm 0.00 in0.0 mm
11:51 AM 82.8°F28.2°C 67.9°F19.9°C 61% 7.8 mph NW12.6 kmh NW 13.0 mph20.9 kmh 30.07 in1018.3 mb 0.00 in0.0 mm 0.00 in0.0 mm 0.00 in0.0 mm
11:52 AM 82.8°F28.2°C 67.9°F19.9°C 61% 6.3 mph W10.1 kmh W 13.0 mph20.9 kmh 30.07 in1018.3 mb 0.00 in0.0 mm 0.00 in0.0 mm 0.00 in0.0 mm
11:53 AM 82.9°F28.3°C 68.0°F20.0°C 61% 5.3 mph WNW8.5 kmh WNW 13.0 mph20.9 kmh 30.07 in1018.3 mb 0.00 in0.0 mm 0.00 in0.0 mm 0.00 in0.0 mm
11:54 AM 82.8°F28.2°C 67.9°F19.9°C 61% 7.3 mph WNW11.7 kmh WNW 10.9 mph17.5 kmh 30.07 in1018.3 mb 0.00 in0.0 mm 0.00 in0.0 mm 0.00 in0.0 mm
11:55 AM 82.8°F28.2°C 67.9°F19.9°C 61% 7.3 mph W11.7 kmh W 10.4 mph16.7 kmh 30.06 in1017.9 mb 0.00 in0.0 mm 0.00 in0.0 mm 0.00 in0.0 mm
11:56 AM 82.9°F28.3°C 67.6°F19.8°C 60% 10.4 mph N16.7 kmh N 10.4 mph16.7 kmh 30.06 in1017.9 mb 0.00 in0.0 mm 0.00 in0.0 mm 0.00 in0.0 mm
11:57 AM 82.9°F28.3°C 67.1°F19.5°C 59% 10.4 mph NW16.7 kmh NW 11.4 mph18.3 kmh 30.06 in1017.9 mb 0.00 in0.0 mm 0.00 in0.0 mm 0.00 in0.0 mm
11:58 AM 82.9°F28.3°C 67.6°F19.8°C 60% 7.3 mph NW11.7 kmh NW 11.4 mph18.3 kmh 30.06 in1017.9 mb 0.00 in0.0 mm 0.00 in0.0 mm 0.00 in0.0 mm
11:59 AM 82.8°F28.2°C 67.5°F19.7°C 60% 7.3 mph WNW11.7 kmh WNW 11.4 mph18.3 kmh 30.06 in1017.9 mb 0.00 in0.0 mm 0.00 in0.0 mm 0.00 in0.0 mm
12:00 PM 82.6°F28.1°C 67.8°F19.9°C 61% 5.8 mph WNW9.3 kmh WNW 11.4 mph18.3 kmh 30.06 in1017.9 mb 0.00 in0.0 mm 0.00 in0.0 mm 0.00 in0.0 mm
12:01 PM 82.8°F28.2°C 67.9°F19.9°C 61% 4.2 mph WNW6.8 kmh WNW 11.4 mph18.3 kmh 30.06 in1017.9 mb 0.00 in0.0 mm 0.00 in0.0 mm 0.00 in0.0 mm
12:02 PM 82.9°F28.3°C 68.0°F20.0°C 61% 8.3 mph W13.4 kmh W 11.4 mph18.3 kmh 30.06 in1017.9 mb 0.00 in0.0 mm 0.00 in0.0 mm 0.00 in0.0 mm
12:03 PM 82.9°F28.3°C 67.6°F19.8°C 60% 7.8 mph WNW12.6 kmh WNW 11.4 mph18.3 kmh 30.06 in1017.9 mb 0.00 in0.0 mm 0.00 in0.0 mm 0.00 in0.0 mm
12:04 PM 82.8°F28.2°C 67.9°F19.9°C 61% 5.3 mph NW8.5 kmh NW 11.4 mph18.3 kmh 30.06 in1017.9 mb 0.00 in0.0 mm 0.00 in0.0 mm 0.00 in0.0 mm
12:05 PM 82.8°F28.2°C 67.9°F19.9°C 61% 4.7 mph NW7.6 kmh NW 11.4 mph18.3 kmh 30.06 in1017.9 mb 0.00 in0.0 mm 0.00 in0.0 mm 0.00 in0.0 mm
12:06 PM 82.9°F28.3°C 67.6°F19.8°C 60% 6.3 mph WNW10.1 kmh WNW 11.4 mph18.3 kmh 30.06 in1017.9 mb 0.00 in0.0 mm 0.00 in0.0 mm 0.00 in0.0 mm
12:07 PM 82.9°F28.3°C 68.0°F20.0°C 61% 6.8 mph WNW10.9 kmh WNW 10.9 mph17.5 kmh 30.06 in1017.9 mb 0.00 in0.0 mm 0.00 in0.0 mm 0.00 in0.0 mm
12:08 PM 83.1°F28.4°C 68.2°F20.1°C 61% 4.7 mph W7.6 kmh W 9.9 mph15.9 kmh 30.06 in1017.9 mb 0.00 in0.0 mm 0.00 in0.0 mm 0.00 in0.0 mm
12:09 PM 83.1°F28.4°C 67.8°F19.9°C 60% 6.8 mph S10.9 kmh S 8.3 mph13.4 kmh 30.06 in1017.9 mb 0.00 in0.0 mm 0.00 in0.0 mm 0.00 in0.0 mm
12:10 PM 82.9°F28.3°C 67.6°F19.8°C 60% 8.3 mph WNW13.4 kmh WNW 8.3 mph13.4 kmh 30.06 in1017.9 mb 0.00 in0.0 mm 0.00 in0.0 mm 0.00 in0.0 mm
12:11 PM 83.1°F28.4°C 68.2°F20.1°C 61% 6.8 mph NW10.9 kmh NW 8.3 mph13.4 kmh 30.06 in1017.9 mb 0.00 in0.0 mm 0.00 in0.0 mm 0.00 in0.0 mm
12:12 PM 83.1°F28.4°C 68.2°F20.1°C 61% 3.7 mph WNW6.0 kmh WNW 8.3 mph13.4 kmh 30.06 in1017.9 mb 0.00 in0.0 mm 0.00 in0.0 mm 0.00 in0.0 mm
12:13 PM 83.3°F28.5°C 68.4°F20.2°C 61% 5.3 mph WNW8.5 kmh WNW 8.9 mph14.3 kmh 30.06 in1017.9 mb 0.00 in0.0 mm 0.00 in0.0 mm 0.00 in0.0 mm
12:14 PM 83.3°F28.5°C 67.9°F19.9°C 60% 5.8 mph NNW9.3 kmh NNW 8.9 mph14.3 kmh 30.06 in1017.9 mb 0.00 in0.0 mm 0.00 in0.0 mm 0.00 in0.0 mm
12:15 PM 83.3°F28.5°C 68.4°F20.2°C 61% 5.8 mph W9.3 kmh W 8.9 mph14.3 kmh 30.06 in1017.9 mb 0.00 in0.0 mm 0.00 in0.0 mm 0.00 in0.0 mm
12:16 PM 83.3°F28.5°C 68.4°F20.2°C 61% 5.3 mph W8.5 kmh W 8.9 mph14.3 kmh 30.06 in1017.9 mb 0.00 in0.0 mm 0.00 in0.0 mm 0.00 in0.0 mm
12:17 PM 83.5°F28.6°C 68.1°F20.1°C 60% 6.3 mph WNW10.1 kmh WNW 9.9 mph15.9 kmh 30.06 in1017.9 mb 0.00 in0.0 mm 0.00 in0.0 mm 0.00 in0.0 mm
12:18 PM 83.5°F28.6°C 68.1°F20.1°C 60% 6.3 mph W10.1 kmh W 9.9 mph15.9 kmh 30.06 in1017.9 mb 0.00 in0.0 mm 0.00 in0.0 mm 0.00 in0.0 mm
12:19 PM 83.3°F28.5°C 67.9°F19.9°C 60% 7.3 mph WNW11.7 kmh WNW 9.9 mph15.9 kmh 30.05 in1017.6 mb 0.00 in0.0 mm 0.00 in0.0 mm 0.00 in0.0 mm
12:20 PM 83.3°F28.5°C 67.9°F19.9°C 60% 7.3 mph W11.7 kmh W 9.9 mph15.9 kmh 30.05 in1017.6 mb 0.00 in0.0 mm 0.00 in0.0 mm 0.00 in0.0 mm
12:21 PM 82.9°F28.3°C 67.6°F19.8°C 60% 6.3 mph WNW10.1 kmh WNW 9.9 mph15.9 kmh 30.05 in1017.6 mb 0.00 in0.0 mm 0.00 in0.0 mm 0.00 in0.0 mm
12:22 PM 82.9°F28.3°C 67.6°F19.8°C 60% 7.3 mph W11.7 kmh W 9.9 mph15.9 kmh 30.05 in1017.6 mb 0.00 in0.0 mm 0.00 in0.0 mm 0.00 in0.0 mm
12:23 PM 83.5°F28.6°C 67.6°F19.8°C 59% 5.3 mph WNW8.5 kmh WNW 9.9 mph15.9 kmh 30.05 in1017.6 mb 0.00 in0.0 mm 0.00 in0.0 mm 0.00 in0.0 mm
12:24 PM 83.5°F28.6°C 68.6°F20.3°C 61% 5.3 mph NNW8.5 kmh NNW 9.9 mph15.9 kmh 30.05 in1017.6 mb 0.00 in0.0 mm 0.00 in0.0 mm 0.00 in0.0 mm
12:25 PM 83.8°F28.8°C 68.4°F20.2°C 60% 5.8 mph NW9.3 kmh NW 9.9 mph15.9 kmh 30.05 in1017.6 mb 0.00 in0.0 mm 0.00 in0.0 mm 0.00 in0.0 mm
12:26 PM 84.2°F29.0°C 68.3°F20.2°C 59% 7.3 mph WNW11.7 kmh WNW 9.9 mph15.9 kmh 30.05 in1017.6 mb 0.00 in0.0 mm 0.00 in0.0 mm 0.00 in0.0 mm
12:27 PM 84.4°F29.1°C 68.5°F20.3°C 59% 6.8 mph WNW10.9 kmh WNW 7.3 mph11.7 kmh 30.05 in1017.6 mb 0.00 in0.0 mm 0.00 in0.0 mm 0.00 in0.0 mm
12:28 PM 84.4°F29.1°C 68.0°F20.0°C 58% 7.8 mph SSW12.6 kmh SSW 9.9 mph15.9 kmh 30.05 in1017.6 mb 0.00 in0.0 mm 0.00 in0.0 mm 0.00 in0.0 mm
12:29 PM 84.2°F29.0°C 67.3°F19.6°C 57% 9.9 mph W15.9 kmh W 9.9 mph15.9 kmh 30.05 in1017.6 mb 0.00 in0.0 mm 0.00 in0.0 mm 0.00 in0.0 mm
12:30 PM 84.0°F28.9°C 67.1°F19.5°C 57% 6.3 mph N10.1 kmh N 10.9 mph17.5 kmh 30.05 in1017.6 mb 0.00 in0.0 mm 0.00 in0.0 mm 0.00 in0.0 mm
12:31 PM 83.5°F28.6°C 66.6°F19.2°C 57% 5.3 mph WNW8.5 kmh WNW 10.9 mph17.5 kmh 30.05 in1017.6 mb 0.00 in0.0 mm 0.00 in0.0 mm 0.00 in0.0 mm
12:32 PM 83.1°F28.4°C 66.8°F19.3°C 58% 4.2 mph WNW6.8 kmh WNW 10.9 mph17.5 kmh 30.05 in1017.6 mb 0.00 in0.0 mm 0.00 in0.0 mm 0.00 in0.0 mm
12:33 PM 83.1°F28.4°C 67.3°F19.6°C 59% 4.7 mph W7.6 kmh W 10.9 mph17.5 kmh 30.05 in1017.6 mb 0.00 in0.0 mm 0.00 in0.0 mm 0.00 in0.0 mm
12:34 PM 83.1°F28.4°C 66.8°F19.3°C 58% 7.3 mph WNW11.7 kmh WNW 10.9 mph17.5 kmh 30.05 in1017.6 mb 0.00 in0.0 mm 0.00 in0.0 mm 0.00 in0.0 mm
12:35 PM 83.3°F28.5°C 67.0°F19.4°C 58% 7.8 mph WNW12.6 kmh WNW 10.9 mph17.5 kmh 30.05 in1017.6 mb 0.00 in0.0 mm 0.00 in0.0 mm 0.00 in0.0 mm
12:36 PM 83.7°F28.7°C 67.3°F19.6°C 58% 5.8 mph WNW9.3 kmh WNW 10.9 mph17.5 kmh 30.05 in1017.6 mb 0.00 in0.0 mm 0.00 in0.0 mm 0.00 in0.0 mm
12:37 PM 83.7°F28.7°C 67.3°F19.6°C 58% 6.3 mph NW10.1 kmh NW 10.9 mph17.5 kmh 30.05 in1017.6 mb 0.00 in0.0 mm 0.00 in0.0 mm 0.00 in0.0 mm
12:38 PM 83.7°F28.7°C 67.8°F19.9°C 59% 5.3 mph W8.5 kmh W 10.9 mph17.5 kmh 30.05 in1017.6 mb 0.00 in0.0 mm 0.00 in0.0 mm 0.00 in0.0 mm
12:39 PM 83.7°F28.7°C 67.8°F19.9°C 59% 5.3 mph NNW8.5 kmh NNW 10.9 mph17.5 kmh 30.05 in1017.6 mb 0.00 in0.0 mm 0.00 in0.0 mm 0.00 in0.0 mm
12:40 PM 83.8°F28.8°C 67.4°F19.7°C 58% 3.2 mph W5.1 kmh W 8.3 mph13.4 kmh 30.05 in1017.6 mb 0.00 in0.0 mm 0.00 in0.0 mm 0.00 in0.0 mm
12:41 PM 84.0°F28.9°C 67.6°F19.8°C 58% 6.8 mph WNW10.9 kmh WNW 8.3 mph13.4 kmh 30.05 in1017.6 mb 0.00 in0.0 mm 0.00 in0.0 mm 0.00 in0.0 mm
12:42 PM 84.4°F29.1°C 68.0°F20.0°C 58% 7.3 mph W11.7 kmh W 8.3 mph13.4 kmh 30.05 in1017.6 mb 0.00 in0.0 mm 0.00 in0.0 mm 0.00 in0.0 mm
12:43 PM 84.6°F29.2°C 68.2°F20.1°C 58% 8.9 mph NNW14.3 kmh NNW 8.9 mph14.3 kmh 30.04 in1017.3 mb 0.00 in0.0 mm 0.00 in0.0 mm 0.00 in0.0 mm
12:44 PM 84.6°F29.2°C 67.7°F19.8°C 57% 7.3 mph W11.7 kmh W 8.9 mph14.3 kmh 30.04 in1017.3 mb 0.00 in0.0 mm 0.00 in0.0 mm 0.00 in0.0 mm
12:45 PM 84.4°F29.1°C 67.0°F19.4°C 56% 7.3 mph WNW11.7 kmh WNW 8.9 mph14.3 kmh 30.04 in1017.3 mb 0.00 in0.0 mm 0.00 in0.0 mm 0.00 in0.0 mm
12:46 PM 84.4°F29.1°C 66.4°F19.1°C 55% 4.7 mph WNW7.6 kmh WNW 8.9 mph14.3 kmh 30.04 in1017.3 mb 0.00 in0.0 mm 0.00 in0.0 mm 0.00 in0.0 mm
12:47 PM 84.4°F29.1°C 67.0°F19.4°C 56% 7.3 mph NNW11.7 kmh NNW 8.9 mph14.3 kmh 30.04 in1017.3 mb 0.00 in0.0 mm 0.00 in0.0 mm 0.00 in0.0 mm
12:48 PM 84.6°F29.2°C 67.1°F19.5°C 56% 4.7 mph W7.6 kmh W 8.9 mph14.3 kmh 30.04 in1017.3 mb 0.00 in0.0 mm 0.00 in0.0 mm 0.00 in0.0 mm
12:49 PM 84.6°F29.2°C 67.1°F19.5°C 56% 5.8 mph WNW9.3 kmh WNW 8.9 mph14.3 kmh 30.04 in1017.3 mb 0.00 in0.0 mm 0.00 in0.0 mm 0.00 in0.0 mm
12:50 PM 84.7°F29.3°C 67.2°F19.6°C 56% 10.4 mph NW16.7 kmh NW 10.4 mph16.7 kmh 30.04 in1017.3 mb 0.00 in0.0 mm 0.00 in0.0 mm 0.00 in0.0 mm
12:51 PM 84.6°F29.2°C 67.1°F19.5°C 56% 5.3 mph W8.5 kmh W 10.4 mph16.7 kmh 30.04 in1017.3 mb 0.00 in0.0 mm 0.00 in0.0 mm 0.00 in0.0 mm
12:52 PM 84.4°F29.1°C 68.0°F20.0°C 58% 6.3 mph WNW10.1 kmh WNW 10.4 mph16.7 kmh 30.04 in1017.3 mb 0.00 in0.0 mm 0.00 in0.0 mm 0.00 in0.0 mm
12:53 PM 84.6°F29.2°C 68.2°F20.1°C 58% 7.8 mph W12.6 kmh W 10.4 mph16.7 kmh 30.04 in1017.3 mb 0.00 in0.0 mm 0.00 in0.0 mm 0.00 in0.0 mm
12:54 PM 84.0°F28.9°C 67.1°F19.5°C 57% 4.7 mph WSW7.6 kmh WSW 10.4 mph16.7 kmh 30.04 in1017.3 mb 0.00 in0.0 mm 0.00 in0.0 mm 0.00 in0.0 mm
12:55 PM 84.0°F28.9°C 67.1°F19.5°C 57% 4.7 mph W7.6 kmh W 10.4 mph16.7 kmh 30.04 in1017.3 mb 0.00 in0.0 mm 0.00 in0.0 mm 0.00 in0.0 mm
12:56 PM 84.0°F28.9°C 66.6°F19.2°C 56% 4.2 mph WNW6.8 kmh WNW 10.4 mph16.7 kmh 30.04 in1017.3 mb 0.00 in0.0 mm 0.00 in0.0 mm 0.00 in0.0 mm
12:57 PM 84.4°F29.1°C 67.5°F19.7°C 57% 6.8 mph W10.9 kmh W 10.4 mph16.7 kmh 30.04 in1017.3 mb 0.00 in0.0 mm 0.00 in0.0 mm 0.00 in0.0 mm
12:58 PM 84.7°F29.3°C 67.8°F19.9°C 57% 5.8 mph W9.3 kmh W 10.4 mph16.7 kmh 30.04 in1017.3 mb 0.00 in0.0 mm 0.00 in0.0 mm 0.00 in0.0 mm
12:59 PM 84.7°F29.3°C 68.3°F20.2°C 58% 6.3 mph WNW10.1 kmh WNW 10.4 mph16.7 kmh 30.04 in1017.3 mb 0.00 in0.0 mm 0.00 in0.0 mm 0.00 in0.0 mm
01:00 PM 84.9°F29.4°C 67.9°F19.9°C 57% 7.3 mph NW11.7 kmh NW 8.3 mph13.4 kmh 30.04 in1017.3 mb 0.00 in0.0 mm 0.00 in0.0 mm 0.00 in0.0 mm
01:01 PM 84.7°F29.3°C 67.2°F19.6°C 56% 6.8 mph WNW10.9 kmh WNW 8.3 mph13.4 kmh 30.04 in1017.3 mb 0.00 in0.0 mm 0.00 in0.0 mm 0.00 in0.0 mm
01:02 PM 84.7°F29.3°C 67.2°F19.6°C 56% 7.8 mph WNW12.6 kmh WNW 11.4 mph18.3 kmh 30.04 in1017.3 mb 0.00 in0.0 mm 0.00 in0.0 mm 0.00 in0.0 mm
01:03 PM 84.7°F29.3°C 67.8°F19.9°C 57% 5.3 mph W8.5 kmh W 11.4 mph18.3 kmh 30.04 in1017.3 mb 0.00 in0.0 mm 0.00 in0.0 mm 0.00 in0.0 mm
01:04 PM 84.2°F29.0°C 67.8°F19.9°C 58% 4.7 mph WNW7.6 kmh WNW 11.4 mph18.3 kmh 30.04 in1017.3 mb 0.00 in0.0 mm 0.00 in0.0 mm 0.00 in0.0 mm
01:05 PM 84.2°F29.0°C 67.3°F19.6°C 57% 7.8 mph WNW12.6 kmh WNW 11.4 mph18.3 kmh 30.04 in1017.3 mb 0.00 in0.0 mm 0.00 in0.0 mm 0.00 in0.0 mm
01:06 PM 84.7°F29.3°C 67.8°F19.9°C 57% 7.8 mph NW12.6 kmh NW 11.4 mph18.3 kmh 30.04 in1017.3 mb 0.00 in0.0 mm 0.00 in0.0 mm 0.00 in0.0 mm
01:07 PM 84.9°F29.4°C 67.4°F19.7°C 56% 9.4 mph NW15.1 kmh NW 11.4 mph18.3 kmh 30.03 in1016.9 mb 0.00 in0.0 mm 0.00 in0.0 mm 0.00 in0.0 mm
01:08 PM 84.7°F29.3°C 66.7°F19.3°C 55% 8.3 mph SW13.4 kmh SW 11.4 mph18.3 kmh 30.03 in1016.9 mb 0.00 in0.0 mm 0.00 in0.0 mm 0.00 in0.0 mm
01:09 PM 84.9°F29.4°C 66.9°F19.4°C 55% 8.9 mph W14.3 kmh W 11.4 mph18.3 kmh 30.03 in1016.9 mb 0.00 in0.0 mm 0.00 in0.0 mm 0.00 in0.0 mm
01:10 PM 84.9°F29.4°C 66.9°F19.4°C 55% 4.7 mph NW7.6 kmh NW 11.4 mph18.3 kmh 30.03 in1016.9 mb 0.00 in0.0 mm 0.00 in0.0 mm 0.00 in0.0 mm
01:11 PM 84.4°F29.1°C 67.0°F19.4°C 56% 6.3 mph WNW10.1 kmh WNW 11.4 mph18.3 kmh 30.03 in1016.9 mb 0.00 in0.0 mm 0.00 in0.0 mm 0.00 in0.0 mm
01:12 PM 84.4°F29.1°C 67.0°F19.4°C 56% 6.3 mph NNW10.1 kmh NNW 10.9 mph17.5 kmh 30.03 in1016.9 mb 0.00 in0.0 mm 0.00 in0.0 mm 0.00 in0.0 mm
01:13 PM 84.6°F29.2°C 67.1°F19.5°C 56% 4.2 mph NW6.8 kmh NW 10.9 mph17.5 kmh 30.03 in1016.9 mb 0.00 in0.0 mm 0.00 in0.0 mm 0.00 in0.0 mm
01:14 PM 84.6°F29.2°C 67.1°F19.5°C 56% 6.8 mph W10.9 kmh W 10.9 mph17.5 kmh 30.03 in1016.9 mb 0.00 in0.0 mm 0.00 in0.0 mm 0.00 in0.0 mm
01:15 PM 84.7°F29.3°C 67.2°F19.6°C 56% 4.2 mph SE6.8 kmh SE 10.9 mph17.5 kmh 30.03 in1016.9 mb 0.00 in0.0 mm 0.00 in0.0 mm 0.00 in0.0 mm
01:16 PM 84.7°F29.3°C 67.8°F19.9°C 57% 7.8 mph WNW12.6 kmh WNW 10.9 mph17.5 kmh 30.03 in1016.9 mb 0.00 in0.0 mm 0.00 in0.0 mm 0.00 in0.0 mm
01:17 PM 84.6°F29.2°C 68.2°F20.1°C 58% 8.3 mph NW13.4 kmh NW 10.9 mph17.5 kmh 30.03 in1016.9 mb 0.00 in0.0 mm 0.00 in0.0 mm 0.00 in0.0 mm
01:18 PM 84.6°F29.2°C 68.2°F20.1°C 58% 5.3 mph NW8.5 kmh NW 9.4 mph15.1 kmh 30.03 in1016.9 mb 0.00 in0.0 mm 0.00 in0.0 mm 0.00 in0.0 mm
01:19 PM 84.6°F29.2°C 68.2°F20.1°C 58% 5.8 mph W9.3 kmh W 9.4 mph15.1 kmh 30.03 in1016.9 mb 0.00 in0.0 mm 0.00 in0.0 mm 0.00 in0.0 mm
01:20 PM 84.7°F29.3°C 68.3°F20.2°C 58% 5.3 mph WNW8.5 kmh WNW 9.4 mph15.1 kmh 30.03 in1016.9 mb 0.00 in0.0 mm 0.00 in0.0 mm 0.00 in0.0 mm
01:21 PM 84.9°F29.4°C 67.9°F19.9°C 57% 7.8 mph WNW12.6 kmh WNW 8.3 mph13.4 kmh 30.03 in1016.9 mb 0.00 in0.0 mm 0.00 in0.0 mm 0.00 in0.0 mm
01:22 PM 84.9°F29.4°C 68.4°F20.2°C 58% 9.4 mph NNW15.1 kmh NNW 9.4 mph15.1 kmh 30.03 in1016.9 mb 0.00 in0.0 mm 0.00 in0.0 mm 0.00 in0.0 mm
01:23 PM 85.3°F29.6°C 68.3°F20.2°C 57% 4.2 mph NW6.8 kmh NW 9.4 mph15.1 kmh 30.03 in1016.9 mb 0.00 in0.0 mm 0.00 in0.0 mm 0.00 in0.0 mm
01:24 PM 85.3°F29.6°C 68.3°F20.2°C 57% 5.8 mph W9.3 kmh W 9.4 mph15.1 kmh 30.03 in1016.9 mb 0.00 in0.0 mm 0.00 in0.0 mm 0.00 in0.0 mm
01:25 PM 85.1°F29.5°C 68.1°F20.1°C 57% 5.8 mph WSW9.3 kmh WSW 9.4 mph15.1 kmh 30.03 in1016.9 mb 0.00 in0.0 mm 0.00 in0.0 mm 0.00 in0.0 mm
01:26 PM 84.6°F29.2°C 68.2°F20.1°C 58% 4.2 mph W6.8 kmh W 9.4 mph15.1 kmh 30.03 in1016.9 mb 0.00 in0.0 mm 0.00 in0.0 mm 0.00 in0.0 mm
01:27 PM 84.6°F29.2°C 68.2°F20.1°C 58% 4.2 mph W6.8 kmh W 9.4 mph15.1 kmh 30.03 in1016.9 mb 0.00 in0.0 mm 0.00 in0.0 mm 0.00 in0.0 mm
01:28 PM 84.7°F29.3°C 67.8°F19.9°C 57% 6.3 mph W10.1 kmh W 9.4 mph15.1 kmh 30.03 in1016.9 mb 0.00 in0.0 mm 0.00 in0.0 mm 0.00 in0.0 mm
01:29 PM 84.7°F29.3°C 67.8°F19.9°C 57% 5.8 mph WNW9.3 kmh WNW 9.4 mph15.1 kmh 30.03 in1016.9 mb 0.00 in0.0 mm 0.00 in0.0 mm 0.00 in0.0 mm
01:30 PM 84.9°F29.4°C 67.9°F19.9°C 57% 4.2 mph W6.8 kmh W 9.4 mph15.1 kmh 30.02 in1016.6 mb 0.00 in0.0 mm 0.00 in0.0 mm 0.00 in0.0 mm
01:31 PM 85.6°F29.8°C 69.1°F20.6°C 58% 6.3 mph NW10.1 kmh NW 9.4 mph15.1 kmh 30.02 in1016.6 mb 0.00 in0.0 mm 0.00 in0.0 mm 0.00 in0.0 mm
01:32 PM 85.6°F29.8°C 68.6°F20.3°C 57% 6.8 mph WNW10.9 kmh WNW 9.4 mph15.1 kmh 30.02 in1016.6 mb 0.00 in0.0 mm 0.00 in0.0 mm 0.00 in0.0 mm
01:33 PM 85.6°F29.8°C 68.6°F20.3°C 57% 4.7 mph WSW7.6 kmh WSW 8.3 mph13.4 kmh 30.02 in1016.6 mb 0.00 in0.0 mm 0.00 in0.0 mm 0.00 in0.0 mm
01:34 PM 85.3°F29.6°C 68.8°F20.4°C 58% 3.7 mph WNW6.0 kmh WNW 8.3 mph13.4 kmh 30.02 in1016.6 mb 0.00 in0.0 mm 0.00 in0.0 mm 0.00 in0.0 mm
01:35 PM 84.9°F29.4°C 68.4°F20.2°C 58% 4.7 mph NW7.6 kmh NW 8.3 mph13.4 kmh 30.02 in1016.6 mb 0.00 in0.0 mm 0.00 in0.0 mm 0.00 in0.0 mm
01:36 PM 85.1°F29.5°C 69.1°F20.6°C 59% 3.7 mph W6.0 kmh W 6.8 mph10.9 kmh 30.02 in1016.6 mb 0.00 in0.0 mm 0.00 in0.0 mm 0.00 in0.0 mm
01:37 PM 85.3°F29.6°C 69.3°F20.7°C 59% 4.2 mph W6.8 kmh W 6.8 mph10.9 kmh 30.02 in1016.6 mb 0.00 in0.0 mm 0.00 in0.0 mm 0.00 in0.0 mm
01:38 PM 85.5°F29.7°C 68.5°F20.3°C 57% 3.2 mph WNW5.1 kmh WNW 6.8 mph10.9 kmh 30.02 in1016.6 mb 0.00 in0.0 mm 0.00 in0.0 mm 0.00 in0.0 mm
01:39 PM 85.6°F29.8°C 68.6°F20.3°C 57% 4.7 mph WNW7.6 kmh WNW 7.3 mph11.7 kmh 30.02 in1016.6 mb 0.00 in0.0 mm 0.00 in0.0 mm 0.00 in0.0 mm
01:40 PM 85.6°F29.8°C 68.6°F20.3°C 57% 4.7 mph WNW7.6 kmh WNW 7.3 mph11.7 kmh 30.02 in1016.6 mb 0.00 in0.0 mm 0.00 in0.0 mm 0.00 in0.0 mm
01:41 PM 85.6°F29.8°C 68.6°F20.3°C 57% Calm Calm 7.3 mph11.7 kmh 30.02 in1016.6 mb 0.00 in0.0 mm 0.00 in0.0 mm 0.00 in0.0 mm
01:42 PM 85.6°F29.8°C 68.6°F20.3°C 57% Calm Calm 7.3 mph11.7 kmh 30.02 in1016.6 mb 0.00 in0.0 mm 0.00 in0.0 mm 0.00 in0.0 mm
01:43 PM 85.6°F29.8°C 68.6°F20.3°C 57% Calm Calm 7.3 mph11.7 kmh 30.02 in1016.6 mb 0.00 in0.0 mm 0.00 in0.0 mm 0.00 in0.0 mm
01:44 PM 85.6°F29.8°C 68.6°F20.3°C 57% Calm Calm 7.3 mph11.7 kmh 30.02 in1016.6 mb 0.00 in0.0 mm 0.00 in0.0 mm 0.00 in0.0 mm
01:45 PM 86.4°F30.2°C 69.3°F20.7°C 57% 7.3 mph WNW11.7 kmh WNW 8.9 mph14.3 kmh 30.02 in1016.6 mb 0.00 in0.0 mm 0.00 in0.0 mm 0.00 in0.0 mm
01:46 PM 86.4°F30.2°C 68.8°F20.4°C 56% 4.7 mph W7.6 kmh W 8.9 mph14.3 kmh 30.02 in1016.6 mb 0.00 in0.0 mm 0.00 in0.0 mm 0.00 in0.0 mm
01:47 PM 86.2°F30.1°C 68.6°F20.3°C 56% 3.7 mph SW6.0 kmh SW 8.9 mph14.3 kmh 30.02 in1016.6 mb 0.00 in0.0 mm 0.00 in0.0 mm 0.00 in0.0 mm
01:48 PM 86.4°F30.2°C 68.8°F20.4°C 56% 4.2 mph W6.8 kmh W 8.9 mph14.3 kmh 30.02 in1016.6 mb 0.00 in0.0 mm 0.00 in0.0 mm 0.00 in0.0 mm
01:49 PM 86.5°F30.3°C 68.4°F20.2°C 55% 5.8 mph W9.3 kmh W 8.9 mph14.3 kmh 30.02 in1016.6 mb 0.00 in0.0 mm 0.00 in0.0 mm 0.00 in0.0 mm
01:50 PM 86.9°F30.5°C 68.8°F20.4°C 55% 9.4 mph NW15.1 kmh NW 9.4 mph15.1 kmh 30.02 in1016.6 mb 0.00 in0.0 mm 0.00 in0.0 mm 0.00 in0.0 mm
01:51 PM 86.9°F30.5°C 68.8°F20.4°C 55% 4.7 mph N7.6 kmh N 9.4 mph15.1 kmh 30.02 in1016.6 mb 0.00 in0.0 mm 0.00 in0.0 mm 0.00 in0.0 mm
01:52 PM 86.9°F30.5°C 68.2°F20.1°C 54% 3.7 mph W6.0 kmh W 9.4 mph15.1 kmh 30.02 in1016.6 mb 0.00 in0.0 mm 0.00 in0.0 mm 0.00 in0.0 mm
01:53 PM 86.4°F30.2°C 68.8°F20.4°C 56% 7.8 mph WNW12.6 kmh WNW 9.4 mph15.1 kmh 30.02 in1016.6 mb 0.00 in0.0 mm 0.00 in0.0 mm 0.00 in0.0 mm
01:54 PM 86.7°F30.4°C 68.0°F20.0°C 54% 4.7 mph W7.6 kmh W 9.4 mph15.1 kmh 30.02 in1016.6 mb 0.00 in0.0 mm 0.00 in0.0 mm 0.00 in0.0 mm
01:55 PM 86.4°F30.2°C 67.8°F19.9°C 54% 4.2 mph NNW6.8 kmh NNW 9.4 mph15.1 kmh 30.02 in1016.6 mb 0.00 in0.0 mm 0.00 in0.0 mm 0.00 in0.0 mm
01:56 PM 86.7°F30.4°C 68.6°F20.3°C 55% 6.8 mph WNW10.9 kmh WNW 9.4 mph15.1 kmh 30.02 in1016.6 mb 0.00 in0.0 mm 0.00 in0.0 mm 0.00 in0.0 mm
01:57 PM 86.0°F30.0°C 70.0°F21.1°C 59% 4.2 mph NW6.8 kmh NW 9.4 mph15.1 kmh 30.02 in1016.6 mb 0.00 in0.0 mm 0.00 in0.0 mm 0.00 in0.0 mm
01:58 PM 85.1°F29.5°C 70.1°F21.2°C 61% 2.7 mph ENE4.3 kmh ENE 9.4 mph15.1 kmh 30.02 in1016.6 mb 0.00 in0.0 mm 0.00 in0.0 mm 0.00 in0.0 mm
01:59 PM 84.7°F29.3°C 70.2°F21.2°C 62% 3.2 mph N5.1 kmh N 9.4 mph15.1 kmh 30.02 in1016.6 mb 0.00 in0.0 mm 0.00 in0.0 mm 0.00 in0.0 mm
02:00 PM 84.9°F29.4°C 69.9°F21.1°C 61% 4.2 mph NNW6.8 kmh NNW 9.4 mph15.1 kmh 30.02 in1016.6 mb 0.00 in0.0 mm 0.00 in0.0 mm 0.00 in0.0 mm
02:01 PM 84.7°F29.3°C 70.2°F21.2°C 62% 4.7 mph N7.6 kmh N 7.8 mph12.6 kmh 30.02 in1016.6 mb 0.00 in0.0 mm 0.00 in0.0 mm 0.00 in0.0 mm
02:02 PM 84.6°F29.2°C 70.1°F21.2°C 62% 2.7 mph W4.3 kmh W 7.8 mph12.6 kmh 30.02 in1016.6 mb 0.00 in0.0 mm 0.00 in0.0 mm 0.00 in0.0 mm
02:03 PM 85.1°F29.5°C 71.1°F21.7°C 63% 2.7 mph NW4.3 kmh NW 7.8 mph12.6 kmh 30.02 in1016.6 mb 0.00 in0.0 mm 0.00 in0.0 mm 0.00 in0.0 mm
02:04 PM 85.8°F29.9°C 70.8°F21.6°C 61% 3.2 mph WNW5.1 kmh WNW 7.3 mph11.7 kmh 30.02 in1016.6 mb 0.00 in0.0 mm 0.00 in0.0 mm 0.00 in0.0 mm
02:05 PM 85.5°F29.7°C 70.5°F21.4°C 61% 5.8 mph NNW9.3 kmh NNW 7.3 mph11.7 kmh 30.02 in1016.6 mb 0.00 in0.0 mm 0.00 in0.0 mm 0.00 in0.0 mm
02:06 PM 85.1°F29.5°C 70.6°F21.4°C 62% 5.3 mph WNW8.5 kmh WNW 5.8 mph9.3 kmh 30.02 in1016.6 mb 0.00 in0.0 mm 0.00 in0.0 mm 0.00 in0.0 mm
02:07 PM 85.1°F29.5°C 70.6°F21.4°C 62% Calm Calm 5.8 mph9.3 kmh 30.02 in1016.6 mb 0.00 in0.0 mm 0.00 in0.0 mm 0.00 in0.0 mm
02:08 PM 85.1°F29.5°C 70.6°F21.4°C 62% Calm Calm 5.8 mph9.3 kmh 30.02 in1016.6 mb 0.00 in0.0 mm 0.00 in0.0 mm 0.00 in0.0 mm
02:09 PM 85.1°F29.5°C 70.6°F21.4°C 62% 9.9 mph NNW15.9 kmh NNW 9.9 mph15.9 kmh 30.02 in1016.6 mb 0.00 in0.0 mm 0.00 in0.0 mm 0.00 in0.0 mm
02:10 PM 82.9°F28.3°C 69.0°F20.6°C 63% 6.8 mph NNE10.9 kmh NNE 9.9 mph15.9 kmh 30.02 in1016.6 mb 0.00 in0.0 mm 0.00 in0.0 mm 0.00 in0.0 mm
02:11 PM 82.8°F28.2°C 68.9°F20.5°C 63% 6.3 mph ESE10.1 kmh ESE 9.9 mph15.9 kmh 30.02 in1016.6 mb 0.00 in0.0 mm 0.00 in0.0 mm 0.00 in0.0 mm
02:12 PM 82.6°F28.1°C 68.7°F20.4°C 63% 5.3 mph N8.5 kmh N 9.9 mph15.9 kmh 30.02 in1016.6 mb 0.00 in0.0 mm 0.00 in0.0 mm 0.00 in0.0 mm
02:13 PM 82.4°F28.0°C 68.5°F20.3°C 63% 5.3 mph NNW8.5 kmh NNW 9.9 mph15.9 kmh 30.02 in1016.6 mb 0.00 in0.0 mm 0.00 in0.0 mm 0.00 in0.0 mm
02:14 PM 82.0°F27.8°C 69.0°F20.6°C 65% 5.3 mph NNE8.5 kmh NNE 9.9 mph15.9 kmh 30.02 in1016.6 mb 0.00 in0.0 mm 0.00 in0.0 mm 0.00 in0.0 mm
02:15 PM 82.4°F28.0°C 69.4°F20.8°C 65% 4.2 mph N6.8 kmh N 9.9 mph15.9 kmh 30.02 in1016.6 mb 0.00 in0.0 mm 0.00 in0.0 mm 0.00 in0.0 mm
02:16 PM 82.8°F28.2°C 68.9°F20.5°C 63% 7.3 mph NNW11.7 kmh NNW 9.9 mph15.9 kmh 30.02 in1016.6 mb 0.00 in0.0 mm 0.00 in0.0 mm 0.00 in0.0 mm
02:17 PM 82.8°F28.2°C 68.9°F20.5°C 63% 6.8 mph N10.9 kmh N 9.9 mph15.9 kmh 30.02 in1016.6 mb 0.00 in0.0 mm 0.00 in0.0 mm 0.00 in0.0 mm
02:18 PM 83.1°F28.4°C 69.2°F20.7°C 63% 4.7 mph NE7.6 kmh NE 9.9 mph15.9 kmh 30.02 in1016.6 mb 0.00 in0.0 mm 0.00 in0.0 mm 0.00 in0.0 mm
02:19 PM 83.5°F28.6°C 69.1°F20.6°C 62% 8.9 mph NNW14.3 kmh NNW 9.9 mph15.9 kmh 30.02 in1016.6 mb 0.00 in0.0 mm 0.00 in0.0 mm 0.00 in0.0 mm
02:20 PM 83.3°F28.5°C 69.4°F20.8°C 63% 3.7 mph NW6.0 kmh NW 9.4 mph15.1 kmh 30.02 in1016.6 mb 0.00 in0.0 mm 0.00 in0.0 mm 0.00 in0.0 mm
02:21 PM 83.3°F28.5°C 68.9°F20.5°C 62% 6.8 mph N10.9 kmh N 9.4 mph15.1 kmh 30.02 in1016.6 mb 0.00 in0.0 mm 0.00 in0.0 mm 0.00 in0.0 mm
02:22 PM 83.3°F28.5°C 68.9°F20.5°C 62% 4.2 mph NNE6.8 kmh NNE 9.4 mph15.1 kmh 30.02 in1016.6 mb 0.00 in0.0 mm 0.00 in0.0 mm 0.00 in0.0 mm
02:23 PM 83.7°F28.7°C 69.7°F20.9°C 63% 3.7 mph NW6.0 kmh NW 9.4 mph15.1 kmh 30.02 in1016.6 mb 0.00 in0.0 mm 0.00 in0.0 mm 0.00 in0.0 mm
02:24 PM 83.7°F28.7°C 69.3°F20.7°C 62% 5.3 mph NNW8.5 kmh NNW 9.4 mph15.1 kmh 30.02 in1016.6 mb 0.00 in0.0 mm 0.00 in0.0 mm 0.00 in0.0 mm
02:25 PM 83.7°F28.7°C 69.3°F20.7°C 62% 6.3 mph NNE10.1 kmh NNE 9.4 mph15.1 kmh 30.02 in1016.6 mb 0.00 in0.0 mm 0.00 in0.0 mm 0.00 in0.0 mm
02:26 PM 83.1°F28.4°C 68.7°F20.4°C 62% 5.8 mph NNE9.3 kmh NNE 9.4 mph15.1 kmh 30.02 in1016.6 mb 0.00 in0.0 mm 0.00 in0.0 mm 0.00 in0.0 mm
02:27 PM 83.1°F28.4°C 68.7°F20.4°C 62% 6.3 mph ESE10.1 kmh ESE 9.4 mph15.1 kmh 30.02 in1016.6 mb 0.00 in0.0 mm 0.00 in0.0 mm 0.00 in0.0 mm
02:28 PM 82.9°F28.3°C 68.5°F20.3°C 62% 4.7 mph NNE7.6 kmh NNE 9.4 mph15.1 kmh 30.02 in1016.6 mb 0.00 in0.0 mm 0.00 in0.0 mm 0.00 in0.0 mm
02:29 PM 83.3°F28.5°C 68.9°F20.5°C 62% 3.7 mph E6.0 kmh E 9.4 mph15.1 kmh 30.02 in1016.6 mb 0.00 in0.0 mm 0.00 in0.0 mm 0.00 in0.0 mm
02:30 PM 83.5°F28.6°C 69.1°F20.6°C 62% 5.8 mph W9.3 kmh W 6.8 mph10.9 kmh 30.02 in1016.6 mb 0.00 in0.0 mm 0.00 in0.0 mm 0.00 in0.0 mm
02:31 PM 83.1°F28.4°C 68.7°F20.4°C 62% 5.3 mph W8.5 kmh W 6.8 mph10.9 kmh 30.02 in1016.6 mb 0.00 in0.0 mm 0.00 in0.0 mm 0.00 in0.0 mm
02:32 PM 82.8°F28.2°C 68.4°F20.2°C 62% 3.7 mph NNE6.0 kmh NNE 8.9 mph14.3 kmh 30.02 in1016.6 mb 0.00 in0.0 mm 0.00 in0.0 mm 0.00 in0.0 mm
02:33 PM 82.6°F28.1°C 68.7°F20.4°C 63% 2.2 mph SW3.5 kmh SW 8.9 mph14.3 kmh 30.02 in1016.6 mb 0.00 in0.0 mm 0.00 in0.0 mm 0.00 in0.0 mm
02:34 PM 83.3°F28.5°C 69.4°F20.8°C 63% 3.7 mph NNE6.0 kmh NNE 8.9 mph14.3 kmh 30.02 in1016.6 mb 0.00 in0.0 mm 0.00 in0.0 mm 0.00 in0.0 mm
02:35 PM 83.7°F28.7°C 69.3°F20.7°C 62% 4.7 mph NNE7.6 kmh NNE 8.9 mph14.3 kmh 30.02 in1016.6 mb 0.00 in0.0 mm 0.00 in0.0 mm 0.00 in0.0 mm
02:36 PM 83.3°F28.5°C 68.9°F20.5°C 62% 7.8 mph NNE12.6 kmh NNE 8.9 mph14.3 kmh 30.02 in1016.6 mb 0.00 in0.0 mm 0.00 in0.0 mm 0.00 in0.0 mm
02:37 PM 82.9°F28.3°C 68.5°F20.3°C 62% 6.3 mph N10.1 kmh N 8.9 mph14.3 kmh 30.02 in1016.6 mb 0.00 in0.0 mm 0.00 in0.0 mm 0.00 in0.0 mm
02:38 PM 82.8°F28.2°C 68.9°F20.5°C 63% 5.3 mph SSW8.5 kmh SSW 8.9 mph14.3 kmh 30.02 in1016.6 mb 0.00 in0.0 mm 0.00 in0.0 mm 0.00 in0.0 mm
02:39 PM 83.3°F28.5°C 68.9°F20.5°C 62% 4.2 mph W6.8 kmh W 8.9 mph14.3 kmh 30.02 in1016.6 mb 0.00 in0.0 mm 0.00 in0.0 mm 0.00 in0.0 mm
02:40 PM 83.7°F28.7°C 68.8°F20.4°C 61% 5.3 mph NW8.5 kmh NW 8.9 mph14.3 kmh 30.02 in1016.6 mb 0.00 in0.0 mm 0.00 in0.0 mm 0.00 in0.0 mm
02:41 PM 83.7°F28.7°C 68.8°F20.4°C 61% 9.9 mph N15.9 kmh N 9.9 mph15.9 kmh 30.02 in1016.6 mb 0.00 in0.0 mm 0.00 in0.0 mm 0.00 in0.0 mm
02:42 PM 83.3°F28.5°C 68.4°F20.2°C 61% 5.8 mph N9.3 kmh N 9.9 mph15.9 kmh 30.02 in1016.6 mb 0.00 in0.0 mm 0.00 in0.0 mm 0.00 in0.0 mm
02:43 PM 82.8°F28.2°C 68.4°F20.2°C 62% 6.8 mph SSW10.9 kmh SSW 9.9 mph15.9 kmh 30.01 in1016.3 mb 0.00 in0.0 mm 0.00 in0.0 mm 0.00 in0.0 mm
02:44 PM 82.0°F27.8°C 68.1°F20.1°C 63% 5.3 mph SSW8.5 kmh SSW 9.9 mph15.9 kmh 30.01 in1016.3 mb 0.00 in0.0 mm 0.00 in0.0 mm 0.00 in0.0 mm
02:45 PM 82.0°F27.8°C 68.1°F20.1°C 63% 6.3 mph NNW10.1 kmh NNW 9.9 mph15.9 kmh 30.01 in1016.3 mb 0.00 in0.0 mm 0.00 in0.0 mm 0.00 in0.0 mm
02:46 PM 81.9°F27.7°C 68.0°F20.0°C 63% 5.8 mph N9.3 kmh N 9.9 mph15.9 kmh 30.01 in1016.3 mb 0.00 in0.0 mm 0.00 in0.0 mm 0.00 in0.0 mm
02:47 PM 82.0°F27.8°C 68.1°F20.1°C 63% 4.7 mph NNE7.6 kmh NNE 9.9 mph15.9 kmh 30.01 in1016.3 mb 0.00 in0.0 mm 0.00 in0.0 mm 0.00 in0.0 mm
02:48 PM 82.2°F27.9°C 68.3°F20.2°C 63% 4.2 mph NNW6.8 kmh NNW 9.9 mph15.9 kmh 30.01 in1016.3 mb 0.00 in0.0 mm 0.00 in0.0 mm 0.00 in0.0 mm
02:49 PM 82.8°F28.2°C 68.4°F20.2°C 62% 6.8 mph SW10.9 kmh SW 9.9 mph15.9 kmh 30.01 in1016.3 mb 0.00 in0.0 mm 0.00 in0.0 mm 0.00 in0.0 mm
02:50 PM 82.4°F28.0°C 68.0°F20.0°C 62% 5.8 mph NNE9.3 kmh NNE 9.9 mph15.9 kmh 30.01 in1016.3 mb 0.00 in0.0 mm 0.00 in0.0 mm 0.00 in0.0 mm
02:51 PM 82.6°F28.1°C 68.2°F20.1°C 62% 4.7 mph N7.6 kmh N 7.3 mph11.7 kmh 30.01 in1016.3 mb 0.00 in0.0 mm 0.00 in0.0 mm 0.00 in0.0 mm
02:52 PM 82.9°F28.3°C 68.5°F20.3°C 62% 3.7 mph SSE6.0 kmh SSE 7.3 mph11.7 kmh 30.01 in1016.3 mb 0.00 in0.0 mm 0.00 in0.0 mm 0.00 in0.0 mm
02:53 PM 83.5°F28.6°C 69.1°F20.6°C 62% 2.7 mph NNW4.3 kmh NNW 7.3 mph11.7 kmh 30.01 in1016.3 mb 0.00 in0.0 mm 0.00 in0.0 mm 0.00 in0.0 mm
02:54 PM 83.5°F28.6°C 69.1°F20.6°C 62% 3.2 mph ESE5.1 kmh ESE 7.3 mph11.7 kmh 30.01 in1016.3 mb 0.00 in0.0 mm 0.00 in0.0 mm 0.00 in0.0 mm
02:55 PM 83.5°F28.6°C 69.1°F20.6°C 62% 5.8 mph NW9.3 kmh NW 6.8 mph10.9 kmh 30.01 in1016.3 mb 0.00 in0.0 mm 0.00 in0.0 mm 0.00 in0.0 mm
02:56 PM 83.5°F28.6°C 68.6°F20.3°C 61% 4.2 mph NW6.8 kmh NW 6.8 mph10.9 kmh 30.01 in1016.3 mb 0.00 in0.0 mm 0.00 in0.0 mm 0.00 in0.0 mm
02:57 PM 83.5°F28.6°C 68.6°F20.3°C 61% 4.2 mph ESE6.8 kmh ESE 6.8 mph10.9 kmh 30.01 in1016.3 mb 0.00 in0.0 mm 0.00 in0.0 mm 0.00 in0.0 mm
02:58 PM 83.8°F28.8°C 68.9°F20.5°C 61% 1.7 mph WNW2.7 kmh WNW 6.8 mph10.9 kmh 30.01 in1016.3 mb 0.00 in0.0 mm 0.00 in0.0 mm 0.00 in0.0 mm
02:59 PM 83.7°F28.7°C 68.3°F20.2°C 60% 7.8 mph N12.6 kmh N 7.8 mph12.6 kmh 30.01 in1016.3 mb 0.00 in0.0 mm 0.00 in0.0 mm 0.00 in0.0 mm
03:00 PM 83.3°F28.5°C 67.9°F19.9°C 60% 4.7 mph NNW7.6 kmh NNW 7.8 mph12.6 kmh 30.01 in1016.3 mb 0.00 in0.0 mm 0.00 in0.0 mm 0.00 in0.0 mm
03:01 PM 82.8°F28.2°C 67.9°F19.9°C 61% 6.8 mph NNE10.9 kmh NNE 7.8 mph12.6 kmh 30.01 in1016.3 mb 0.00 in0.0 mm 0.00 in0.0 mm 0.00 in0.0 mm
03:02 PM 82.6°F28.1°C 67.8°F19.9°C 61% 4.2 mph W6.8 kmh W 7.8 mph12.6 kmh 30.01 in1016.3 mb 0.00 in0.0 mm 0.00 in0.0 mm 0.00 in0.0 mm
03:03 PM 82.9°F28.3°C 68.0°F20.0°C 61% 4.7 mph NNE7.6 kmh NNE 7.8 mph12.6 kmh 30.01 in1016.3 mb 0.00 in0.0 mm 0.00 in0.0 mm 0.00 in0.0 mm
03:04 PM 82.6°F28.1°C 68.2°F20.1°C 62% 5.8 mph SW9.3 kmh SW 7.8 mph12.6 kmh 30.01 in1016.3 mb 0.00 in0.0 mm 0.00 in0.0 mm 0.00 in0.0 mm
03:05 PM 82.4°F28.0°C 68.0°F20.0°C 62% 5.3 mph NNW8.5 kmh NNW 7.8 mph12.6 kmh 30.01 in1016.3 mb 0.00 in0.0 mm 0.00 in0.0 mm 0.00 in0.0 mm
03:06 PM 82.4°F28.0°C 68.0°F20.0°C 62% 4.7 mph WNW7.6 kmh WNW 7.8 mph12.6 kmh 30.01 in1016.3 mb 0.00 in0.0 mm 0.00 in0.0 mm 0.00 in0.0 mm
03:07 PM 82.6°F28.1°C 68.2°F20.1°C 62% 4.7 mph W7.6 kmh W 7.8 mph12.6 kmh 30.01 in1016.3 mb 0.00 in0.0 mm 0.00 in0.0 mm 0.00 in0.0 mm
03:08 PM 82.4°F28.0°C 68.0°F20.0°C 62% 4.7 mph E7.6 kmh E 7.8 mph12.6 kmh 30.01 in1016.3 mb 0.00 in0.0 mm 0.00 in0.0 mm 0.00 in0.0 mm
03:09 PM 82.2°F27.9°C 68.3°F20.2°C 63% 5.8 mph ENE9.3 kmh ENE 7.8 mph12.6 kmh 30.01 in1016.3 mb 0.00 in0.0 mm 0.00 in0.0 mm 0.00 in0.0 mm
03:10 PM 82.4°F28.0°C 68.0°F20.0°C 62% 4.7 mph NW7.6 kmh NW 7.3 mph11.7 kmh 30.01 in1016.3 mb 0.00 in0.0 mm 0.00 in0.0 mm 0.00 in0.0 mm
03:11 PM 82.4°F28.0°C 68.0°F20.0°C 62% 5.8 mph NW9.3 kmh NW 7.3 mph11.7 kmh 30.01 in1016.3 mb 0.00 in0.0 mm 0.00 in0.0 mm 0.00 in0.0 mm
03:12 PM 82.4°F28.0°C 68.0°F20.0°C 62% 6.8 mph NNW10.9 kmh NNW 7.3 mph11.7 kmh 30.01 in1016.3 mb 0.00 in0.0 mm 0.00 in0.0 mm 0.00 in0.0 mm
03:13 PM 82.6°F28.1°C 68.2°F20.1°C 62% 6.3 mph NNE10.1 kmh NNE 7.3 mph11.7 kmh 30.01 in1016.3 mb 0.00 in0.0 mm 0.00 in0.0 mm 0.00 in0.0 mm
03:14 PM 82.6°F28.1°C 68.2°F20.1°C 62% 4.7 mph NNE7.6 kmh NNE 7.3 mph11.7 kmh 30.01 in1016.3 mb 0.00 in0.0 mm 0.00 in0.0 mm 0.00 in0.0 mm
03:15 PM 82.9°F28.3°C 68.0°F20.0°C 61% 3.7 mph E6.0 kmh E 7.3 mph11.7 kmh 30.01 in1016.3 mb 0.00 in0.0 mm 0.00 in0.0 mm 0.00 in0.0 mm
03:16 PM 83.3°F28.5°C 68.4°F20.2°C 61% 5.8 mph WNW9.3 kmh WNW 7.3 mph11.7 kmh 30.01 in1016.3 mb 0.00 in0.0 mm 0.00 in0.0 mm 0.00 in0.0 mm
03:17 PM 83.1°F28.4°C 68.2°F20.1°C 61% 5.8 mph NE9.3 kmh NE 7.3 mph11.7 kmh 30.01 in1016.3 mb 0.00 in0.0 mm 0.00 in0.0 mm 0.00 in0.0 mm
03:18 PM 83.3°F28.5°C 68.4°F20.2°C 61% 5.3 mph NNE8.5 kmh NNE 7.3 mph11.7 kmh 30.01 in1016.3 mb 0.00 in0.0 mm 0.00 in0.0 mm 0.00 in0.0 mm
03:19 PM 83.1°F28.4°C 68.2°F20.1°C 61% 4.2 mph SSE6.8 kmh SSE 7.3 mph11.7 kmh 30.01 in1016.3 mb 0.00 in0.0 mm 0.00 in0.0 mm 0.00 in0.0 mm
03:20 PM 82.9°F28.3°C 68.0°F20.0°C 61% 6.3 mph NE10.1 kmh NE 6.8 mph10.9 kmh 30.01 in1016.3 mb 0.00 in0.0 mm 0.00 in0.0 mm 0.00 in0.0 mm
03:21 PM 83.1°F28.4°C 68.2°F20.1°C 61% 5.8 mph SE9.3 kmh SE 6.8 mph10.9 kmh 30.01 in1016.3 mb 0.00 in0.0 mm 0.00 in0.0 mm 0.00 in0.0 mm
03:22 PM 83.1°F28.4°C 68.2°F20.1°C 61% 5.8 mph WNW9.3 kmh WNW 6.8 mph10.9 kmh 30.01 in1016.3 mb 0.00 in0.0 mm 0.00 in0.0 mm 0.00 in0.0 mm
03:23 PM 83.1°F28.4°C 68.2°F20.1°C 61% 4.2 mph WNW6.8 kmh WNW 6.8 mph10.9 kmh 30.01 in1016.3 mb 0.00 in0.0 mm 0.00 in0.0 mm 0.00 in0.0 mm
03:24 PM 83.1°F28.4°C 68.2°F20.1°C 61% 4.2 mph N6.8 kmh N 6.8 mph10.9 kmh 30.01 in1016.3 mb 0.00 in0.0 mm 0.00 in0.0 mm 0.00 in0.0 mm
03:25 PM 83.3°F28.5°C 67.9°F19.9°C 60% 5.3 mph NNE8.5 kmh NNE 6.8 mph10.9 kmh 30.01 in1016.3 mb 0.00 in0.0 mm 0.00 in0.0 mm 0.00 in0.0 mm
03:26 PM 83.1°F28.4°C 67.8°F19.9°C 60% 7.3 mph NNW11.7 kmh NNW 7.3 mph11.7 kmh 30.01 in1016.3 mb 0.00 in0.0 mm 0.00 in0.0 mm 0.00 in0.0 mm
03:27 PM 82.9°F28.3°C 67.6°F19.8°C 60% 7.8 mph WNW12.6 kmh WNW 7.8 mph12.6 kmh 30.01 in1016.3 mb 0.00 in0.0 mm 0.00 in0.0 mm 0.00 in0.0 mm
03:28 PM 82.8°F28.2°C 67.5°F19.7°C 60% 5.3 mph N8.5 kmh N 7.8 mph12.6 kmh 30.01 in1016.3 mb 0.00 in0.0 mm 0.00 in0.0 mm 0.00 in0.0 mm
03:29 PM 82.4°F28.0°C 67.1°F19.5°C 60% 5.8 mph NNE9.3 kmh NNE 7.8 mph12.6 kmh 30.01 in1016.3 mb 0.00 in0.0 mm 0.00 in0.0 mm 0.00 in0.0 mm
03:30 PM 82.4°F28.0°C 67.1°F19.5°C 60% 6.8 mph NNE10.9 kmh NNE 7.8 mph12.6 kmh 30.01 in1016.3 mb 0.00 in0.0 mm 0.00 in0.0 mm 0.00 in0.0 mm
03:31 PM 82.4°F28.0°C 67.1°F19.5°C 60% 6.8 mph NE10.9 kmh NE 7.8 mph12.6 kmh 30.01 in1016.3 mb 0.00 in0.0 mm 0.00 in0.0 mm 0.00 in0.0 mm
03:32 PM 82.2°F27.9°C 67.4°F19.7°C 61% 6.3 mph ENE10.1 kmh ENE 7.8 mph12.6 kmh 30.01 in1016.3 mb 0.00 in0.0 mm 0.00 in0.0 mm 0.00 in0.0 mm
03:33 PM 82.0°F27.8°C 67.2°F19.6°C 61% 10.4 mph W16.7 kmh W 10.4 mph16.7 kmh 30.01 in1016.3 mb 0.00 in0.0 mm 0.00 in0.0 mm 0.00 in0.0 mm
03:34 PM 81.9°F27.7°C 67.1°F19.5°C 61% 6.3 mph NNW10.1 kmh NNW 10.4 mph16.7 kmh 30.01 in1016.3 mb 0.00 in0.0 mm 0.00 in0.0 mm 0.00 in0.0 mm
03:35 PM 81.7°F27.6°C 67.4°F19.7°C 62% 5.8 mph NNW9.3 kmh NNW 10.4 mph16.7 kmh 30.01 in1016.3 mb 0.00 in0.0 mm 0.00 in0.0 mm 0.00 in0.0 mm
03:36 PM 81.7°F27.6°C 66.9°F19.4°C 61% 8.9 mph NW14.3 kmh NW 10.4 mph16.7 kmh 30.01 in1016.3 mb 0.00 in0.0 mm 0.00 in0.0 mm 0.00 in0.0 mm
03:37 PM 81.3°F27.4°C 67.0°F19.4°C 62% 5.8 mph WNW9.3 kmh WNW 10.4 mph16.7 kmh 30.01 in1016.3 mb 0.00 in0.0 mm 0.00 in0.0 mm 0.00 in0.0 mm
03:38 PM 81.5°F27.5°C 67.2°F19.6°C 62% 4.7 mph WNW7.6 kmh WNW 10.4 mph16.7 kmh 30.01 in1016.3 mb 0.00 in0.0 mm 0.00 in0.0 mm 0.00 in0.0 mm
03:39 PM 81.5°F27.5°C 67.2°F19.6°C 62% 5.3 mph W8.5 kmh W 10.4 mph16.7 kmh 30.01 in1016.3 mb 0.00 in0.0 mm 0.00 in0.0 mm 0.00 in0.0 mm
03:40 PM 81.3°F27.4°C 67.0°F19.4°C 62% 4.2 mph WNW6.8 kmh WNW 10.4 mph16.7 kmh 30.01 in1016.3 mb 0.00 in0.0 mm 0.00 in0.0 mm 0.00 in0.0 mm
03:41 PM 81.0°F27.2°C 66.7°F19.3°C 62% 7.8 mph WNW12.6 kmh WNW 10.4 mph16.7 kmh 30.01 in1016.3 mb 0.00 in0.0 mm 0.00 in0.0 mm 0.00 in0.0 mm
03:42 PM 80.8°F27.1°C 66.5°F19.2°C 62% 4.7 mph WNW7.6 kmh WNW 10.4 mph16.7 kmh 30.01 in1016.3 mb 0.00 in0.0 mm 0.00 in0.0 mm 0.00 in0.0 mm
03:43 PM 81.0°F27.2°C 66.7°F19.3°C 62% 6.8 mph N10.9 kmh N 8.9 mph14.3 kmh 30.01 in1016.3 mb 0.00 in0.0 mm 0.00 in0.0 mm 0.00 in0.0 mm
03:44 PM 81.0°F27.2°C 66.7°F19.3°C 62% 6.8 mph WSW10.9 kmh WSW 8.9 mph14.3 kmh 30.01 in1016.3 mb 0.00 in0.0 mm 0.00 in0.0 mm 0.00 in0.0 mm
03:45 PM 81.0°F27.2°C 66.7°F19.3°C 62% 6.3 mph E10.1 kmh E 8.9 mph14.3 kmh 30.01 in1016.3 mb 0.00 in0.0 mm 0.00 in0.0 mm 0.00 in0.0 mm
03:46 PM 80.8°F27.1°C 66.5°F19.2°C 62% 6.3 mph NNW10.1 kmh NNW 8.9 mph14.3 kmh 30.01 in1016.3 mb 0.00 in0.0 mm 0.00 in0.0 mm 0.00 in0.0 mm
03:47 PM 80.6°F27.0°C 66.4°F19.1°C 62% 5.8 mph N9.3 kmh N 8.9 mph14.3 kmh 30.01 in1016.3 mb 0.00 in0.0 mm 0.00 in0.0 mm 0.00 in0.0 mm
03:48 PM 80.4°F26.9°C 66.6°F19.2°C 63% 3.7 mph NNW6.0 kmh NNW 8.9 mph14.3 kmh 30.01 in1016.3 mb 0.00 in0.0 mm 0.00 in0.0 mm 0.00 in0.0 mm
03:49 PM 80.4°F26.9°C 66.6°F19.2°C 63% 6.8 mph NNE10.9 kmh NNE 8.9 mph14.3 kmh 30.01 in1016.3 mb 0.00 in0.0 mm 0.00 in0.0 mm 0.00 in0.0 mm
03:50 PM 80.2°F26.8°C 66.4°F19.1°C 63% 4.7 mph S7.6 kmh S 8.9 mph14.3 kmh 30.01 in1016.3 mb 0.00 in0.0 mm 0.00 in0.0 mm 0.00 in0.0 mm
03:51 PM 79.9°F26.6°C 66.6°F19.2°C 64% 4.2 mph NNW6.8 kmh NNW 7.8 mph12.6 kmh 30.01 in1016.3 mb 0.00 in0.0 mm 0.00 in0.0 mm 0.00 in0.0 mm
03:52 PM 79.9°F26.6°C 66.6°F19.2°C 64% 8.3 mph NW13.4 kmh NW 8.3 mph13.4 kmh 30.01 in1016.3 mb 0.00 in0.0 mm 0.00 in0.0 mm 0.00 in0.0 mm
03:53 PM 79.7°F26.5°C 66.4°F19.1°C 64% 6.3 mph N10.1 kmh N 8.3 mph13.4 kmh 30.01 in1016.3 mb 0.00 in0.0 mm 0.00 in0.0 mm 0.00 in0.0 mm
03:54 PM 79.7°F26.5°C 66.4°F19.1°C 64% 5.3 mph ENE8.5 kmh ENE 8.3 mph13.4 kmh 30.01 in1016.3 mb 0.00 in0.0 mm 0.00 in0.0 mm 0.00 in0.0 mm
03:55 PM 79.3°F26.3°C 66.0°F18.9°C 64% 6.3 mph NW10.1 kmh NW 8.3 mph13.4 kmh 30.01 in1016.3 mb 0.00 in0.0 mm 0.00 in0.0 mm 0.00 in0.0 mm
03:56 PM 79.2°F26.2°C 66.0°F18.9°C 64% 7.8 mph W12.6 kmh W 8.3 mph13.4 kmh 30.01 in1016.3 mb 0.00 in0.0 mm 0.00 in0.0 mm 0.00 in0.0 mm
03:57 PM 79.0°F26.1°C 65.8°F18.8°C 64% 5.8 mph NNE9.3 kmh NNE 8.3 mph13.4 kmh 30.01 in1016.3 mb 0.00 in0.0 mm 0.00 in0.0 mm 0.00 in0.0 mm
03:58 PM 79.0°F26.1°C 65.8°F18.8°C 64% 5.8 mph N9.3 kmh N 8.3 mph13.4 kmh 30.01 in1016.3 mb 0.00 in0.0 mm 0.00 in0.0 mm 0.00 in0.0 mm
03:59 PM 79.0°F26.1°C 66.2°F19.0°C 65% 4.2 mph NW6.8 kmh NW 8.3 mph13.4 kmh 30.01 in1016.3 mb 0.00 in0.0 mm 0.00 in0.0 mm 0.00 in0.0 mm
04:00 PM 79.0°F26.1°C 66.2°F19.0°C 65% 4.2 mph N6.8 kmh N 8.3 mph13.4 kmh 30.01 in1016.3 mb 0.00 in0.0 mm 0.00 in0.0 mm 0.00 in0.0 mm
04:01 PM 79.0°F26.1°C 66.2°F19.0°C 65% 4.7 mph NW7.6 kmh NW 8.3 mph13.4 kmh 30.01 in1016.3 mb 0.00 in0.0 mm 0.00 in0.0 mm 0.00 in0.0 mm
04:02 PM 78.8°F26.0°C 66.0°F18.9°C 65% 6.8 mph NNE10.9 kmh NNE 8.3 mph13.4 kmh 30.01 in1016.3 mb 0.00 in0.0 mm 0.00 in0.0 mm 0.00 in0.0 mm
04:03 PM 78.8°F26.0°C 66.0°F18.9°C 65% 5.8 mph W9.3 kmh W 8.3 mph13.4 kmh 30.01 in1016.3 mb 0.00 in0.0 mm 0.00 in0.0 mm 0.00 in0.0 mm
04:04 PM 78.6°F25.9°C 65.8°F18.8°C 65% 6.8 mph NW10.9 kmh NW 8.3 mph13.4 kmh 30.01 in1016.3 mb 0.00 in0.0 mm 0.00 in0.0 mm 0.00 in0.0 mm
04:05 PM 78.4°F25.8°C 65.6°F18.7°C 65% 8.9 mph NNW14.3 kmh NNW 8.9 mph14.3 kmh 30.01 in1016.3 mb 0.00 in0.0 mm 0.00 in0.0 mm 0.00 in0.0 mm
04:06 PM 78.3°F25.7°C 65.5°F18.6°C 65% 7.8 mph NW12.6 kmh NW 8.9 mph14.3 kmh 30.01 in1016.3 mb 0.00 in0.0 mm 0.00 in0.0 mm 0.00 in0.0 mm
04:07 PM 78.1°F25.6°C 65.4°F18.6°C 65% 6.8 mph NNW10.9 kmh NNW 8.9 mph14.3 kmh 30.02 in1016.6 mb 0.00 in0.0 mm 0.00 in0.0 mm 0.00 in0.0 mm
04:08 PM 77.9°F25.5°C 65.2°F18.4°C 65% 4.7 mph WNW7.6 kmh WNW 8.9 mph14.3 kmh 30.02 in1016.6 mb 0.00 in0.0 mm 0.00 in0.0 mm 0.00 in0.0 mm
04:09 PM 77.7°F25.4°C 65.0°F18.3°C 65% 6.8 mph N10.9 kmh N 9.4 mph15.1 kmh 30.02 in1016.6 mb 0.00 in0.0 mm 0.00 in0.0 mm 0.00 in0.0 mm
04:10 PM 77.7°F25.4°C 65.0°F18.3°C 65% 6.3 mph NNE10.1 kmh NNE 9.4 mph15.1 kmh 30.02 in1016.6 mb 0.00 in0.0 mm 0.00 in0.0 mm 0.00 in0.0 mm
04:11 PM 77.5°F25.3°C 65.2°F18.4°C 66% 8.3 mph NE13.4 kmh NE 9.4 mph15.1 kmh 30.02 in1016.6 mb 0.00 in0.0 mm 0.00 in0.0 mm 0.00 in0.0 mm
04:12 PM 77.4°F25.2°C 65.1°F18.4°C 66% 5.3 mph N8.5 kmh N 9.4 mph15.1 kmh 30.02 in1016.6 mb 0.00 in0.0 mm 0.00 in0.0 mm 0.00 in0.0 mm
04:13 PM 77.2°F25.1°C 64.9°F18.3°C 66% 5.8 mph WNW9.3 kmh WNW 9.4 mph15.1 kmh 30.02 in1016.6 mb 0.00 in0.0 mm 0.00 in0.0 mm 0.00 in0.0 mm
04:14 PM 77.2°F25.1°C 65.4°F18.6°C 67% 7.3 mph NW11.7 kmh NW 9.4 mph15.1 kmh 30.02 in1016.6 mb 0.00 in0.0 mm 0.00 in0.0 mm 0.00 in0.0 mm
04:15 PM 77.0°F25.0°C 65.2°F18.4°C 67% 6.3 mph ENE10.1 kmh ENE 9.4 mph15.1 kmh 30.02 in1016.6 mb 0.00 in0.0 mm 0.00 in0.0 mm 0.00 in0.0 mm
04:16 PM 77.0°F25.0°C 65.2°F18.4°C 67% 4.2 mph NE6.8 kmh NE 9.4 mph15.1 kmh 30.02 in1016.6 mb 0.00 in0.0 mm 0.00 in0.0 mm 0.00 in0.0 mm
04:17 PM 77.2°F25.1°C 65.4°F18.6°C 67% 4.7 mph NNW7.6 kmh NNW 9.4 mph15.1 kmh 30.02 in1016.6 mb 0.00 in0.0 mm 0.00 in0.0 mm 0.00 in0.0 mm
04:18 PM 77.2°F25.1°C 65.4°F18.6°C 67% 6.3 mph NNW10.1 kmh NNW 9.4 mph15.1 kmh 30.02 in1016.6 mb 0.00 in0.0 mm 0.00 in0.0 mm 0.00 in0.0 mm
04:19 PM 77.2°F25.1°C 65.4°F18.6°C 67% 5.8 mph W9.3 kmh W 8.9 mph14.3 kmh 30.02 in1016.6 mb 0.00 in0.0 mm 0.00 in0.0 mm 0.00 in0.0 mm
04:20 PM 77.2°F25.1°C 65.4°F18.6°C 67% 6.8 mph N10.9 kmh N 8.9 mph14.3 kmh 30.02 in1016.6 mb 0.00 in0.0 mm 0.00 in0.0 mm 0.00 in0.0 mm
04:21 PM 77.2°F25.1°C 65.4°F18.6°C 67% 4.7 mph WNW7.6 kmh WNW 8.9 mph14.3 kmh 30.02 in1016.6 mb 0.00 in0.0 mm 0.00 in0.0 mm 0.00 in0.0 mm
04:22 PM 77.2°F25.1°C 65.4°F18.6°C 67% 6.8 mph NNE10.9 kmh NNE 8.9 mph14.3 kmh 30.02 in1016.6 mb 0.00 in0.0 mm 0.00 in0.0 mm 0.00 in0.0 mm
04:23 PM 77.2°F25.1°C 65.4°F18.6°C 67% 5.3 mph WNW8.5 kmh WNW 8.9 mph14.3 kmh 30.02 in1016.6 mb 0.00 in0.0 mm 0.00 in0.0 mm 0.00 in0.0 mm
04:24 PM 77.2°F25.1°C 64.9°F18.3°C 66% 6.8 mph WNW10.9 kmh WNW 8.9 mph14.3 kmh 30.02 in1016.6 mb 0.00 in0.0 mm 0.00 in0.0 mm 0.00 in0.0 mm
04:25 PM 77.2°F25.1°C 64.9°F18.3°C 66% 5.3 mph NNW8.5 kmh NNW 8.9 mph14.3 kmh 30.02 in1016.6 mb 0.00 in0.0 mm 0.00 in0.0 mm 0.00 in0.0 mm
04:26 PM 77.4°F25.2°C 65.1°F18.4°C 66% 6.3 mph WNW10.1 kmh WNW 7.8 mph12.6 kmh 30.02 in1016.6 mb 0.00 in0.0 mm 0.00 in0.0 mm 0.00 in0.0 mm
04:27 PM 77.4°F25.2°C 65.1°F18.4°C 66% 4.2 mph NNE6.8 kmh NNE 7.8 mph12.6 kmh 30.02 in1016.6 mb 0.00 in0.0 mm 0.00 in0.0 mm 0.00 in0.0 mm
04:28 PM 77.4°F25.2°C 65.1°F18.4°C 66% 6.3 mph WNW10.1 kmh WNW 7.8 mph12.6 kmh 30.02 in1016.6 mb 0.00 in0.0 mm 0.00 in0.0 mm 0.00 in0.0 mm
04:29 PM 77.4°F25.2°C 65.1°F18.4°C 66% 6.3 mph NNW10.1 kmh NNW 10.9 mph17.5 kmh 30.02 in1016.6 mb 0.00 in0.0 mm 0.00 in0.0 mm 0.00 in0.0 mm
04:30 PM 77.5°F25.3°C 65.2°F18.4°C 66% 3.7 mph NNW6.0 kmh NNW 10.9 mph17.5 kmh 30.02 in1016.6 mb 0.00 in0.0 mm 0.00 in0.0 mm 0.00 in0.0 mm
04:31 PM 77.5°F25.3°C 65.2°F18.4°C 66% 6.8 mph WNW10.9 kmh WNW 10.9 mph17.5 kmh 30.02 in1016.6 mb 0.00 in0.0 mm 0.00 in0.0 mm 0.00 in0.0 mm
04:32 PM 77.4°F25.2°C 65.1°F18.4°C 66% 8.3 mph NNW13.4 kmh NNW 10.9 mph17.5 kmh 30.02 in1016.6 mb 0.00 in0.0 mm 0.00 in0.0 mm 0.00 in0.0 mm
04:33 PM 77.2°F25.1°C 64.9°F18.3°C 66% 5.8 mph WNW9.3 kmh WNW 10.9 mph17.5 kmh 30.02 in1016.6 mb 0.00 in0.0 mm 0.00 in0.0 mm 0.00 in0.0 mm
04:34 PM 77.2°F25.1°C 64.9°F18.3°C 66% 7.3 mph NNW11.7 kmh NNW 10.9 mph17.5 kmh 30.02 in1016.6 mb 0.00 in0.0 mm 0.00 in0.0 mm 0.00 in0.0 mm
04:35 PM 77.2°F25.1°C 64.9°F18.3°C 66% 8.9 mph NW14.3 kmh NW 10.9 mph17.5 kmh 30.02 in1016.6 mb 0.00 in0.0 mm 0.00 in0.0 mm 0.00 in0.0 mm
04:36 PM 77.2°F25.1°C 64.5°F18.1°C 65% 9.4 mph NNW15.1 kmh NNW 10.9 mph17.5 kmh 30.02 in1016.6 mb 0.00 in0.0 mm 0.00 in0.0 mm 0.00 in0.0 mm
04:37 PM 77.2°F25.1°C 64.5°F18.1°C 65% 4.7 mph N7.6 kmh N 10.9 mph17.5 kmh 30.02 in1016.6 mb 0.00 in0.0 mm 0.00 in0.0 mm 0.00 in0.0 mm
04:38 PM 77.2°F25.1°C 64.5°F18.1°C 65% 5.8 mph E9.3 kmh E 10.9 mph17.5 kmh 30.02 in1016.6 mb 0.00 in0.0 mm 0.00 in0.0 mm 0.00 in0.0 mm
04:39 PM 77.2°F25.1°C 64.5°F18.1°C 65% 4.7 mph NW7.6 kmh NW 9.4 mph15.1 kmh 30.02 in1016.6 mb 0.00 in0.0 mm 0.00 in0.0 mm 0.00 in0.0 mm
04:40 PM 77.2°F25.1°C 64.5°F18.1°C 65% 7.3 mph WNW11.7 kmh WNW 9.4 mph15.1 kmh 30.02 in1016.6 mb 0.00 in0.0 mm 0.00 in0.0 mm 0.00 in0.0 mm
04:41 PM 77.2°F25.1°C 63.6°F17.6°C 63% 7.3 mph N11.7 kmh N 9.4 mph15.1 kmh 30.02 in1016.6 mb 0.00 in0.0 mm 0.00 in0.0 mm 0.00 in0.0 mm
04:42 PM 77.0°F25.0°C 63.4°F17.4°C 63% 10.4 mph N16.7 kmh N 10.4 mph16.7 kmh 30.02 in1016.6 mb 0.00 in0.0 mm 0.00 in0.0 mm 0.00 in0.0 mm
04:43 PM 76.8°F24.9°C 63.2°F17.3°C 63% 8.3 mph WNW13.4 kmh WNW 10.4 mph16.7 kmh 30.02 in1016.6 mb 0.00 in0.0 mm 0.00 in0.0 mm 0.00 in0.0 mm
04:44 PM 76.8°F24.9°C 63.2°F17.3°C 63% 5.3 mph NW8.5 kmh NW 10.4 mph16.7 kmh 30.02 in1016.6 mb 0.00 in0.0 mm 0.00 in0.0 mm 0.00 in0.0 mm
04:45 PM 76.8°F24.9°C 63.2°F17.3°C 63% 5.8 mph WNW9.3 kmh WNW 10.4 mph16.7 kmh 30.02 in1016.6 mb 0.00 in0.0 mm 0.00 in0.0 mm 0.00 in0.0 mm
04:46 PM 76.6°F24.8°C 62.6°F17.0°C 62% 5.8 mph NW9.3 kmh NW 10.4 mph16.7 kmh 30.02 in1016.6 mb 0.00 in0.0 mm 0.00 in0.0 mm 0.00 in0.0 mm
04:47 PM 76.5°F24.7°C 62.5°F16.9°C 62% 5.8 mph W9.3 kmh W 10.4 mph16.7 kmh 30.02 in1016.6 mb 0.00 in0.0 mm 0.00 in0.0 mm 0.00 in0.0 mm
04:48 PM 76.5°F24.7°C 62.5°F16.9°C 62% 4.7 mph WNW7.6 kmh WNW 10.4 mph16.7 kmh 30.02 in1016.6 mb 0.00 in0.0 mm 0.00 in0.0 mm 0.00 in0.0 mm
04:49 PM 76.5°F24.7°C 62.5°F16.9°C 62% 6.8 mph N10.9 kmh N 10.4 mph16.7 kmh 30.02 in1016.6 mb 0.00 in0.0 mm 0.00 in0.0 mm 0.00 in0.0 mm
04:50 PM 76.3°F24.6°C 62.3°F16.8°C 62% 8.3 mph NW13.4 kmh NW 10.4 mph16.7 kmh 30.02 in1016.6 mb 0.00 in0.0 mm 0.00 in0.0 mm 0.00 in0.0 mm
04:51 PM 76.3°F24.6°C 62.3°F16.8°C 62% 5.8 mph WNW9.3 kmh WNW 10.4 mph16.7 kmh 30.02 in1016.6 mb 0.00 in0.0 mm 0.00 in0.0 mm 0.00 in0.0 mm
04:52 PM 76.3°F24.6°C 62.3°F16.8°C 62% 7.8 mph NNW12.6 kmh NNW 10.4 mph16.7 kmh 30.02 in1016.6 mb 0.00 in0.0 mm 0.00 in0.0 mm 0.00 in0.0 mm
04:53 PM 76.1°F24.5°C 62.1°F16.7°C 62% 7.3 mph NNW11.7 kmh NNW 10.4 mph16.7 kmh 30.02 in1016.6 mb 0.00 in0.0 mm 0.00 in0.0 mm 0.00 in0.0 mm
04:54 PM 76.1°F24.5°C 62.1°F16.7°C 62% 4.7 mph SE7.6 kmh SE 10.4 mph16.7 kmh 30.02 in1016.6 mb 0.00 in0.0 mm 0.00 in0.0 mm 0.00 in0.0 mm
04:55 PM 76.1°F24.5°C 62.6°F17.0°C 63% 3.7 mph NNW6.0 kmh NNW 10.4 mph16.7 kmh 30.02 in1016.6 mb 0.00 in0.0 mm 0.00 in0.0 mm 0.00 in0.0 mm
04:56 PM 76.1°F24.5°C 62.6°F17.0°C 63% 8.9 mph NNW14.3 kmh NNW 9.9 mph15.9 kmh 30.02 in1016.6 mb 0.00 in0.0 mm 0.00 in0.0 mm 0.00 in0.0 mm
04:57 PM 76.1°F24.5°C 62.6°F17.0°C 63% 6.3 mph NW10.1 kmh NW 9.9 mph15.9 kmh 30.02 in1016.6 mb 0.00 in0.0 mm 0.00 in0.0 mm 0.00 in0.0 mm
04:58 PM 75.9°F24.4°C 61.9°F16.6°C 62% 6.3 mph NE10.1 kmh NE 9.9 mph15.9 kmh 30.02 in1016.6 mb 0.00 in0.0 mm 0.00 in0.0 mm 0.00 in0.0 mm
04:59 PM 75.9°F24.4°C 61.9°F16.6°C 62% 5.8 mph WNW9.3 kmh WNW 9.9 mph15.9 kmh 30.02 in1016.6 mb 0.00 in0.0 mm 0.00 in0.0 mm 0.00 in0.0 mm
05:00 PM 75.7°F24.3°C 61.7°F16.5°C 62% 6.3 mph N10.1 kmh N 9.4 mph15.1 kmh 30.02 in1016.6 mb 0.00 in0.0 mm 0.00 in0.0 mm 0.00 in0.0 mm
05:01 PM 75.7°F24.3°C 61.7°F16.5°C 62% 6.3 mph N10.1 kmh N 9.4 mph15.1 kmh 30.02 in1016.6 mb 0.00 in0.0 mm 0.00 in0.0 mm 0.00 in0.0 mm
05:02 PM 75.7°F24.3°C 61.7°F16.5°C 62% 5.3 mph N8.5 kmh N 9.4 mph15.1 kmh 30.02 in1016.6 mb 0.00 in0.0 mm 0.00 in0.0 mm 0.00 in0.0 mm
05:03 PM 75.9°F24.4°C 61.9°F16.6°C 62% 4.7 mph NW7.6 kmh NW 8.9 mph14.3 kmh 30.02 in1016.6 mb 0.00 in0.0 mm 0.00 in0.0 mm 0.00 in0.0 mm
05:04 PM 76.1°F24.5°C 62.1°F16.7°C 62% 4.7 mph NNW7.6 kmh NNW 8.9 mph14.3 kmh 30.02 in1016.6 mb 0.00 in0.0 mm 0.00 in0.0 mm 0.00 in0.0 mm
05:05 PM 76.1°F24.5°C 62.1°F16.7°C 62% 10.4 mph NE16.7 kmh NE 10.4 mph16.7 kmh 30.02 in1016.6 mb 0.00 in0.0 mm 0.00 in0.0 mm 0.00 in0.0 mm
05:06 PM 76.1°F24.5°C 62.1°F16.7°C 62% 5.3 mph NNE8.5 kmh NNE 10.4 mph16.7 kmh 30.02 in1016.6 mb 0.00 in0.0 mm 0.00 in0.0 mm 0.00 in0.0 mm
05:07 PM 76.1°F24.5°C 62.1°F16.7°C 62% 4.7 mph WSW7.6 kmh WSW 10.4 mph16.7 kmh 30.02 in1016.6 mb 0.00 in0.0 mm 0.00 in0.0 mm 0.00 in0.0 mm
05:08 PM 76.1°F24.5°C 62.1°F16.7°C 62% 5.3 mph NNE8.5 kmh NNE 10.4 mph16.7 kmh 30.02 in1016.6 mb 0.00 in0.0 mm 0.00 in0.0 mm 0.00 in0.0 mm
05:09 PM 76.1°F24.5°C 62.1°F16.7°C 62% 5.8 mph W9.3 kmh W 10.4 mph16.7 kmh 30.02 in1016.6 mb 0.00 in0.0 mm 0.00 in0.0 mm 0.00 in0.0 mm
05:10 PM 76.1°F24.5°C 62.1°F16.7°C 62% 6.8 mph N10.9 kmh N 10.4 mph16.7 kmh 30.02 in1016.6 mb 0.00 in0.0 mm 0.00 in0.0 mm 0.00 in0.0 mm
05:11 PM 76.1°F24.5°C 61.7°F16.5°C 61% 5.8 mph N9.3 kmh N 10.4 mph16.7 kmh 30.02 in1016.6 mb 0.00 in0.0 mm 0.00 in0.0 mm 0.00 in0.0 mm
05:12 PM 76.1°F24.5°C 61.7°F16.5°C 61% 5.8 mph ENE9.3 kmh ENE 10.4 mph16.7 kmh 30.02 in1016.6 mb 0.00 in0.0 mm 0.00 in0.0 mm 0.00 in0.0 mm
05:13 PM 76.1°F24.5°C 61.7°F16.5°C 61% 6.3 mph WNW10.1 kmh WNW 10.4 mph16.7 kmh 30.02 in1016.6 mb 0.00 in0.0 mm 0.00 in0.0 mm 0.00 in0.0 mm
05:14 PM 76.1°F24.5°C 61.7°F16.5°C 61% 7.8 mph NNW12.6 kmh NNW 10.4 mph16.7 kmh 30.02 in1016.6 mb 0.00 in0.0 mm 0.00 in0.0 mm 0.00 in0.0 mm
05:15 PM 76.1°F24.5°C 61.2°F16.2°C 60% 5.3 mph NNW8.5 kmh NNW 10.4 mph16.7 kmh 30.02 in1016.6 mb 0.00 in0.0 mm 0.00 in0.0 mm 0.00 in0.0 mm
05:16 PM 76.1°F24.5°C 61.2°F16.2°C 60% 6.8 mph NW10.9 kmh NW 10.4 mph16.7 kmh 30.02 in1016.6 mb 0.00 in0.0 mm 0.00 in0.0 mm 0.00 in0.0 mm
05:17 PM 76.1°F24.5°C 61.2°F16.2°C 60% 8.3 mph E13.4 kmh E 10.4 mph16.7 kmh 30.02 in1016.6 mb 0.00 in0.0 mm 0.00 in0.0 mm 0.00 in0.0 mm
05:18 PM 76.1°F24.5°C 61.2°F16.2°C 60% 4.7 mph WNW7.6 kmh WNW 10.4 mph16.7 kmh 30.02 in1016.6 mb 0.00 in0.0 mm 0.00 in0.0 mm 0.00 in0.0 mm
05:19 PM 75.9°F24.4°C 61.0°F16.1°C 60% 7.3 mph NNW11.7 kmh NNW 10.4 mph16.7 kmh 30.02 in1016.6 mb 0.00 in0.0 mm 0.00 in0.0 mm 0.00 in0.0 mm
05:20 PM 75.9°F24.4°C 61.0°F16.1°C 60% 6.8 mph NNW10.9 kmh NNW 10.4 mph16.7 kmh 30.02 in1016.6 mb 0.00 in0.0 mm 0.00 in0.0 mm 0.00 in0.0 mm
05:21 PM 75.9°F24.4°C 61.5°F16.4°C 61% 7.8 mph W12.6 kmh W 10.4 mph16.7 kmh 30.02 in1016.6 mb 0.00 in0.0 mm 0.00 in0.0 mm 0.00 in0.0 mm
05:22 PM 75.7°F24.3°C 61.3°F16.3°C 61% 6.3 mph SSE10.1 kmh SSE 10.4 mph16.7 kmh 30.02 in1016.6 mb 0.00 in0.0 mm 0.00 in0.0 mm 0.00 in0.0 mm
05:23 PM 75.7°F24.3°C 61.3°F16.3°C 61% 5.8 mph NNW9.3 kmh NNW 10.4 mph16.7 kmh 30.02 in1016.6 mb 0.00 in0.0 mm 0.00 in0.0 mm 0.00 in0.0 mm
05:24 PM 75.7°F24.3°C 61.3°F16.3°C 61% 7.8 mph NNE12.6 kmh NNE 10.4 mph16.7 kmh 30.02 in1016.6 mb 0.00 in0.0 mm 0.00 in0.0 mm 0.00 in0.0 mm
05:25 PM 75.7°F24.3°C 61.3°F16.3°C 61% 4.2 mph N6.8 kmh N 8.3 mph13.4 kmh 30.02 in1016.6 mb 0.00 in0.0 mm 0.00 in0.0 mm 0.00 in0.0 mm
05:26 PM 75.7°F24.3°C 61.3°F16.3°C 61% 6.8 mph NNW10.9 kmh NNW 8.3 mph13.4 kmh 30.02 in1016.6 mb 0.00 in0.0 mm 0.00 in0.0 mm 0.00 in0.0 mm
05:27 PM 75.6°F24.2°C 61.2°F16.2°C 61% 3.7 mph NW6.0 kmh NW 8.3 mph13.4 kmh 30.02 in1016.6 mb 0.00 in0.0 mm 0.00 in0.0 mm 0.00 in0.0 mm
05:28 PM 75.6°F24.2°C 61.2°F16.2°C 61% 7.8 mph NNW12.6 kmh NNW 8.3 mph13.4 kmh 30.02 in1016.6 mb 0.00 in0.0 mm 0.00 in0.0 mm 0.00 in0.0 mm
05:29 PM 75.6°F24.2°C 61.2°F16.2°C 61% 6.8 mph WSW10.9 kmh WSW 8.3 mph13.4 kmh 30.02 in1016.6 mb 0.00 in0.0 mm 0.00 in0.0 mm 0.00 in0.0 mm
05:30 PM 75.4°F24.1°C 61.0°F16.1°C 61% 6.8 mph NNE10.9 kmh NNE 8.9 mph14.3 kmh 30.02 in1016.6 mb 0.00 in0.0 mm 0.00 in0.0 mm 0.00 in0.0 mm
05:31 PM 75.4°F24.1°C 61.0°F16.1°C 61% 4.2 mph NW6.8 kmh NW 8.9 mph14.3 kmh 30.02 in1016.6 mb 0.00 in0.0 mm 0.00 in0.0 mm 0.00 in0.0 mm
05:32 PM 75.4°F24.1°C 61.0°F16.1°C 61% 5.8 mph NE9.3 kmh NE 8.9 mph14.3 kmh 30.02 in1016.6 mb 0.00 in0.0 mm 0.00 in0.0 mm 0.00 in0.0 mm
05:33 PM 75.4°F24.1°C 61.0°F16.1°C 61% 7.3 mph WSW11.7 kmh WSW 8.9 mph14.3 kmh 30.02 in1016.6 mb 0.00 in0.0 mm 0.00 in0.0 mm 0.00 in0.0 mm
05:34 PM 75.4°F24.1°C 61.0°F16.1°C 61% 6.8 mph W10.9 kmh W 8.9 mph14.3 kmh 30.02 in1016.6 mb 0.00 in0.0 mm 0.00 in0.0 mm 0.00 in0.0 mm
05:35 PM 75.4°F24.1°C 61.5°F16.4°C 62% 5.8 mph N9.3 kmh N 8.9 mph14.3 kmh 30.02 in1016.6 mb 0.00 in0.0 mm 0.00 in0.0 mm 0.00 in0.0 mm
05:36 PM 75.2°F24.0°C 61.3°F16.3°C 62% 7.8 mph NNW12.6 kmh NNW 8.9 mph14.3 kmh 30.02 in1016.6 mb 0.00 in0.0 mm 0.00 in0.0 mm 0.00 in0.0 mm
05:37 PM 75.2°F24.0°C 61.3°F16.3°C 62% 7.3 mph NNW11.7 kmh NNW 8.9 mph14.3 kmh 30.02 in1016.6 mb 0.00 in0.0 mm 0.00 in0.0 mm 0.00 in0.0 mm
05:38 PM 75.0°F23.9°C 61.1°F16.2°C 62% 5.3 mph WNW8.5 kmh WNW 8.9 mph14.3 kmh 30.02 in1016.6 mb 0.00 in0.0 mm 0.00 in0.0 mm 0.00 in0.0 mm
05:39 PM 75.0°F23.9°C 61.1°F16.2°C 62% 6.3 mph N10.1 kmh N 8.9 mph14.3 kmh 30.02 in1016.6 mb 0.00 in0.0 mm 0.00 in0.0 mm 0.00 in0.0 mm
05:40 PM 75.0°F23.9°C 61.1°F16.2°C 62% 5.8 mph WNW9.3 kmh WNW 7.8 mph12.6 kmh 30.02 in1016.6 mb 0.00 in0.0 mm 0.00 in0.0 mm 0.00 in0.0 mm
05:41 PM 75.0°F23.9°C 61.1°F16.2°C 62% 5.3 mph N8.5 kmh N 7.8 mph12.6 kmh 30.02 in1016.6 mb 0.00 in0.0 mm 0.00 in0.0 mm 0.00 in0.0 mm
05:42 PM 75.0°F23.9°C 61.1°F16.2°C 62% 4.2 mph NW6.8 kmh NW 7.8 mph12.6 kmh 30.02 in1016.6 mb 0.00 in0.0 mm 0.00 in0.0 mm 0.00 in0.0 mm
05:43 PM 75.0°F23.9°C 61.1°F16.2°C 62% 5.3 mph NW8.5 kmh NW 7.8 mph12.6 kmh 30.02 in1016.6 mb 0.00 in0.0 mm 0.00 in0.0 mm 0.00 in0.0 mm
05:44 PM 75.0°F23.9°C 60.6°F15.9°C 61% 4.7 mph N7.6 kmh N 8.3 mph13.4 kmh 30.02 in1016.6 mb 0.00 in0.0 mm 0.00 in0.0 mm 0.00 in0.0 mm
05:45 PM 75.0°F23.9°C 60.6°F15.9°C 61% 3.2 mph NW5.1 kmh NW 8.3 mph13.4 kmh 30.02 in1016.6 mb 0.00 in0.0 mm 0.00 in0.0 mm 0.00 in0.0 mm
05:46 PM 75.0°F23.9°C 60.6°F15.9°C 61% 4.7 mph WNW7.6 kmh WNW 8.3 mph13.4 kmh 30.02 in1016.6 mb 0.00 in0.0 mm 0.00 in0.0 mm 0.00 in0.0 mm
05:47 PM 75.0°F23.9°C 60.6°F15.9°C 61% 4.2 mph WNW6.8 kmh WNW 8.3 mph13.4 kmh 30.02 in1016.6 mb 0.00 in0.0 mm 0.00 in0.0 mm 0.00 in0.0 mm
05:48 PM 74.8°F23.8°C 59.5°F15.3°C 59% 6.3 mph NW10.1 kmh NW 9.4 mph15.1 kmh 30.02 in1016.6 mb 0.00 in0.0 mm 0.00 in0.0 mm 0.00 in0.0 mm
05:49 PM 74.8°F23.8°C 59.5°F15.3°C 59% 8.3 mph NNE13.4 kmh NNE 9.4 mph15.1 kmh 30.02 in1016.6 mb 0.00 in0.0 mm 0.00 in0.0 mm 0.00 in0.0 mm
05:50 PM 74.8°F23.8°C 58.5°F14.7°C 57% 4.7 mph NNE7.6 kmh NNE 9.4 mph15.1 kmh 30.02 in1016.6 mb 0.00 in0.0 mm 0.00 in0.0 mm 0.00 in0.0 mm
05:51 PM 74.8°F23.8°C 58.5°F14.7°C 57% 5.8 mph W9.3 kmh W 9.4 mph15.1 kmh 30.02 in1016.6 mb 0.00 in0.0 mm 0.00 in0.0 mm 0.00 in0.0 mm
05:52 PM 74.8°F23.8°C 58.0°F14.4°C 56% 3.2 mph NNW5.1 kmh NNW 9.4 mph15.1 kmh 30.02 in1016.6 mb 0.00 in0.0 mm 0.00 in0.0 mm 0.00 in0.0 mm
05:53 PM 74.8°F23.8°C 57.0°F13.9°C 54% 5.8 mph W9.3 kmh W 9.4 mph15.1 kmh 30.02 in1016.6 mb 0.00 in0.0 mm 0.00 in0.0 mm 0.00 in0.0 mm
05:54 PM 74.8°F23.8°C 56.5°F13.6°C 53% 4.7 mph W7.6 kmh W 9.4 mph15.1 kmh 30.02 in1016.6 mb 0.00 in0.0 mm 0.00 in0.0 mm 0.00 in0.0 mm
05:55 PM 74.8°F23.8°C 56.0°F13.3°C 52% 6.8 mph NNW10.9 kmh NNW 9.4 mph15.1 kmh 30.03 in1016.9 mb 0.00 in0.0 mm 0.00 in0.0 mm 0.00 in0.0 mm
05:56 PM 74.8°F23.8°C 55.4°F13.0°C 51% 5.3 mph NNW8.5 kmh NNW 9.4 mph15.1 kmh 30.03 in1016.9 mb 0.00 in0.0 mm 0.00 in0.0 mm 0.00 in0.0 mm
05:57 PM 74.8°F23.8°C 55.4°F13.0°C 51% 5.3 mph NE8.5 kmh NE 9.4 mph15.1 kmh 30.03 in1016.9 mb 0.00 in0.0 mm 0.00 in0.0 mm 0.00 in0.0 mm
05:58 PM 74.8°F23.8°C 55.4°F13.0°C 51% 5.8 mph NW9.3 kmh NW 8.9 mph14.3 kmh 30.03 in1016.9 mb 0.00 in0.0 mm 0.00 in0.0 mm 0.00 in0.0 mm
05:59 PM 74.8°F23.8°C 55.4°F13.0°C 51% 6.8 mph NW10.9 kmh NW 9.9 mph15.9 kmh 30.03 in1016.9 mb 0.00 in0.0 mm 0.00 in0.0 mm 0.00 in0.0 mm
06:00 PM 74.8°F23.8°C 55.4°F13.0°C 51% 4.7 mph WNW7.6 kmh WNW 9.9 mph15.9 kmh 30.03 in1016.9 mb 0.00 in0.0 mm 0.00 in0.0 mm 0.00 in0.0 mm
06:01 PM 74.8°F23.8°C 55.4°F13.0°C 51% 5.3 mph NW8.5 kmh NW 9.9 mph15.9 kmh 30.03 in1016.9 mb 0.00 in0.0 mm 0.00 in0.0 mm 0.00 in0.0 mm
06:02 PM 74.8°F23.8°C 55.4°F13.0°C 51% 5.8 mph NNW9.3 kmh NNW 9.9 mph15.9 kmh 30.03 in1016.9 mb 0.00 in0.0 mm 0.00 in0.0 mm 0.00 in0.0 mm
06:03 PM 74.7°F23.7°C 55.4°F13.0°C 51% 4.2 mph WNW6.8 kmh WNW 9.9 mph15.9 kmh 30.03 in1016.9 mb 0.00 in0.0 mm 0.00 in0.0 mm 0.00 in0.0 mm
06:04 PM 74.7°F23.7°C 55.4°F13.0°C 51% 5.3 mph NNW8.5 kmh NNW 9.9 mph15.9 kmh 30.03 in1016.9 mb 0.00 in0.0 mm 0.00 in0.0 mm 0.00 in0.0 mm
06:05 PM 74.7°F23.7°C 55.4°F13.0°C 51% 4.2 mph N6.8 kmh N 9.9 mph15.9 kmh 30.03 in1016.9 mb 0.00 in0.0 mm 0.00 in0.0 mm 0.00 in0.0 mm
06:06 PM 74.7°F23.7°C 55.4°F13.0°C 51% 4.7 mph NNW7.6 kmh NNW 9.9 mph15.9 kmh 30.03 in1016.9 mb 0.00 in0.0 mm 0.00 in0.0 mm 0.00 in0.0 mm
06:07 PM 74.7°F23.7°C 55.4°F13.0°C 51% 5.8 mph W9.3 kmh W 9.9 mph15.9 kmh 30.03 in1016.9 mb 0.00 in0.0 mm 0.00 in0.0 mm 0.00 in0.0 mm
06:08 PM 74.7°F23.7°C 55.4°F13.0°C 51% 4.2 mph NW6.8 kmh NW 9.9 mph15.9 kmh 30.03 in1016.9 mb 0.00 in0.0 mm 0.00 in0.0 mm 0.00 in0.0 mm
06:09 PM 74.7°F23.7°C 55.4°F13.0°C 51% 8.3 mph N13.4 kmh N 8.3 mph13.4 kmh 30.03 in1016.9 mb 0.00 in0.0 mm 0.00 in0.0 mm 0.00 in0.0 mm
06:10 PM 74.7°F23.7°C 55.4°F13.0°C 51% 6.8 mph NNW10.9 kmh NNW 9.4 mph15.1 kmh 30.03 in1016.9 mb 0.00 in0.0 mm 0.00 in0.0 mm 0.00 in0.0 mm
06:11 PM 74.5°F23.6°C 55.2°F12.9°C 51% 5.8 mph NW9.3 kmh NW 9.4 mph15.1 kmh 30.03 in1016.9 mb 0.00 in0.0 mm 0.00 in0.0 mm 0.00 in0.0 mm
06:12 PM 74.5°F23.6°C 55.2°F12.9°C 51% 4.7 mph NNE7.6 kmh NNE 9.4 mph15.1 kmh 30.03 in1016.9 mb 0.00 in0.0 mm 0.00 in0.0 mm 0.00 in0.0 mm
06:13 PM 74.5°F23.6°C 55.2°F12.9°C 51% 5.3 mph NNW8.5 kmh NNW 9.4 mph15.1 kmh 30.03 in1016.9 mb 0.00 in0.0 mm 0.00 in0.0 mm 0.00 in0.0 mm
06:14 PM 74.3°F23.5°C 55.0°F12.8°C 51% 7.8 mph NNE12.6 kmh NNE 9.4 mph15.1 kmh 30.03 in1016.9 mb 0.00 in0.0 mm 0.00 in0.0 mm 0.00 in0.0 mm
06:15 PM 74.3°F23.5°C 55.0°F12.8°C 51% 4.7 mph WNW7.6 kmh WNW 9.4 mph15.1 kmh 30.03 in1016.9 mb 0.00 in0.0 mm 0.00 in0.0 mm 0.00 in0.0 mm
06:16 PM 74.3°F23.5°C 55.0°F12.8°C 51% 5.3 mph NNW8.5 kmh NNW 9.4 mph15.1 kmh 30.03 in1016.9 mb 0.00 in0.0 mm 0.00 in0.0 mm 0.00 in0.0 mm
06:17 PM 74.1°F23.4°C 54.8°F12.7°C 51% 5.3 mph NW8.5 kmh NW 9.4 mph15.1 kmh 30.03 in1016.9 mb 0.00 in0.0 mm 0.00 in0.0 mm 0.00 in0.0 mm
06:18 PM 74.1°F23.4°C 54.8°F12.7°C 51% 5.3 mph NW8.5 kmh NW 9.4 mph15.1 kmh 30.03 in1016.9 mb 0.00 in0.0 mm 0.00 in0.0 mm 0.00 in0.0 mm
06:19 PM 74.1°F23.4°C 55.3°F12.9°C 52% 7.3 mph NNW11.7 kmh NNW 9.4 mph15.1 kmh 30.03 in1016.9 mb 0.00 in0.0 mm 0.00 in0.0 mm 0.00 in0.0 mm
06:20 PM 74.1°F23.4°C 55.3°F12.9°C 52% 6.3 mph NNW10.1 kmh NNW 8.9 mph14.3 kmh 30.03 in1016.9 mb 0.00 in0.0 mm 0.00 in0.0 mm 0.00 in0.0 mm
06:21 PM 74.1°F23.4°C 55.3°F12.9°C 52% 3.7 mph NW6.0 kmh NW 8.9 mph14.3 kmh 30.03 in1016.9 mb 0.00 in0.0 mm 0.00 in0.0 mm 0.00 in0.0 mm
06:22 PM 73.9°F23.3°C 55.2°F12.9°C 52% 5.3 mph NNE8.5 kmh NNE 8.9 mph14.3 kmh 30.03 in1016.9 mb 0.00 in0.0 mm 0.00 in0.0 mm 0.00 in0.0 mm
06:23 PM 73.9°F23.3°C 55.2°F12.9°C 52% 4.2 mph N6.8 kmh N 8.9 mph14.3 kmh 30.03 in1016.9 mb 0.00 in0.0 mm 0.00 in0.0 mm 0.00 in0.0 mm
06:24 PM 73.9°F23.3°C 55.2°F12.9°C 52% 3.7 mph NNW6.0 kmh NNW 8.9 mph14.3 kmh 30.03 in1016.9 mb 0.00 in0.0 mm 0.00 in0.0 mm 0.00 in0.0 mm
06:25 PM 73.9°F23.3°C 55.2°F12.9°C 52% 4.7 mph NW7.6 kmh NW 8.9 mph14.3 kmh 30.03 in1016.9 mb 0.00 in0.0 mm 0.00 in0.0 mm 0.00 in0.0 mm
06:26 PM 73.9°F23.3°C 55.2°F12.9°C 52% 3.7 mph N6.0 kmh N 8.9 mph14.3 kmh 30.03 in1016.9 mb 0.00 in0.0 mm 0.00 in0.0 mm 0.00 in0.0 mm
06:27 PM 73.8°F23.2°C 55.1°F12.8°C 52% 3.7 mph WNW6.0 kmh WNW 8.9 mph14.3 kmh 30.03 in1016.9 mb 0.00 in0.0 mm 0.00 in0.0 mm 0.00 in0.0 mm
06:28 PM 73.8°F23.2°C 55.1°F12.8°C 52% 5.8 mph NNW9.3 kmh NNW 8.9 mph14.3 kmh 30.03 in1016.9 mb 0.00 in0.0 mm 0.00 in0.0 mm 0.00 in0.0 mm
06:29 PM 73.8°F23.2°C 55.1°F12.8°C 52% 7.3 mph WNW11.7 kmh WNW 7.3 mph11.7 kmh 30.03 in1016.9 mb 0.00 in0.0 mm 0.00 in0.0 mm 0.00 in0.0 mm
06:30 PM 73.8°F23.2°C 55.1°F12.8°C 52% 3.7 mph N6.0 kmh N 7.3 mph11.7 kmh 30.03 in1016.9 mb 0.00 in0.0 mm 0.00 in0.0 mm 0.00 in0.0 mm
06:31 PM 73.8°F23.2°C 54.5°F12.5°C 51% 4.7 mph W7.6 kmh W 7.8 mph12.6 kmh 30.03 in1016.9 mb 0.00 in0.0 mm 0.00 in0.0 mm 0.00 in0.0 mm
06:32 PM 73.6°F23.1°C 54.3°F12.4°C 51% 5.3 mph NW8.5 kmh NW 7.8 mph12.6 kmh 30.03 in1016.9 mb 0.00 in0.0 mm 0.00 in0.0 mm 0.00 in0.0 mm
06:33 PM 73.6°F23.1°C 53.8°F12.1°C 50% 6.8 mph N10.9 kmh N 7.8 mph12.6 kmh 30.03 in1016.9 mb 0.00 in0.0 mm 0.00 in0.0 mm 0.00 in0.0 mm
06:34 PM 73.6°F23.1°C 53.8°F12.1°C 50% 6.3 mph N10.1 kmh N 7.8 mph12.6 kmh 30.03 in1016.9 mb 0.00 in0.0 mm 0.00 in0.0 mm 0.00 in0.0 mm
06:35 PM 73.6°F23.1°C 53.8°F12.1°C 50% 7.3 mph NW11.7 kmh NW 7.8 mph12.6 kmh 30.03 in1016.9 mb 0.00 in0.0 mm 0.00 in0.0 mm 0.00 in0.0 mm
06:36 PM 73.6°F23.1°C 53.8°F12.1°C 50% 6.3 mph N10.1 kmh N 7.8 mph12.6 kmh 30.03 in1016.9 mb 0.00 in0.0 mm 0.00 in0.0 mm 0.00 in0.0 mm
06:37 PM 73.6°F23.1°C 54.3°F12.4°C 51% 5.3 mph WNW8.5 kmh WNW 7.8 mph12.6 kmh 30.03 in1016.9 mb 0.00 in0.0 mm 0.00 in0.0 mm 0.00 in0.0 mm
06:38 PM 73.6°F23.1°C 54.3°F12.4°C 51% 6.8 mph WNW10.9 kmh WNW 7.8 mph12.6 kmh 30.03 in1016.9 mb 0.00 in0.0 mm 0.00 in0.0 mm 0.00 in0.0 mm
06:39 PM 73.6°F23.1°C 54.3°F12.4°C 51% 4.2 mph WNW6.8 kmh WNW 7.8 mph12.6 kmh 30.03 in1016.9 mb 0.00 in0.0 mm 0.00 in0.0 mm 0.00 in0.0 mm
06:40 PM 73.4°F23.0°C 54.2°F12.3°C 51% 4.7 mph NNW7.6 kmh NNW 7.8 mph12.6 kmh 30.03 in1016.9 mb 0.00 in0.0 mm 0.00 in0.0 mm 0.00 in0.0 mm
06:41 PM 73.4°F23.0°C 54.2°F12.3°C 51% 4.7 mph NNW7.6 kmh NNW 7.8 mph12.6 kmh 30.03 in1016.9 mb 0.00 in0.0 mm 0.00 in0.0 mm 0.00 in0.0 mm
06:42 PM 73.4°F23.0°C 54.2°F12.3°C 51% 4.2 mph W6.8 kmh W 7.8 mph12.6 kmh 30.03 in1016.9 mb 0.00 in0.0 mm 0.00 in0.0 mm 0.00 in0.0 mm
06:43 PM 73.4°F23.0°C 54.2°F12.3°C 51% 3.2 mph ESE5.1 kmh ESE 7.8 mph12.6 kmh 30.03 in1016.9 mb 0.00 in0.0 mm 0.00 in0.0 mm 0.00 in0.0 mm
06:44 PM 73.4°F23.0°C 54.2°F12.3°C 51% 4.2 mph NNW6.8 kmh NNW 6.8 mph10.9 kmh 30.04 in1017.3 mb 0.00 in0.0 mm 0.00 in0.0 mm 0.00 in0.0 mm
06:45 PM 73.4°F23.0°C 54.2°F12.3°C 51% 2.7 mph NW4.3 kmh NW 6.8 mph10.9 kmh 30.04 in1017.3 mb 0.00 in0.0 mm 0.00 in0.0 mm 0.00 in0.0 mm
06:46 PM 73.4°F23.0°C 54.7°F12.6°C 52% 3.2 mph NNW5.1 kmh NNW 6.8 mph10.9 kmh 30.04 in1017.3 mb 0.00 in0.0 mm 0.00 in0.0 mm 0.00 in0.0 mm
06:47 PM 73.2°F22.9°C 54.5°F12.5°C 52% 2.7 mph NW4.3 kmh NW 6.8 mph10.9 kmh 30.04 in1017.3 mb 0.00 in0.0 mm 0.00 in0.0 mm 0.00 in0.0 mm
06:48 PM 73.2°F22.9°C 54.5°F12.5°C 52% 4.7 mph NNW7.6 kmh NNW 6.8 mph10.9 kmh 30.04 in1017.3 mb 0.00 in0.0 mm 0.00 in0.0 mm 0.00 in0.0 mm
06:49 PM 73.2°F22.9°C 54.5°F12.5°C 52% 1.1 mph W1.8 kmh W 6.3 mph10.1 kmh 30.04 in1017.3 mb 0.00 in0.0 mm 0.00 in0.0 mm 0.00 in0.0 mm
06:50 PM 73.2°F22.9°C 54.5°F12.5°C 52% 4.2 mph N6.8 kmh N 6.3 mph10.1 kmh 30.04 in1017.3 mb 0.00 in0.0 mm 0.00 in0.0 mm 0.00 in0.0 mm
06:51 PM 73.0°F22.8°C 54.3°F12.4°C 52% 4.2 mph NNE6.8 kmh NNE 5.8 mph9.3 kmh 30.04 in1017.3 mb 0.00 in0.0 mm 0.00 in0.0 mm 0.00 in0.0 mm
06:52 PM 73.0°F22.8°C 53.8°F12.1°C 51% 4.7 mph NNW7.6 kmh NNW 5.8 mph9.3 kmh 30.04 in1017.3 mb 0.00 in0.0 mm 0.00 in0.0 mm 0.00 in0.0 mm
06:53 PM 73.0°F22.8°C 53.8°F12.1°C 51% 2.7 mph N4.3 kmh N 5.8 mph9.3 kmh 30.04 in1017.3 mb 0.00 in0.0 mm 0.00 in0.0 mm 0.00 in0.0 mm
06:54 PM 73.0°F22.8°C 53.8°F12.1°C 51% 4.7 mph WNW7.6 kmh WNW 5.8 mph9.3 kmh 30.04 in1017.3 mb 0.00 in0.0 mm 0.00 in0.0 mm 0.00 in0.0 mm
06:55 PM 73.0°F22.8°C 53.8°F12.1°C 51% 7.3 mph NNW11.7 kmh NNW 7.3 mph11.7 kmh 30.04 in1017.3 mb 0.00 in0.0 mm 0.00 in0.0 mm 0.00 in0.0 mm
06:56 PM 73.0°F22.8°C 53.8°F12.1°C 51% 4.7 mph NW7.6 kmh NW 7.3 mph11.7 kmh 30.04 in1017.3 mb 0.00 in0.0 mm 0.00 in0.0 mm 0.00 in0.0 mm
06:57 PM 73.0°F22.8°C 53.8°F12.1°C 51% 4.2 mph N6.8 kmh N 7.3 mph11.7 kmh 30.04 in1017.3 mb 0.00 in0.0 mm 0.00 in0.0 mm 0.00 in0.0 mm
06:58 PM 73.0°F22.8°C 53.8°F12.1°C 51% 5.3 mph N8.5 kmh N 7.3 mph11.7 kmh 30.04 in1017.3 mb 0.00 in0.0 mm 0.00 in0.0 mm 0.00 in0.0 mm
06:59 PM 73.0°F22.8°C 53.8°F12.1°C 51% 4.2 mph WNW6.8 kmh WNW 7.3 mph11.7 kmh 30.04 in1017.3 mb 0.00 in0.0 mm 0.00 in0.0 mm 0.00 in0.0 mm
07:00 PM 73.0°F22.8°C 53.8°F12.1°C 51% 4.7 mph NNW7.6 kmh NNW 7.3 mph11.7 kmh 30.04 in1017.3 mb 0.00 in0.0 mm 0.00 in0.0 mm 0.00 in0.0 mm
07:01 PM 73.0°F22.8°C 53.8°F12.1°C 51% 3.7 mph NNW6.0 kmh NNW 7.3 mph11.7 kmh 30.04 in1017.3 mb 0.00 in0.0 mm 0.00 in0.0 mm 0.00 in0.0 mm
07:02 PM 73.0°F22.8°C 53.8°F12.1°C 51% 4.2 mph W6.8 kmh W 7.3 mph11.7 kmh 30.04 in1017.3 mb 0.00 in0.0 mm 0.00 in0.0 mm 0.00 in0.0 mm
07:03 PM 72.9°F22.7°C 53.7°F12.1°C 51% 2.7 mph W4.3 kmh W 7.3 mph11.7 kmh 30.04 in1017.3 mb 0.00 in0.0 mm 0.00 in0.0 mm 0.00 in0.0 mm
07:04 PM 72.9°F22.7°C 53.7°F12.1°C 51% 2.2 mph N3.5 kmh N 7.3 mph11.7 kmh 30.04 in1017.3 mb 0.00 in0.0 mm 0.00 in0.0 mm 0.00 in0.0 mm
07:05 PM 72.9°F22.7°C 54.2°F12.3°C 52% 3.2 mph NW5.1 kmh NW 7.3 mph11.7 kmh 30.04 in1017.3 mb 0.00 in0.0 mm 0.00 in0.0 mm 0.00 in0.0 mm
07:06 PM 72.9°F22.7°C 54.2°F12.3°C 52% 3.7 mph NNE6.0 kmh NNE 7.3 mph11.7 kmh 30.04 in1017.3 mb 0.00 in0.0 mm 0.00 in0.0 mm 0.00 in0.0 mm
07:07 PM 72.9°F22.7°C 54.2°F12.3°C 52% 3.7 mph NNW6.0 kmh NNW 7.3 mph11.7 kmh 30.04 in1017.3 mb 0.00 in0.0 mm 0.00 in0.0 mm 0.00 in0.0 mm
07:08 PM 72.9°F22.7°C 54.2°F12.3°C 52% 4.7 mph N7.6 kmh N 7.3 mph11.7 kmh 30.04 in1017.3 mb 0.00 in0.0 mm 0.00 in0.0 mm 0.00 in0.0 mm
07:09 PM 72.7°F22.6°C 54.0°F12.2°C 52% 3.7 mph NNW6.0 kmh NNW 4.7 mph7.6 kmh 30.04 in1017.3 mb 0.00 in0.0 mm 0.00 in0.0 mm 0.00 in0.0 mm
07:10 PM 72.7°F22.6°C 54.0°F12.2°C 52% 4.7 mph NNW7.6 kmh NNW 4.7 mph7.6 kmh 30.04 in1017.3 mb 0.00 in0.0 mm 0.00 in0.0 mm 0.00 in0.0 mm
07:11 PM 72.7°F22.6°C 54.0°F12.2°C 52% 3.7 mph NW6.0 kmh NW 4.7 mph7.6 kmh 30.04 in1017.3 mb 0.00 in0.0 mm 0.00 in0.0 mm 0.00 in0.0 mm
07:12 PM 72.7°F22.6°C 54.0°F12.2°C 52% 4.7 mph N7.6 kmh N 4.7 mph7.6 kmh 30.04 in1017.3 mb 0.00 in0.0 mm 0.00 in0.0 mm 0.00 in0.0 mm
07:13 PM 72.7°F22.6°C 54.0°F12.2°C 52% 2.7 mph N4.3 kmh N 4.7 mph7.6 kmh 30.04 in1017.3 mb 0.00 in0.0 mm 0.00 in0.0 mm 0.00 in0.0 mm
07:14 PM 72.7°F22.6°C 54.0°F12.2°C 52% 2.7 mph N4.3 kmh N 4.7 mph7.6 kmh 30.04 in1017.3 mb 0.00 in0.0 mm 0.00 in0.0 mm 0.00 in0.0 mm
07:15 PM 72.7°F22.6°C 54.0°F12.2°C 52% 4.2 mph NNE6.8 kmh NNE 4.7 mph7.6 kmh 30.04 in1017.3 mb 0.00 in0.0 mm 0.00 in0.0 mm 0.00 in0.0 mm
07:16 PM 72.7°F22.6°C 54.0°F12.2°C 52% 3.2 mph NW5.1 kmh NW 4.7 mph7.6 kmh 30.04 in1017.3 mb 0.00 in0.0 mm 0.00 in0.0 mm 0.00 in0.0 mm
07:17 PM 72.7°F22.6°C 54.0°F12.2°C 52% 5.3 mph NNW8.5 kmh NNW 5.3 mph8.5 kmh 30.04 in1017.3 mb 0.00 in0.0 mm 0.00 in0.0 mm 0.00 in0.0 mm
07:18 PM 72.7°F22.6°C 54.0°F12.2°C 52% 3.2 mph NE5.1 kmh NE 5.8 mph9.3 kmh 30.04 in1017.3 mb 0.00 in0.0 mm 0.00 in0.0 mm 0.00 in0.0 mm
07:19 PM 72.7°F22.6°C 54.0°F12.2°C 52% 3.7 mph NNW6.0 kmh NNW 5.8 mph9.3 kmh 30.04 in1017.3 mb 0.00 in0.0 mm 0.00 in0.0 mm 0.00 in0.0 mm
07:20 PM 72.7°F22.6°C 54.0°F12.2°C 52% 4.7 mph WNW7.6 kmh WNW 5.8 mph9.3 kmh 30.04 in1017.3 mb 0.00 in0.0 mm 0.00 in0.0 mm 0.00 in0.0 mm
07:21 PM 72.7°F22.6°C 54.0°F12.2°C 52% 5.8 mph WNW9.3 kmh WNW 6.3 mph10.1 kmh 30.04 in1017.3 mb 0.00 in0.0 mm 0.00 in0.0 mm 0.00 in0.0 mm
07:22 PM 72.7°F22.6°C 54.0°F12.2°C 52% 3.7 mph NNW6.0 kmh NNW 6.3 mph10.1 kmh 30.04 in1017.3 mb 0.00 in0.0 mm 0.00 in0.0 mm 0.00 in0.0 mm
07:23 PM 72.7°F22.6°C 54.0°F12.2°C 52% 4.2 mph NNE6.8 kmh NNE 6.3 mph10.1 kmh 30.04 in1017.3 mb 0.00 in0.0 mm 0.00 in0.0 mm 0.00 in0.0 mm
07:24 PM 72.7°F22.6°C 54.0°F12.2°C 52% 3.7 mph N6.0 kmh N 6.3 mph10.1 kmh 30.04 in1017.3 mb 0.00 in0.0 mm 0.00 in0.0 mm 0.00 in0.0 mm
07:25 PM 72.7°F22.6°C 54.0°F12.2°C 52% Calm Calm 6.3 mph10.1 kmh 30.04 in1017.3 mb 0.00 in0.0 mm 0.00 in0.0 mm 0.00 in0.0 mm
07:26 PM 72.7°F22.6°C 54.0°F12.2°C 52% Calm Calm 6.3 mph10.1 kmh 30.04 in1017.3 mb 0.00 in0.0 mm 0.00 in0.0 mm 0.00 in0.0 mm
07:27 PM 72.7°F22.6°C 54.0°F12.2°C 52% Calm Calm 6.3 mph10.1 kmh 30.04 in1017.3 mb 0.00 in0.0 mm 0.00 in0.0 mm 0.00 in0.0 mm
07:28 PM 72.7°F22.6°C 54.0°F12.2°C 52% Calm Calm 6.3 mph10.1 kmh 30.04 in1017.3 mb 0.00 in0.0 mm 0.00 in0.0 mm 0.00 in0.0 mm
07:29 PM 72.7°F22.6°C 54.0°F12.2°C 52% Calm Calm 4.2 mph6.8 kmh 30.04 in1017.3 mb 0.00 in0.0 mm 0.00 in0.0 mm 0.00 in0.0 mm
07:30 PM 72.7°F22.6°C 54.0°F12.2°C 52% Calm Calm 4.2 mph6.8 kmh 30.04 in1017.3 mb 0.00 in0.0 mm 0.00 in0.0 mm 0.00 in0.0 mm
07:31 PM 72.7°F22.6°C 54.0°F12.2°C 52% Calm Calm 4.2 mph6.8 kmh 30.04 in1017.3 mb 0.00 in0.0 mm 0.00 in0.0 mm 0.00 in0.0 mm
07:32 PM 72.7°F22.6°C 54.0°F12.2°C 52% Calm Calm 4.2 mph6.8 kmh 30.04 in1017.3 mb 0.00 in0.0 mm 0.00 in0.0 mm 0.00 in0.0 mm
07:33 PM 72.7°F22.6°C 54.0°F12.2°C 52% Calm Calm 4.2 mph6.8 kmh 30.04 in1017.3 mb 0.00 in0.0 mm 0.00 in0.0 mm 0.00 in0.0 mm
07:34 PM 72.7°F22.6°C 54.0°F12.2°C 52% Calm Calm 4.2 mph6.8 kmh 30.04 in1017.3 mb 0.00 in0.0 mm 0.00 in0.0 mm 0.00 in0.0 mm
07:35 PM 72.7°F22.6°C 54.0°F12.2°C 52% Calm Calm 4.2 mph6.8 kmh 30.04 in1017.3 mb 0.00 in0.0 mm 0.00 in0.0 mm 0.00 in0.0 mm
07:36 PM 72.7°F22.6°C 54.0°F12.2°C 52% Calm Calm -- 30.04 in1017.3 mb 0.00 in0.0 mm 0.00 in0.0 mm 0.00 in0.0 mm
07:37 PM 72.5°F22.5°C 54.4°F12.4°C 53% 3.7 mph NW6.0 kmh NW 3.7 mph6.0 kmh 30.04 in1017.3 mb 0.00 in0.0 mm 0.00 in0.0 mm 0.00 in0.0 mm
07:38 PM 72.5°F22.5°C 53.9°F12.2°C 52% 3.7 mph WNW6.0 kmh WNW 3.7 mph6.0 kmh 30.04 in1017.3 mb 0.00 in0.0 mm 0.00 in0.0 mm 0.00 in0.0 mm
07:39 PM 72.5°F22.5°C 53.9°F12.2°C 52% 4.2 mph NNW6.8 kmh NNW 5.3 mph8.5 kmh 30.04 in1017.3 mb 0.00 in0.0 mm 0.00 in0.0 mm 0.00 in0.0 mm
07:40 PM 72.5°F22.5°C 53.9°F12.2°C 52% 2.7 mph W4.3 kmh W 5.3 mph8.5 kmh 30.04 in1017.3 mb 0.00 in0.0 mm 0.00 in0.0 mm 0.00 in0.0 mm
07:41 PM 72.5°F22.5°C 53.9°F12.2°C 52% 3.7 mph WNW6.0 kmh WNW 5.3 mph8.5 kmh 30.04 in1017.3 mb 0.00 in0.0 mm 0.00 in0.0 mm 0.00 in0.0 mm
07:42 PM 72.5°F22.5°C 53.9°F12.2°C 52% 2.2 mph NNW3.5 kmh NNW 5.3 mph8.5 kmh 30.04 in1017.3 mb 0.00 in0.0 mm 0.00 in0.0 mm 0.00 in0.0 mm
07:43 PM 72.5°F22.5°C 53.9°F12.2°C 52% 2.7 mph NNW4.3 kmh NNW 5.3 mph8.5 kmh 30.04 in1017.3 mb 0.00 in0.0 mm